Provisional Data: West Branch Susquehanna River near Milton, PA


Please select a monitoring station.
Please select start date.
Please select start date.

Toggle Unit: C/F Toggle Unit: C/F
Sample Time Temperature (C) Temperature (F) Specific Conductivity (mS/cm) pH   Turbidity (NTU+) DO (mg/L)
8/1/2022 12:00:00 AM 26.51 79.718 0.378 7.93 1.72 8.25
8/1/2022 12:15:00 AM 26.49 79.682 0.378 7.92 2.46 8.24
8/1/2022 12:30:00 AM 26.46 79.628 0.378 7.92 2.28 8.18
8/1/2022 12:45:00 AM 26.44 79.592 0.378 7.9 1.94 8.13
8/1/2022 1:00:00 AM 26.51 79.718 0.395 7.91 7.11 8.52
8/1/2022 1:15:00 AM 26.56 79.808 0.206 7.82 3.12 8.57
8/1/2022 1:30:00 AM 26.4 79.52 0.228 7.86 3.28 8.46
8/1/2022 1:45:00 AM 26.35 79.43 0.377 7.89 1.4 8.09
8/1/2022 2:00:00 AM 26.33 79.394 0.377 7.89 1.23 8.05
8/1/2022 2:15:00 AM 26.3 79.34 0.377 7.88 1.72 8
8/1/2022 2:30:00 AM 26.27 79.286 0.377 7.88 5.46 7.96
8/1/2022 2:45:00 AM 0 32 0 0 0 0
8/1/2022 3:00:00 AM 26.35 79.43 0.378 7.86 12.27 7.92
8/1/2022 3:15:00 AM 26.19 79.142 0.376 7.86 4.49 7.87
8/1/2022 3:30:00 AM 26.29 79.32201 0.377 7.86 1.04 7.88
8/1/2022 3:45:00 AM 26.12 79.016 0.377 7.85 2.78 7.88
8/1/2022 4:00:00 AM 26.08 78.944 0.377 7.86 1.83 7.83
8/1/2022 4:15:00 AM 26.05 78.89 0.377 7.85 2.61 7.8
8/1/2022 4:30:00 AM 26.01 78.818 0.377 7.85 2.67 7.79
8/1/2022 4:45:00 AM 25.97 78.746 0.378 7.85 2.42 7.79
8/1/2022 5:00:00 AM 0 32 0 0 0 0
8/1/2022 5:15:00 AM 26.01 78.818 0.378 7.84 1.28 7.65
8/1/2022 5:30:00 AM 25.86 78.548 0.378 7.83 1.34 7.67
8/1/2022 5:45:00 AM 25.83 78.494 0.378 7.83 1.24 7.63
8/1/2022 6:00:00 AM 25.78 78.404 0.378 7.83 1.57 7.65
8/1/2022 6:15:00 AM 25.74 78.332 0.378 7.83 1.39 7.66
8/1/2022 6:30:00 AM 25.71 78.278 0.378 7.82 1.61 7.64
8/1/2022 6:45:00 AM 25.67 78.206 0.378 7.82 1.34 7.63
8/1/2022 7:00:00 AM 25.64 78.152 0.378 7.81 1.56 7.65
8/1/2022 7:15:00 AM 25.6 78.08 0.378 7.81 1.48 7.65
8/1/2022 7:30:00 AM 25.58 78.044 0.378 7.82 1.51 7.68
8/1/2022 7:45:00 AM 25.56 78.008 0.378 7.82 1.25 7.71
8/1/2022 8:00:00 AM 0 32 0 0 0 0
8/1/2022 8:15:00 AM 25.65 78.17 0.378 7.83 1.78 7.75
8/1/2022 8:30:00 AM 25.56 78.008 0.379 7.84 1.52 7.78
8/1/2022 8:45:00 AM 25.57 78.026 0.378 7.84 1.34 7.83
8/1/2022 9:00:00 AM 25.56 78.008 0.378 7.84 1.39 7.85
8/1/2022 9:15:00 AM 25.56 78.008 0.378 7.84 1.5 7.91
8/1/2022 9:30:00 AM 25.57 78.026 0.378 7.85 1.27 7.91
8/1/2022 9:45:00 AM 25.57 78.026 0.378 7.85 1.3 7.96
8/1/2022 10:00:00 AM 26.21 79.17799 0.4 7.85 2.57 8.62
8/1/2022 10:15:00 AM 26.18 79.124 0.39 7.77 2.11 8.6
8/1/2022 10:30:00 AM 0 32 0 0 0 0
8/1/2022 10:45:00 AM 26.04 78.872 0.378 7.85 1.52 8.18
8/1/2022 11:00:00 AM 26.04 78.872 0.378 7.86 1.34 8.2
8/1/2022 11:15:00 AM 26.16 79.088 0.378 7.87 1.54 8.2
8/1/2022 11:30:00 AM 26.14 79.052 0.378 7.87 1.35 8.22
8/1/2022 11:45:00 AM 26.14 79.052 0.378 7.88 1.35 8.21
8/1/2022 12:00:00 PM 26.3 79.34 0.378 7.88 1.22 8.26
8/1/2022 12:15:00 PM 26.4 79.52 0.378 7.89 1.38 8.3
8/1/2022 12:30:00 PM 26.45 79.61 0.378 7.9 1.2 8.34
8/1/2022 12:45:00 PM 26.62 79.916 0.378 7.91 1.17 8.36
8/1/2022 1:00:00 PM 0 32 0 0 0 0
8/1/2022 1:15:00 PM 26.9 80.42 0.378 7.92 1.4 8.41
8/1/2022 1:30:00 PM 27.01 80.618 0.378 7.92 1.29 8.48
8/1/2022 1:45:00 PM 27.15 80.87 0.378 7.93 1.39 8.52
8/1/2022 2:00:00 PM 27.22 80.996 0.378 7.94 1.27 8.57
8/1/2022 2:15:00 PM 27.35 81.23 0.378 7.94 1.38 8.61
8/1/2022 2:30:00 PM 27.43 81.374 0.378 7.95 1.42 8.64
8/1/2022 2:45:00 PM 27.5 81.5 0.378 7.96 1.71 8.66
8/1/2022 3:00:00 PM 27.57 81.626 0.379 7.96 2.99 8.68
8/1/2022 3:15:00 PM 27.63 81.734 0.379 7.97 14.63 8.71
8/1/2022 3:30:00 PM 27.74 81.932 0.379 7.97 19.74 8.77
8/1/2022 3:45:00 PM 27.81 82.058 0.379 7.98 38.34 8.79
8/1/2022 4:00:00 PM 27.95 82.31 0.379 7.99 11.74 8.81
8/1/2022 4:15:00 PM 28.06 82.508 0.379 7.99 15.76 8.83
8/1/2022 4:30:00 PM 28.13 82.634 0.378 8 25.94 8.83
8/1/2022 4:45:00 PM 28.2 82.76 0.378 8 10.98 8.86
8/1/2022 5:00:00 PM 28.25 82.85 0.374 8.01 7.77 8.88
8/1/2022 5:15:00 PM 28.25 82.85 0.36 8.01 1.62 8.88
8/1/2022 5:30:00 PM 28.25 82.85 0.34 8.01 0.35 8.92
8/1/2022 5:45:00 PM 28.24 82.832 0.313 8.02 2.31 8.92
8/1/2022 6:00:00 PM 28.21 82.778 0.29 8.02 2.77 8.93
8/1/2022 6:15:00 PM 28.14 82.652 0.254 8.02 4.71 8.92
8/1/2022 6:30:00 PM 28.07 82.526 0.199 8.02 5.88 8.9
8/1/2022 6:45:00 PM 28.02 82.436 0.145 8.02 1.71 8.89
8/1/2022 7:00:00 PM 27.97 82.346 0.123 8.02 1.46 8.83
8/1/2022 7:15:00 PM 27.95 82.31 0.139 8.02 1.49 8.82
8/1/2022 7:30:00 PM 27.97 82.346 0.195 8.01 1.44 8.78
8/1/2022 7:45:00 PM 27.98 82.364 0.266 8.01 1.67 8.73
8/1/2022 8:00:00 PM 27.98 82.364 0.336 8.01 1.4 8.7
8/1/2022 8:15:00 PM 27.99 82.382 0.365 8 1.65 8.68
8/1/2022 8:30:00 PM 27.99 82.382 0.374 8 1.49 8.67
8/1/2022 8:45:00 PM 27.97 82.346 0.377 8 1.72 8.63
8/1/2022 9:00:00 PM 27.97 82.346 0.379 8 1.66 8.63
8/1/2022 9:15:00 PM 27.96 82.328 0.379 8 1.41 8.61
8/1/2022 9:30:00 PM 27.95 82.31 0.379 7.99 1.63 8.59
8/1/2022 9:45:00 PM 27.93 82.274 0.379 7.99 1.46 8.58
8/1/2022 10:00:00 PM 27.91 82.238 0.379 7.98 1.67 8.56
8/1/2022 10:15:00 PM 27.89 82.202 0.379 7.98 1.62 8.53
8/1/2022 10:30:00 PM 27.87 82.166 0.38 7.98 1.5 8.52
8/1/2022 10:45:00 PM 27.86 82.148 0.38 7.98 1.58 8.5
8/1/2022 11:00:00 PM 27.85 82.13 0.38 7.97 1.66 8.46
8/1/2022 11:15:00 PM 27.85 82.13 0.379 7.98 1.64 8.43
8/1/2022 11:30:00 PM 27.82 82.076 0.379 7.97 1.52 8.38
8/1/2022 11:45:00 PM 27.8 82.04 0.379 7.97 1.6 8.35
8/2/2022 12:00:00 AM 27.78 82.004 0.379 7.96 1.75 8.29
8/2/2022 12:15:00 AM 27.74 81.932 0.379 7.96 1.54 8.27
8/2/2022 12:30:00 AM 27.71 81.878 0.379 7.95 1.55 8.24
8/2/2022 12:45:00 AM 27.3 81.14 0.393 7.94 4.13 8.48
8/2/2022 1:00:00 AM 27.46 81.42799 0.388 7.85 4.77 8.46
8/2/2022 1:15:00 AM 27.59 81.662 0.38 7.9 8.27 8.33
8/2/2022 1:30:00 AM 27.58 81.644 0.379 7.92 5.13 8.23
8/2/2022 1:45:00 AM 27.56 81.608 0.379 7.92 1.76 8.07
8/2/2022 2:00:00 AM 27.54 81.57201 0.378 7.92 1.33 8.02
8/2/2022 2:15:00 AM 27.52 81.536 0.378 7.91 1.82 7.96
8/2/2022 2:30:00 AM 27.49 81.482 0.378 7.91 1.59 7.92
8/2/2022 2:45:00 AM 27.47 81.446 0.378 7.91 1.67 7.95
8/2/2022 3:00:00 AM 27.43 81.374 0.378 7.91 1.6 7.92
8/2/2022 3:15:00 AM 27.39 81.302 0.378 7.9 1.82 7.88
8/2/2022 3:30:00 AM 27.34 81.212 0.378 7.9 1.65 7.83
8/2/2022 3:45:00 AM 27.28 81.104 0.378 7.89 1.65 7.83
8/2/2022 4:00:00 AM 27.23 81.014 0.377 7.89 1.72 7.79
8/2/2022 4:15:00 AM 27.18 80.924 0.377 7.88 1.64 7.78
8/2/2022 4:30:00 AM 27.13 80.834 0.377 7.88 1.61 7.64
8/2/2022 4:45:00 AM 27.07 80.726 0.377 7.87 1.34 7.61
8/2/2022 5:00:00 AM 27 80.6 0.377 7.87 1.74 7.62
8/2/2022 5:15:00 AM 26.94 80.492 0.377 7.86 1.49 7.57
8/2/2022 5:30:00 AM 26.86 80.348 0.376 7.86 1.23 7.55
8/2/2022 5:45:00 AM 26.79 80.222 0.376 7.85 1.46 7.52
8/2/2022 6:00:00 AM 26.72 80.096 0.376 7.85 1.62 7.48
8/2/2022 6:15:00 AM 26.66 79.988 0.376 7.84 1.55 7.47
8/2/2022 6:30:00 AM 26.59 79.862 0.376 7.84 1.5 7.4
8/2/2022 6:45:00 AM 26.54 79.772 0.376 7.84 1.54 7.44
8/2/2022 7:00:00 AM 26.49 79.682 0.376 7.84 1.36 7.51
8/2/2022 7:15:00 AM 26.45 79.61 0.376 7.84 1.63 7.52
8/2/2022 7:30:00 AM 26.42 79.556 0.376 7.84 1.42 7.39
8/2/2022 7:45:00 AM 26.4 79.52 0.376 7.84 1.6 7.44
8/2/2022 8:00:00 AM 26.41 79.538 0.376 7.84 1.36 7.45
8/2/2022 8:15:00 AM 26.4 79.52 0.376 7.85 1.47 7.42
8/2/2022 8:30:00 AM 26.41 79.538 0.377 7.85 1.4 7.41
8/2/2022 8:45:00 AM 26.44 79.592 0.376 7.85 1.35 7.41
8/2/2022 9:00:00 AM 26.48 79.664 0.376 7.85 1.44 7.54
8/2/2022 9:15:00 AM 26.82 80.276 0.394 7.87 3.5 8.24
8/2/2022 9:30:00 AM 26.95 80.51 0.385 7.82 4.07 8.2
8/2/2022 9:45:00 AM 26.61 79.898 0.377 7.85 2.64 8.14
8/2/2022 10:00:00 AM 26.62 79.916 0.377 7.86 2.07 7.93
8/2/2022 10:15:00 AM 26.69 80.042 0.377 7.87 2.45 7.88
8/2/2022 10:30:00 AM 26.74 80.132 0.378 7.87 12.31 7.9
8/2/2022 10:45:00 AM 26.84 80.312 0.378 7.88 41.18 7.92
8/2/2022 11:00:00 AM 26.92 80.456 0.377 7.89 39.07 7.96
8/2/2022 11:15:00 AM 26.94 80.492 0.377 7.89 9.95 7.99
8/2/2022 11:30:00 AM 26.98 80.564 0.377 7.89 15.07 8.01
8/2/2022 11:45:00 AM 27.02 80.636 0.377 7.9 17.59 8.03
8/2/2022 12:00:00 PM 27.12 80.816 0.376 7.9 8.19 8.07
8/2/2022 12:15:00 PM 27.14 80.852 0.374 7.91 5.67 8.15
8/2/2022 12:30:00 PM 27.17 80.906 0.366 7.91 2.37 8.19
8/2/2022 12:45:00 PM 27.21 80.978 0.352 7.92 0.3 8.21
8/2/2022 1:00:00 PM 27.29 81.122 0.335 7.92 0.29 8.24
8/2/2022 1:15:00 PM 27.38 81.284 0.308 7.93 1.42 8.28
8/2/2022 1:30:00 PM 27.51 81.518 0.285 7.94 1.68 8.32
8/2/2022 1:45:00 PM 27.67 81.806 0.249 7.94 3.7 8.34
8/2/2022 2:00:00 PM 27.8 82.04 0.2 7.96 6.24 8.41
8/2/2022 2:15:00 PM 27.92 82.256 0.143 7.96 1.42 8.48
8/2/2022 2:30:00 PM 27.96 82.328 0.117 7.97 1.25 8.47
8/2/2022 2:45:00 PM 28.03 82.454 0.135 7.98 1.13 8.49
8/2/2022 3:00:00 PM 28.15 82.67 0.196 7.98 1.15 8.53
8/2/2022 3:15:00 PM 28.3 82.94 0.269 8 1.14 8.58
8/2/2022 3:30:00 PM 28.42 83.156 0.335 8 1.08 8.59
8/2/2022 3:45:00 PM 28.51 83.318 0.363 8.02 1.26 8.62
8/2/2022 4:00:00 PM 28.58 83.444 0.371 8.02 1.12 8.64
8/2/2022 4:15:00 PM 28.62 83.51601 0.374 8.03 1.25 8.65
8/2/2022 4:30:00 PM 28.66 83.588 0.376 8.03 1.21 8.68
8/2/2022 4:45:00 PM 28.67 83.606 0.376 8.03 1.14 8.7
8/2/2022 5:00:00 PM 28.67 83.606 0.376 8.04 1.16 8.73
8/2/2022 5:15:00 PM 28.67 83.606 0.376 8.04 1.25 8.76
8/2/2022 5:30:00 PM 28.68 83.624 0.376 8.03 1.21 8.77
8/2/2022 5:45:00 PM 28.69 83.642 0.376 8.02 1.33 8.79
8/2/2022 6:00:00 PM 28.33 82.994 0.386 8.02 7.2 8.63
8/2/2022 6:15:00 PM 28.14 82.652 0.386 7.91 1.7 8.54
8/2/2022 6:30:00 PM 28.47 83.24599 0.378 7.94 6.51 8.59
8/2/2022 6:45:00 PM 28.51 83.318 0.376 7.99 5.22 8.65
8/2/2022 7:00:00 PM 28.5 83.3 0.376 8 4.14 8.66
8/2/2022 7:15:00 PM 28.51 83.318 0.376 8 3.16 8.68
8/2/2022 7:30:00 PM 28.51 83.318 0.376 8 2.61 8.66
8/2/2022 7:45:00 PM 28.52 83.336 0.364 8.02 2.29 8.6
8/2/2022 8:00:00 PM 28.52 83.336 0.375 8.01 1.83 8.61
8/2/2022 8:15:00 PM 28.52 83.336 0.343 8.01 1.32 8.56
8/2/2022 8:30:00 PM 28.53 83.354 0.14 8.01 2.36 8.5
8/2/2022 8:45:00 PM 28.52 83.336 0.378 8 2.09 8.46
8/2/2022 9:00:00 PM 28.51 83.318 0.376 8 2.52 8.45
8/2/2022 9:15:00 PM 28.49 83.282 0.376 7.99 4.04 8.4
8/2/2022 9:30:00 PM 28.46 83.228 0.376 8 2.67 8.43
8/2/2022 9:45:00 PM 28.43 83.174 0.377 7.99 3.13 8.45
8/2/2022 10:00:00 PM 28.39 83.102 0.375 7.99 2.23 8.42
8/2/2022 10:15:00 PM 28.37 83.066 0.376 7.99 2.96 8.39
8/2/2022 10:30:00 PM 28.33 82.994 0.376 7.99 2.63 8.4
8/2/2022 10:45:00 PM 28.29 82.922 0.376 7.99 2.11 8.36
8/2/2022 11:00:00 PM 28.24 82.832 0.286 7.98 2.39 8.33
8/2/2022 11:15:00 PM 28.21 82.778 0.131 7.98 2.05 8.3
8/2/2022 11:30:00 PM 28.16 82.688 0.376 7.98 2.15 8.26
8/2/2022 11:45:00 PM 28.11 82.598 0.376 7.97 2.87 8.23
8/3/2022 12:00:00 AM 28.05 82.49 0.376 7.97 2.95 8.19
8/3/2022 12:15:00 AM 27.99 82.382 0.376 7.96 2.14 8.15
8/3/2022 12:30:00 AM 27.94 82.292 0.376 7.96 2.89 8.12
8/3/2022 12:45:00 AM 27.89 82.202 0.376 7.96 2.08 8.09
8/3/2022 1:00:00 AM 27.84 82.112 0.376 7.96 2.77 8.05
8/3/2022 1:15:00 AM 27.78 82.004 0.376 7.95 2.83 8.01
8/3/2022 1:30:00 AM 27.72 81.896 0.376 7.94 2.42 7.98
8/3/2022 1:45:00 AM 27.66 81.788 0.376 7.94 2.21 7.95
8/3/2022 2:00:00 AM 27.61 81.698 0.376 7.94 1.44 7.9
8/3/2022 2:15:00 AM 27.56 81.608 0.376 7.93 1.59 7.9
8/3/2022 2:30:00 AM 27.49 81.482 0.376 7.93 2 7.85
8/3/2022 2:45:00 AM 27.41 81.338 0.202 7.92 1.54 7.85
8/3/2022 3:00:00 AM 27.34 81.212 0.205 7.92 1.41 7.82
8/3/2022 3:15:00 AM 27.27 81.086 0.208 7.92 1.42 7.78
8/3/2022 3:30:00 AM 27.2 80.96 0.215 7.91 1.47 7.77
8/3/2022 3:45:00 AM 27.12 80.816 0.231 7.91 1.52 7.73
8/3/2022 4:00:00 AM 27.04 80.672 0.287 7.91 1.35 7.71
8/3/2022 4:15:00 AM 26.97 80.546 0.342 7.9 1.35 7.7
8/3/2022 4:30:00 AM 26.89 80.402 0.369 7.9 1.27 7.66
8/3/2022 4:45:00 AM 26.8 80.24 0.374 7.89 1.41 7.64
8/3/2022 5:00:00 AM 26.72 80.096 0.375 7.89 1.76 7.65
8/3/2022 5:15:00 AM 26.64 79.952 0.374 7.88 1.6 7.59
8/3/2022 5:30:00 AM 26.56 79.808 0.374 7.87 1.39 7.58
8/3/2022 5:45:00 AM 26.49 79.682 0.374 7.87 1.44 7.56
8/3/2022 6:00:00 AM 26.4 79.52 0.374 7.86 1.48 7.53
8/3/2022 6:15:00 AM 26.33 79.394 0.374 7.86 1.52 7.52
8/3/2022 6:30:00 AM 26.26 79.268 0.374 7.85 1.36 7.53
8/3/2022 6:45:00 AM 26.2 79.16 0.373 7.84 1.48 7.49
8/3/2022 7:00:00 AM 26.16 79.088 0.373 7.84 1.51 7.54
8/3/2022 7:15:00 AM 26.11 78.998 0.373 7.84 1.38 7.56
8/3/2022 7:30:00 AM 26.08 78.944 0.373 7.84 1.41 7.54
8/3/2022 7:45:00 AM 26.06 78.908 0.373 7.84 1.43 7.57
8/3/2022 8:00:00 AM 26.05 78.89 0.373 7.84 1.37 7.61
8/3/2022 8:15:00 AM 26.05 78.89 0.373 7.85 1.5 7.64
8/3/2022 8:30:00 AM 26.06 78.908 0.373 7.85 1.39 7.66
8/3/2022 8:45:00 AM 26.09 78.962 0.373 7.86 1.51 7.72
8/3/2022 9:00:00 AM 26.14 79.052 0.373 7.86 1.27 7.7
8/3/2022 9:15:00 AM 26.18 79.124 0.373 7.86 1.37 7.76
8/3/2022 9:30:00 AM 26.24 79.232 0.373 7.87 1.43 7.77
8/3/2022 9:45:00 AM 26.31 79.358 0.373 7.87 1.31 7.82
8/3/2022 10:00:00 AM 26.38 79.484 0.373 7.87 1.35 7.81
8/3/2022 10:15:00 AM 26.46 79.628 0.373 7.88 1.39 7.87
8/3/2022 10:30:00 AM 26.56 79.808 0.373 7.88 1.48 7.87
8/3/2022 10:45:00 AM 27.23 81.014 0.392 7.86 3.55 8.45
8/3/2022 11:00:00 AM 27.25 81.05 0.385 7.79 1.73 8.32
8/3/2022 11:15:00 AM 26.88 80.384 0.373 7.88 1.81 8.1
8/3/2022 11:30:00 AM 27 80.6 0.373 7.89 1.45 8.13
8/3/2022 11:45:00 AM 27.09 80.762 0.373 7.9 1.46 8.16
8/3/2022 12:00:00 PM 27.2 80.96 0.373 7.91 1.55 8.18
8/3/2022 12:15:00 PM 27.31 81.158 0.373 7.91 1.45 8.2
8/3/2022 12:30:00 PM 27.41 81.338 0.373 7.92 1.48 8.24
8/3/2022 12:45:00 PM 27.52 81.536 0.373 7.93 1.7 8.27
8/3/2022 1:00:00 PM 27.64 81.752 0.373 7.93 1.35 8.3
8/3/2022 1:15:00 PM 27.75 81.95 0.374 7.94 1.46 8.34
8/3/2022 1:30:00 PM 27.85 82.13 0.374 7.95 1.5 8.38
8/3/2022 1:45:00 PM 27.95 82.31 0.374 7.96 1.46 8.41
8/3/2022 2:00:00 PM 28.05 82.49 0.374 7.96 1.44 8.44
8/3/2022 2:15:00 PM 28.14 82.652 0.374 7.97 1.26 8.46
8/3/2022 2:30:00 PM 28.23 82.814 0.374 7.97 1.29 8.48
8/3/2022 2:45:00 PM 28.32 82.976 0.374 7.98 1.34 8.46
8/3/2022 3:00:00 PM 28.38 83.084 0.374 7.98 1.31 8.46
8/3/2022 3:15:00 PM 28.44 83.192 0.374 7.99 1.46 8.53
8/3/2022 3:30:00 PM 28.52 83.336 0.374 8 1.53 8.57
8/3/2022 3:45:00 PM 28.57 83.426 0.374 8 1.99 8.56
8/3/2022 4:00:00 PM 28.64 83.552 0.375 8.01 8.54 8.61
8/3/2022 4:15:00 PM 28.68 83.624 0.374 8.02 24.86 8.66
8/3/2022 4:30:00 PM 28.74 83.732 0.374 8.02 11.9 8.69
8/3/2022 4:45:00 PM 28.76 83.768 0.374 8.03 10.06 8.71
8/3/2022 5:00:00 PM 28.79 83.82201 0.374 8.04 18.54 8.72
8/3/2022 5:15:00 PM 28.8 83.84 0.374 8.04 28.62 8.75
8/3/2022 5:30:00 PM 28.79 83.82201 0.373 8.04 15.4 8.77
8/3/2022 5:45:00 PM 28.77 83.786 0.369 8.05 4.38 8.76
8/3/2022 6:00:00 PM 28.74 83.732 0.353 8.04 3.13 8.74
8/3/2022 6:15:00 PM 28.7 83.66 0.338 8.04 2.61 8.72
8/3/2022 6:30:00 PM 28.3 82.94 0.306 7.91 5.14 8.51
8/3/2022 6:45:00 PM 28.36 83.048 0.285 7.92 4.3 8.54
8/3/2022 7:00:00 PM 28.57 83.426 0.262 8 7.74 8.63
8/3/2022 7:15:00 PM 28.56 83.408 0.216 8 7.63 8.64
8/3/2022 7:30:00 PM 28.53 83.354 0.153 8 1.57 8.58
8/3/2022 7:45:00 PM 28.52 83.336 0.118 7.99 1.83 8.56
8/3/2022 8:00:00 PM 28.51 83.318 0.132 7.99 1.61 8.56
8/3/2022 8:15:00 PM 28.52 83.336 0.171 7.98 1.75 8.5
8/3/2022 8:30:00 PM 28.51 83.318 0.236 7.98 1.56 8.51
8/3/2022 8:45:00 PM 28.51 83.318 0.312 7.97 1.6 8.48
8/3/2022 9:00:00 PM 28.5 83.3 0.356 7.97 1.43 8.47
8/3/2022 9:15:00 PM 28.48 83.264 0.368 7.97 1.69 8.45
8/3/2022 9:30:00 PM 28.46 83.228 0.371 7.97 1.83 8.43
8/3/2022 9:45:00 PM 28.45 83.21001 0.374 7.97 1.79 8.41
8/3/2022 10:00:00 PM 28.44 83.192 0.375 7.97 1.56 8.39
8/3/2022 10:15:00 PM 28.43 83.174 0.375 7.96 1.54 8.36
8/3/2022 10:30:00 PM 28.42 83.156 0.374 7.95 1.52 8.34
8/3/2022 10:45:00 PM 28.41 83.138 0.374 7.95 1.52 8.37
8/3/2022 11:00:00 PM 28.4 83.12 0.374 7.95 1.42 8.32
8/3/2022 11:15:00 PM 28.39 83.102 0.375 7.95 1.37 8.29
8/3/2022 11:30:00 PM 28.38 83.084 0.375 7.95 1.58 8.25
8/3/2022 11:45:00 PM 28.36 83.048 0.375 7.94 1.66 8.21
8/4/2022 12:00:00 AM 28.34 83.012 0.375 7.94 1.52 8.19
8/4/2022 12:15:00 AM 28.33 82.994 0.375 7.93 1.96 8.14
8/4/2022 12:30:00 AM 28.31 82.958 0.375 7.93 1.42 8.08
8/4/2022 12:45:00 AM 28.28 82.904 0.375 7.92 1.88 8.05
8/4/2022 1:00:00 AM 28.27 82.886 0.375 7.92 1.79 8.04
8/4/2022 1:15:00 AM 28.25 82.85 0.375 7.91 1.68 7.97
8/4/2022 1:30:00 AM 28.24 82.832 0.375 7.91 1.69 7.91
8/4/2022 1:45:00 AM 28.23 82.814 0.376 7.9 1.58 7.89
8/4/2022 2:00:00 AM 28.22 82.796 0.376 7.9 1.72 7.84
8/4/2022 2:15:00 AM 28.21 82.778 0.376 7.9 1.49 7.87
8/4/2022 2:30:00 AM 28.18 82.724 0.376 7.89 1.6 7.84
8/4/2022 2:45:00 AM 28.15 82.67 0.376 7.88 2.11 7.8
8/4/2022 3:00:00 AM 27.97 82.346 0.387 7.91 5.33 8.21
8/4/2022 3:15:00 AM 28.04 82.472 0.381 7.84 1.94 8.07
8/4/2022 3:30:00 AM 28.03 82.454 0.377 7.87 1.69 7.85
8/4/2022 3:45:00 AM 28.02 82.436 0.376 7.87 1.58 7.74
8/4/2022 4:00:00 AM 27.98 82.364 0.376 7.86 1.37 7.69
8/4/2022 4:15:00 AM 27.95 82.31 0.376 7.86 1.53 7.65
8/4/2022 4:30:00 AM 27.9 82.22 0.376 7.85 1.47 7.64
8/4/2022 4:45:00 AM 27.86 82.148 0.376 7.85 1.69 7.6
8/4/2022 5:00:00 AM 27.82 82.076 0.376 7.85 1.54 7.57
8/4/2022 5:15:00 AM 27.76 81.968 0.376 7.84 1.74 7.57
8/4/2022 5:30:00 AM 27.71 81.878 0.376 7.83 1.66 7.53
8/4/2022 5:45:00 AM 27.67 81.806 0.376 7.83 1.53 7.52
8/4/2022 6:00:00 AM 27.63 81.734 0.376 7.82 1.66 7.52
8/4/2022 6:15:00 AM 27.58 81.644 0.376 7.82 1.45 7.52
8/4/2022 6:30:00 AM 27.53 81.554 0.376 7.82 1.76 7.52
8/4/2022 6:45:00 AM 27.49 81.482 0.376 7.82 1.75 7.54
8/4/2022 7:00:00 AM 27.48 81.464 0.376 7.82 1.75 7.55
8/4/2022 7:15:00 AM 27.45 81.41 0.376 7.82 1.5 7.55
8/4/2022 7:30:00 AM 27.44 81.392 0.376 7.82 1.66 7.57
8/4/2022 7:45:00 AM 27.44 81.392 0.376 7.82 1.47 7.59
8/4/2022 8:00:00 AM 27.45 81.41 0.376 7.83 1.87 7.57
8/4/2022 8:15:00 AM 27.47 81.446 0.376 7.83 4.03 7.57
8/4/2022 8:30:00 AM 27.49 81.482 0.376 7.84 11.2 7.67
8/4/2022 8:45:00 AM 27.75 81.95 0.388 7.85 13.1 8.25
8/4/2022 9:00:00 AM 27.84 82.112 0.384 7.78 9.97 8.19
8/4/2022 9:15:00 AM 27.65 81.77 0.376 7.84 13.1 7.88
8/4/2022 9:30:00 AM 27.72 81.896 0.376 7.85 16.82 7.87
8/4/2022 9:45:00 AM 27.79 82.022 0.376 7.86 17.63 7.87
8/4/2022 10:00:00 AM 27.87 82.166 0.375 7.86 11.19 7.88
8/4/2022 10:15:00 AM 27.98 82.364 0.37 7.87 2.2 7.9
8/4/2022 10:30:00 AM 28.08 82.544 0.353 7.87 1.26 7.92
8/4/2022 10:45:00 AM 28.17 82.706 0.335 7.88 0.55 7.96
8/4/2022 11:00:00 AM 28.29 82.922 0.311 7.88 2.13 7.99
8/4/2022 11:15:00 AM 28.41 83.138 0.288 7.89 1.86 8.02
8/4/2022 11:30:00 AM 28.51 83.318 0.258 7.9 1.77 8.05
8/4/2022 11:45:00 AM 28.63 83.534 0.205 7.9 5.32 8.11
8/4/2022 12:00:00 PM 28.77 83.786 0.144 7.9 1.76 8.15
8/4/2022 12:15:00 PM 28.86 83.948 0.117 7.91 1.44 8.18
8/4/2022 12:30:00 PM 28.95 84.11 0.136 7.91 1.31 8.21
8/4/2022 12:45:00 PM 29.07 84.326 0.19 7.92 1.28 8.24
8/4/2022 1:00:00 PM 29.02 84.236 0.265 7.91 1.32 8.21
8/4/2022 1:15:00 PM 28.93 84.074 0.341 7.91 1.31 8.16
8/4/2022 1:30:00 PM 28.84 83.912 0.367 7.9 1.23 8.15
8/4/2022 1:45:00 PM 28.73 83.714 0.373 7.91 1.3 8.15
8/4/2022 2:00:00 PM 28.61 83.498 0.376 7.91 1.24 8.12
8/4/2022 2:15:00 PM 28.44 83.192 0.374 7.91 1.42 8.12
8/4/2022 2:30:00 PM 28.34 83.012 0.373 7.9 1.48 8.12
8/4/2022 2:45:00 PM 28.28 82.904 0.373 7.89 1.38 8.1
8/4/2022 3:00:00 PM 28.23 82.814 0.372 7.88 1.75 8.07
8/4/2022 3:15:00 PM 28.21 82.778 0.371 7.91 1.96 8.07
8/4/2022 3:30:00 PM 28.22 82.796 0.371 7.92 1.93 8.13
8/4/2022 3:45:00 PM 28.21 82.778 0.37 7.93 2.2 8.16
8/4/2022 4:00:00 PM 28.22 82.796 0.368 7.94 2.26 8.17
8/4/2022 4:15:00 PM 28.27 82.886 0.368 7.95 2.45 8.24
8/4/2022 4:30:00 PM 28.31 82.958 0.369 7.97 2.41 8.3
8/4/2022 4:45:00 PM 28.34 83.012 0.37 7.97 2.04 8.43
8/4/2022 5:00:00 PM 28.39 83.102 0.37 7.98 1.86 8.47
8/4/2022 5:15:00 PM 28.39 83.102 0.371 7.98 1.66 8.46
8/4/2022 5:30:00 PM 28.39 83.102 0.371 7.98 1.71 8.5
8/4/2022 5:45:00 PM 28.38 83.084 0.371 7.98 1.59 8.51
8/4/2022 6:00:00 PM 28.34 83.012 0.372 7.97 2.3 8.49
8/4/2022 6:15:00 PM 28.31 82.958 0.372 7.97 1.94 8.46
8/4/2022 6:30:00 PM 28.25 82.85 0.373 7.96 1.55 8.45
8/4/2022 6:45:00 PM 28.19 82.742 0.373 7.96 1.87 8.42
8/4/2022 7:00:00 PM 28.11 82.598 0.373 7.95 1.57 8.4
8/4/2022 7:15:00 PM 28.06 82.508 0.374 7.94 1.39 8.39
8/4/2022 7:30:00 PM 28.02 82.436 0.374 7.93 1.42 8.29
8/4/2022 7:45:00 PM 27.97 82.346 0.374 7.93 1.5 8.27
8/4/2022 8:00:00 PM 27.93 82.274 0.374 7.92 1.45 8.21
8/4/2022 8:15:00 PM 27.9 82.22 0.375 7.91 1.37 8.19
8/4/2022 8:30:00 PM 27.89 82.202 0.375 7.91 1.4 8.2
8/4/2022 8:45:00 PM 27.87 82.166 0.375 7.9 1.42 8.19
8/4/2022 9:00:00 PM 27.86 82.148 0.375 7.9 1.32 8.15
8/4/2022 9:15:00 PM 27.86 82.148 0.375 7.9 1.41 8.17
8/4/2022 9:30:00 PM 27.86 82.148 0.376 7.9 1.33 8.16
8/4/2022 9:45:00 PM 27.86 82.148 0.377 7.89 1.5 8.15
8/4/2022 10:00:00 PM 27.87 82.166 0.377 7.89 1.52 8.15
8/4/2022 10:15:00 PM 27.87 82.166 0.377 7.9 1.42 8.15
8/4/2022 10:30:00 PM 27.87 82.166 0.378 7.9 1.42 8.11
8/4/2022 10:45:00 PM 27.88 82.184 0.378 7.9 1.51 8.1
8/4/2022 11:00:00 PM 27.87 82.166 0.378 7.9 1.62 8.08
8/4/2022 11:15:00 PM 27.86 82.148 0.379 7.89 1.55 8.04
8/4/2022 11:30:00 PM 27.85 82.13 0.378 7.89 1.74 7.99
8/4/2022 11:45:00 PM 27.83 82.094 0.378 7.89 1.68 7.96
8/5/2022 12:00:00 AM 27.8 82.04 0.378 7.89 1.41 7.93
8/5/2022 12:15:00 AM 27.76 81.968 0.378 7.89 1.85 7.92
8/5/2022 12:30:00 AM 27.73 81.914 0.378 7.89 2.69 7.89
8/5/2022 12:45:00 AM 27.88 82.184 0.392 7.87 12.76 8.27
8/5/2022 1:00:00 AM 27.84 82.112 0.384 7.81 16.59 8.28
8/5/2022 1:15:00 AM 27.61 81.698 0.378 7.86 11.43 8.09
8/5/2022 1:30:00 AM 27.54 81.57201 0.378 7.86 11 8
8/5/2022 1:45:00 AM 27.48 81.464 0.378 7.86 14.45 7.96
8/5/2022 2:00:00 AM 27.44 81.392 0.378 7.85 18.74 7.91
8/5/2022 2:15:00 AM 27.4 81.32 0.377 7.85 14.41 7.84
8/5/2022 2:30:00 AM 27.35 81.23 0.375 7.84 5.02 7.81
8/5/2022 2:45:00 AM 27.31 81.158 0.362 7.84 0.95 7.78
8/5/2022 3:00:00 AM 27.26 81.068 0.345 7.83 0.11 7.76
8/5/2022 3:15:00 AM 27.23 81.014 0.321 7.83 2.08 7.74
8/5/2022 3:30:00 AM 27.2 80.96 0.299 7.83 2.08 7.72
8/5/2022 3:45:00 AM 27.16 80.888 0.272 7.83 2.17 7.68
8/5/2022 4:00:00 AM 27.14 80.852 0.231 7.82 6.53 7.66
8/5/2022 4:15:00 AM 27.11 80.798 0.161 7.82 1.6 7.63
8/5/2022 4:30:00 AM 27.08 80.744 0.126 7.81 1.69 7.62
8/5/2022 4:45:00 AM 27.04 80.672 0.126 7.81 1.52 7.62
8/5/2022 5:00:00 AM 27.02 80.636 0.161 7.81 1.66 7.61
8/5/2022 5:15:00 AM 26.98 80.564 0.246 7.8 2.03 7.57
8/5/2022 5:30:00 AM 26.95 80.51 0.326 7.8 1.67 7.53
8/5/2022 5:45:00 AM 26.92 80.456 0.362 7.8 1.66 7.5
8/5/2022 6:00:00 AM 26.89 80.402 0.372 7.8 1.8 7.48
8/5/2022 6:15:00 AM 26.87 80.366 0.375 7.79 2.02 7.47
8/5/2022 6:30:00 AM 26.85 80.33 0.376 7.79 1.84 7.49
8/5/2022 6:45:00 AM 26.82 80.276 0.377 7.79 1.73 7.47
8/5/2022 7:00:00 AM 26.82 80.276 0.376 7.79 1.97 7.51
8/5/2022 7:15:00 AM 26.81 80.258 0.376 7.79 1.84 7.52
8/5/2022 7:30:00 AM 26.82 80.276 0.376 7.79 1.64 7.57
8/5/2022 7:45:00 AM 26.82 80.276 0.376 7.8 1.5 7.55
8/5/2022 8:00:00 AM 26.82 80.276 0.376 7.8 1.66 7.59
8/5/2022 8:15:00 AM 26.83 80.294 0.375 7.81 1.71 7.59
8/5/2022 8:30:00 AM 26.87 80.366 0.375 7.81 1.66 7.61
8/5/2022 8:45:00 AM 26.94 80.492 0.375 7.82 1.51 7.64
8/5/2022 9:00:00 AM 27.05 80.69 0.375 7.83 1.38 7.71
8/5/2022 9:15:00 AM 27.15 80.87 0.375 7.84 1.41 7.73
8/5/2022 9:30:00 AM 27.19 80.942 0.375 7.85 1.59 7.75
8/5/2022 9:45:00 AM 27.28 81.104 0.375 7.85 1.77 7.79
8/5/2022 10:00:00 AM 27.34 81.212 0.375 7.86 1.71 7.83
8/5/2022 10:15:00 AM 27.45 81.41 0.375 7.87 1.75 7.87
8/5/2022 10:30:00 AM 27.57 81.626 0.375 7.87 2.13 7.92
8/5/2022 10:45:00 AM 27.69 81.842 0.374 7.88 1.51 7.95
8/5/2022 11:00:00 AM 27.8 82.04 0.374 7.89 1.49 7.96
8/5/2022 11:15:00 AM 27.9 82.22 0.374 7.9 1.41 7.99
8/5/2022 11:30:00 AM 27.99 82.382 0.374 7.9 1.34 8.03
8/5/2022 11:45:00 AM 28.02 82.436 0.374 7.91 1.43 8.07
8/5/2022 12:00:00 PM 28.04 82.472 0.374 7.91 1.31 8.09
8/5/2022 12:15:00 PM 28.05 82.49 0.374 7.92 1.78 8.14
8/5/2022 12:30:00 PM 27.98 82.364 0.384 7.94 2.93 8.26
8/5/2022 12:45:00 PM 27.84 82.112 0.384 7.79 1.65 8.27
8/5/2022 1:00:00 PM 27.98 82.364 0.377 7.84 2.9 8.26
8/5/2022 1:15:00 PM 28.12 82.616 0.374 7.91 1.69 8.28
8/5/2022 1:30:00 PM 28.27 82.886 0.374 7.93 1.37 8.33
8/5/2022 1:45:00 PM 28.4 83.12 0.374 7.94 1.56 8.35
8/5/2022 2:00:00 PM 28.56 83.408 0.374 7.95 1.49 8.39
8/5/2022 2:15:00 PM 28.71 83.67799 0.374 7.96 1.51 8.42
8/5/2022 2:30:00 PM 28.87 83.966 0.375 7.97 1.78 8.47
8/5/2022 2:45:00 PM 29 84.2 0.375 7.98 1.38 8.48
8/5/2022 3:00:00 PM 29.12 84.416 0.375 7.98 1.25 8.52
8/5/2022 3:15:00 PM 29.22 84.59599 0.375 7.99 1.62 8.53
8/5/2022 3:30:00 PM 29.33 84.794 0.375 8 3.69 8.55
8/5/2022 3:45:00 PM 29.41 84.938 0.375 8 3.09 8.57
8/5/2022 4:00:00 PM 29.45 85.01 0.375 8 2.85 8.58
8/5/2022 4:15:00 PM 29.44 84.992 0.375 8 2.72 8.55
8/5/2022 4:30:00 PM 29.49 85.082 0.375 8 3.91 8.57
8/5/2022 4:45:00 PM 29.52 85.136 0.375 8.01 2.95 8.58
8/5/2022 5:00:00 PM 29.53 85.15401 0.374 8.01 2.39 8.58
8/5/2022 5:15:00 PM 29.52 85.136 0.374 8.01 2.06 8.58
8/5/2022 5:30:00 PM 29.49 85.082 0.374 8 1.54 8.56
8/5/2022 5:45:00 PM 29.45 85.01 0.374 7.99 1.48 8.52
8/5/2022 6:00:00 PM 29.37 84.866 0.374 7.98 1.98 8.5
8/5/2022 6:15:00 PM 29.31 84.758 0.375 7.97 1.64 8.47
8/5/2022 6:30:00 PM 29.23 84.614 0.373 7.96 2.03 8.41
8/5/2022 6:45:00 PM 29.16 84.488 0.374 7.95 2.06 8.38
8/5/2022 7:00:00 PM 29.11 84.39799 0.373 7.95 2.61 8.36
8/5/2022 7:15:00 PM 28.55 83.39 0.388 7.93 2.03 8.31
8/5/2022 7:30:00 PM 28.66 83.588 0.381 7.82 1.87 8.27
8/5/2022 7:45:00 PM 28.95 84.11 0.373 7.91 7.91 8.3
8/5/2022 8:00:00 PM 28.94 84.092 0.373 7.91 4.39 8.17
8/5/2022 8:15:00 PM 28.87 83.966 0.373 7.92 2.38 8.2
8/5/2022 8:30:00 PM 28.77 83.786 0.368 7.93 4 8.15
8/5/2022 8:45:00 PM 28.73 83.714 0.366 7.92 3.78 8.12
8/5/2022 9:00:00 PM 28.73 83.714 0.367 7.91 3.1 8.1
8/5/2022 9:15:00 PM 28.75 83.75 0.368 7.91 2.6 8.07
8/5/2022 9:30:00 PM 28.74 83.732 0.369 7.91 2.46 8.03
8/5/2022 9:45:00 PM 28.71 83.67799 0.37 7.91 2.21 7.99
8/5/2022 10:00:00 PM 28.68 83.624 0.37 7.91 2.33 7.98
8/5/2022 10:15:00 PM 28.63 83.534 0.37 7.91 4.07 7.97
8/5/2022 10:30:00 PM 28.58 83.444 0.369 7.91 2.04 7.98
8/5/2022 10:45:00 PM 28.54 83.372 0.37 7.91 2.16 7.97
8/5/2022 11:00:00 PM 28.5 83.3 0.37 7.91 2.21 7.96
8/5/2022 11:15:00 PM 28.47 83.24599 0.37 7.91 2.16 7.92
8/5/2022 11:30:00 PM 28.43 83.174 0.37 7.9 1.72 7.89
8/5/2022 11:45:00 PM 28.39 83.102 0.369 7.9 1.98 7.87
8/6/2022 12:00:00 AM 28.36 83.048 0.369 7.89 2.2 7.83
8/6/2022 12:15:00 AM 28.32 82.976 0.368 7.89 2.33 7.77
8/6/2022 12:30:00 AM 28.28 82.904 0.367 7.89 2.13 7.71
8/6/2022 12:45:00 AM 28.25 82.85 0.366 7.88 4.11 7.68
8/6/2022 1:00:00 AM 28.22 82.796 0.366 7.88 7.7 7.66
8/6/2022 1:15:00 AM 28.19 82.742 0.365 7.87 35.11 7.64
8/6/2022 1:30:00 AM 28.16 82.688 0.364 7.87 20.83 7.63
8/6/2022 1:45:00 AM 28.12 82.616 0.364 7.86 1.76 7.6
8/6/2022 2:00:00 AM 28.07 82.526 0.364 7.86 2.15 7.58
8/6/2022 2:15:00 AM 28.05 82.49 0.364 7.85 2.12 7.52
8/6/2022 2:30:00 AM 28.02 82.436 0.364 7.85 1.74 7.48
8/6/2022 2:45:00 AM 27.98 82.364 0.364 7.85 1.92 7.46
8/6/2022 3:00:00 AM 27.94 82.292 0.364 7.85 1.9 7.45
8/6/2022 3:15:00 AM 27.9 82.22 0.364 7.85 1.79 7.49
8/6/2022 3:30:00 AM 27.85 82.13 0.364 7.84 1.92 7.36
8/6/2022 3:45:00 AM 27.8 82.04 0.364 7.83 2.25 7.36
8/6/2022 4:00:00 AM 27.75 81.95 0.364 7.83 2.12 7.35
8/6/2022 4:15:00 AM 27.7 81.86 0.364 7.82 2.04 7.32
8/6/2022 4:30:00 AM 27.66 81.788 0.364 7.82 2.1 7.27
8/6/2022 4:45:00 AM 27.62 81.716 0.364 7.81 1.8 7.25
8/6/2022 5:00:00 AM 27.59 81.662 0.364 7.81 2.18 7.19
8/6/2022 5:15:00 AM 27.55 81.59 0.363 7.8 1.89 7.16
8/6/2022 5:30:00 AM 27.52 81.536 0.363 7.8 1.83 7.17
8/6/2022 5:45:00 AM 27.49 81.482 0.363 7.79 1.72 7.45
8/6/2022 6:00:00 AM 27.47 81.446 0.363 7.79 2.66 7.38
8/6/2022 6:15:00 AM 27.44 81.392 0.362 7.78 2.23 7.39
8/6/2022 6:30:00 AM 27.41 81.338 0.361 7.77 2.22 7.35
8/6/2022 6:45:00 AM 27.38 81.284 0.36 7.77 2.28 7.35
8/6/2022 7:00:00 AM 27.36 81.248 0.359 7.77 2.45 7.35
8/6/2022 7:15:00 AM 27.34 81.212 0.358 7.77 2.38 7.47
8/6/2022 7:30:00 AM 27.33 81.194 0.357 7.78 1.78 7.39
8/6/2022 7:45:00 AM 27.31 81.158 0.355 7.78 1.71 7.37
8/6/2022 8:00:00 AM 27.29 81.122 0.354 7.78 2.23 7.4
8/6/2022 8:15:00 AM 27.28 81.104 0.354 7.78 2.24 7.41
8/6/2022 8:30:00 AM 27.39 81.302 0.364 7.82 5.2 7.86
8/6/2022 8:45:00 AM 27.7 81.86 0.373 7.78 5.79 8.26
8/6/2022 9:00:00 AM 27.54 81.57201 0.362 7.75 9.02 8.11
8/6/2022 9:15:00 AM 27.31 81.158 0.353 7.79 5.04 7.74
8/6/2022 9:30:00 AM 27.37 81.266 0.352 7.8 25.23 7.68
8/6/2022 9:45:00 AM 27.46 81.42799 0.352 7.81 27.25 7.73
8/6/2022 10:00:00 AM 27.55 81.59 0.352 7.82 16.73 7.77
8/6/2022 10:15:00 AM 27.65 81.77 0.353 7.83 14.63 7.83
8/6/2022 10:30:00 AM 27.78 82.004 0.353 7.84 18.97 7.87
8/6/2022 10:45:00 AM 27.87 82.166 0.353 7.85 17.67 7.9
8/6/2022 11:00:00 AM 27.95 82.31 0.353 7.86 12.09 7.96
8/6/2022 11:15:00 AM 28.03 82.454 0.348 7.86 3.47 7.98
8/6/2022 11:30:00 AM 28.06 82.508 0.336 7.87 1.74 8
8/6/2022 11:45:00 AM 28.16 82.688 0.321 7.87 0.22 8.04
8/6/2022 12:00:00 PM 28.25 82.85 0.3 7.88 1.83 8.05
8/6/2022 12:15:00 PM 28.32 82.976 0.28 7.89 2.13 8.1
8/6/2022 12:30:00 PM 28.39 83.102 0.25 7.89 3.78 8.12
8/6/2022 12:45:00 PM 28.5 83.3 0.215 7.9 9.9 8.17
8/6/2022 1:00:00 PM 28.56 83.408 0.169 7.91 2.4 8.22
8/6/2022 1:15:00 PM 28.64 83.552 0.132 7.91 3.06 8.27
8/6/2022 1:30:00 PM 28.74 83.732 0.118 7.92 3.66 8.32
8/6/2022 1:45:00 PM 28.83 83.894 0.143 7.93 1.65 8.35
8/6/2022 2:00:00 PM 28.88 83.98399 0.213 7.94 1.56 8.39
8/6/2022 2:15:00 PM 28.96 84.128 0.28 7.94 1.92 8.37
8/6/2022 2:30:00 PM 29.06 84.308 0.332 7.95 1.94 8.44
8/6/2022 2:45:00 PM 29.13 84.434 0.348 7.94 1.8 8.48
8/6/2022 3:00:00 PM 29.18 84.524 0.353 7.96 1.52 8.51
8/6/2022 3:15:00 PM 29.22 84.59599 0.355 7.97 1.58 8.52
8/6/2022 3:30:00 PM 29.21 84.578 0.356 7.98 1.71 8.55
8/6/2022 3:45:00 PM 29.19 84.542 0.356 7.97 1.47 8.52
8/6/2022 4:00:00 PM 29.24 84.632 0.356 7.96 1.47 8.55
8/6/2022 4:15:00 PM 29.3 84.74 0.356 7.94 1.48 8.59
8/6/2022 4:30:00 PM 29.29 84.722 0.356 7.97 1.63 8.6
8/6/2022 4:45:00 PM 28.81 83.858 0.374 7.9 1.96 8.39
8/6/2022 5:00:00 PM 28.87 83.966 0.366 7.82 1.81 8.4
8/6/2022 5:15:00 PM 29.25 84.65 0.357 7.95 1.68 8.59
8/6/2022 5:30:00 PM 29.26 84.668 0.357 7.99 2.03 8.63
8/6/2022 5:45:00 PM 29.27 84.686 0.357 8 3.27 8.64
8/6/2022 6:00:00 PM 29.26 84.668 0.357 8.01 2.22 8.66
8/6/2022 6:15:00 PM 29.23 84.614 0.357 8.02 2.53 8.68
8/6/2022 6:30:00 PM 29.17 84.506 0.357 8.02 2.29 8.63
8/6/2022 6:45:00 PM 29.12 84.416 0.357 8.02 2.6 8.62
8/6/2022 7:00:00 PM 29.08 84.344 0.357 8.02 2.34 8.61
8/6/2022 7:15:00 PM 29.05 84.28999 0.357 8.01 2.48 8.6
8/6/2022 7:30:00 PM 29.01 84.218 0.356 8 1.98 8.52
8/6/2022 7:45:00 PM 28.97 84.146 0.356 8 2.13 8.44
8/6/2022 8:00:00 PM 28.95 84.11 0.356 7.99 2.33 8.43
8/6/2022 8:15:00 PM 28.93 84.074 0.356 7.98 2.65 8.4
8/6/2022 8:30:00 PM 28.92 84.056 0.356 7.98 2.32 8.35
8/6/2022 8:45:00 PM 28.89 84.002 0.356 7.97 2.47 8.33
8/6/2022 9:00:00 PM 28.88 83.98399 0.356 7.97 2.53 8.32
8/6/2022 9:15:00 PM 28.88 83.98399 0.357 7.97 2.79 8.3
8/6/2022 9:30:00 PM 28.87 83.966 0.357 7.97 1.95 8.3
8/6/2022 9:45:00 PM 28.85 83.93 0.357 7.97 1.65 8.25
8/6/2022 10:00:00 PM 28.83 83.894 0.356 7.97 1.74 8.21
8/6/2022 10:15:00 PM 28.81 83.858 0.356 7.96 1.75 8.22
8/6/2022 10:30:00 PM 28.8 83.84 0.356 7.96 1.51 8.17
8/6/2022 10:45:00 PM 28.78 83.804 0.356 7.96 2.71 8.16
8/6/2022 11:00:00 PM 28.72 83.696 0.354 7.96 2.61 8.12
8/6/2022 11:15:00 PM 28.71 83.67799 0.354 7.96 1.7 8.09
8/6/2022 11:30:00 PM 28.7 83.66 0.354 7.96 1.84 8.08
8/6/2022 11:45:00 PM 28.66 83.588 0.354 7.95 2.24 8.04
8/7/2022 12:00:00 AM 28.63 83.534 0.353 7.95 1.84 8
8/7/2022 12:15:00 AM 28.59 83.462 0.351 7.94 2.64 7.94
8/7/2022 12:30:00 AM 28.56 83.408 0.348 7.96 4.97 7.97
8/7/2022 12:45:00 AM 28.54 83.372 0.349 7.96 5.15 7.91
8/7/2022 1:00:00 AM 28.57 83.426 0.35 7.94 3.3 7.87
8/7/2022 1:15:00 AM 28.58 83.444 0.351 7.93 2.83 7.8
8/7/2022 1:30:00 AM 28.56 83.408 0.352 7.92 2.96 7.79
8/7/2022 1:45:00 AM 28.55 83.39 0.353 7.92 3.48 7.78
8/7/2022 2:00:00 AM 28.54 83.372 0.354 7.91 16.94 7.79
8/7/2022 2:15:00 AM 28.53 83.354 0.354 7.91 47.89 7.8
8/7/2022 2:30:00 AM 28.52 83.336 0.354 7.91 21.33 7.79
8/7/2022 2:45:00 AM 28.5 83.3 0.354 7.9 19.99 7.79
8/7/2022 3:00:00 AM 28.48 83.264 0.354 7.9 43.19 7.74
8/7/2022 3:15:00 AM 28.45 83.21001 0.353 7.89 127.84 7.74
8/7/2022 3:30:00 AM 28.42 83.156 0.353 7.89 27.55 7.72
8/7/2022 3:45:00 AM 28.38 83.084 0.349 7.89 4.24 7.68
8/7/2022 4:00:00 AM 28.33 82.994 0.335 7.88 2.17 7.67
8/7/2022 4:15:00 AM 28.28 82.904 0.32 7.87 0.4 7.64
8/7/2022 4:30:00 AM 28.23 82.814 0.297 7.87 1.57 7.63
8/7/2022 4:45:00 AM 28.28 82.904 0.287 7.87 5.47 8.18
8/7/2022 5:00:00 AM 28.37 83.066 0.254 7.77 3.57 8.18
8/7/2022 5:15:00 AM 28.15 82.67 0.215 7.82 9.36 7.78
8/7/2022 5:30:00 AM 28.06 82.508 0.166 7.84 7.52 7.68
8/7/2022 5:45:00 AM 28.05 82.49 0.136 7.82 4.49 7.6
8/7/2022 6:00:00 AM 28.01 82.418 0.117 7.81 1.99 7.62
8/7/2022 6:15:00 AM 27.98 82.364 0.141 7.82 1.82 7.6
8/7/2022 6:30:00 AM 27.94 82.292 0.21 7.82 1.71 7.56
8/7/2022 6:45:00 AM 27.9 82.22 0.274 7.8 1.59 7.55
8/7/2022 7:00:00 AM 27.87 82.166 0.325 7.79 1.56 7.55
8/7/2022 7:15:00 AM 27.84 82.112 0.342 7.79 1.59 7.51
8/7/2022 7:30:00 AM 27.82 82.076 0.347 7.79 1.76 7.5
8/7/2022 7:45:00 AM 27.8 82.04 0.349 7.8 2.22 7.52
8/7/2022 8:00:00 AM 27.8 82.04 0.349 7.8 1.99 7.49
8/7/2022 8:15:00 AM 27.81 82.058 0.349 7.79 1.58 7.57
8/7/2022 8:30:00 AM 27.81 82.058 0.349 7.8 1.65 7.58
8/7/2022 8:45:00 AM 27.84 82.112 0.349 7.8 1.5 7.63
8/7/2022 9:00:00 AM 27.87 82.166 0.349 7.81 1.71 7.64
8/7/2022 9:15:00 AM 27.9 82.22 0.349 7.83 1.65 7.71
8/7/2022 9:30:00 AM 27.95 82.31 0.348 7.84 1.67 7.72
8/7/2022 9:45:00 AM 28.01 82.418 0.348 7.85 1.54 7.76
8/7/2022 10:00:00 AM 28.08 82.544 0.348 7.85 1.56 7.82
8/7/2022 10:15:00 AM 28.13 82.634 0.349 7.86 1.44 7.86
8/7/2022 10:30:00 AM 28.22 82.796 0.348 7.87 1.44 7.91
8/7/2022 10:45:00 AM 28.31 82.958 0.349 7.87 1.61 7.88
8/7/2022 11:00:00 AM 28.4 83.12 0.349 7.88 1.5 7.95
8/7/2022 11:15:00 AM 28.51 83.318 0.349 7.89 1.44 8.01
8/7/2022 11:30:00 AM 28.59 83.462 0.349 7.89 1.65 8.09
8/7/2022 11:45:00 AM 28.6 83.48 0.349 7.9 1.6 8.11
8/7/2022 12:00:00 PM 28.67 83.606 0.35 7.9 1.48 8.12
8/7/2022 12:15:00 PM 28.67 83.606 0.35 7.91 1.68 8.18
8/7/2022 12:30:00 PM 28.58 83.444 0.35 7.9 1.75 8.16
8/7/2022 12:45:00 PM 28.6 83.48 0.35 7.9 1.63 8.22
8/7/2022 1:00:00 PM 28.69 83.642 0.351 7.91 1.43 8.27
8/7/2022 1:15:00 PM 28.67 83.606 0.351 7.93 1.6 8.31
8/7/2022 1:30:00 PM 28.63 83.534 0.351 7.93 1.76 8.34
8/7/2022 1:45:00 PM 28.71 83.67799 0.351 7.94 1.58 8.35
8/7/2022 2:00:00 PM 28.75 83.75 0.351 7.96 1.47 8.38
8/7/2022 2:15:00 PM 28.68 83.624 0.351 7.96 1.7 8.39
8/7/2022 2:30:00 PM 28.66 83.588 0.351 7.96 1.96 8.41
8/7/2022 2:45:00 PM 28.68 83.624 0.351 7.97 1.67 8.43
8/7/2022 3:00:00 PM 28.69 83.642 0.351 7.97 1.38 8.49
8/7/2022 3:15:00 PM 28.7 83.66 0.351 7.97 1.58 8.43
8/7/2022 3:30:00 PM 28.71 83.67799 0.351 7.98 1.42 8.46
8/7/2022 3:45:00 PM 28.73 83.714 0.351 7.99 1.42 8.49
8/7/2022 4:00:00 PM 28.79 83.82201 0.351 8.01 1.39 8.52
8/7/2022 4:15:00 PM 28.85 83.93 0.351 8.02 1.62 8.56
8/7/2022 4:30:00 PM 28.91 84.038 0.351 8.03 1.3 8.56
8/7/2022 4:45:00 PM 28.86 83.948 0.372 7.96 10.51 8.54
8/7/2022 5:00:00 PM 28.84 83.912 0.361 7.85 8.81 8.43
8/7/2022 5:15:00 PM 29.03 84.25401 0.351 7.96 14.2 8.54
8/7/2022 5:30:00 PM 29.12 84.416 0.35 7.99 17.54 8.68
8/7/2022 5:45:00 PM 29.14 84.452 0.349 8.01 16.16 8.69
8/7/2022 6:00:00 PM 29.15 84.47 0.349 8.01 15.17 8.72
8/7/2022 6:15:00 PM 29.15 84.47 0.349 8.02 20.98 8.73
8/7/2022 6:30:00 PM 29.14 84.452 0.349 8.03 29.45 8.72
8/7/2022 6:45:00 PM 29.11 84.39799 0.349 8.02 23.26 8.71
8/7/2022 7:00:00 PM 29.08 84.344 0.348 8.02 16.22 8.69
8/7/2022 7:15:00 PM 29.06 84.308 0.349 8.02 15.13 8.68
8/7/2022 7:30:00 PM 29.04 84.272 0.349 8.01 21.06 8.66
8/7/2022 7:45:00 PM 29.03 84.25401 0.349 8.01 21.05 8.64
8/7/2022 8:00:00 PM 29.01 84.218 0.348 8.01 11.49 8.62
8/7/2022 8:15:00 PM 28.98 84.164 0.342 8.01 1.9 8.61
8/7/2022 8:30:00 PM 28.96 84.128 0.329 8.01 1.33 8.6
8/7/2022 8:45:00 PM 28.94 84.092 0.315 8 0.21 8.58
8/7/2022 9:00:00 PM 28.92 84.056 0.292 8.01 1.04 8.55
8/7/2022 9:15:00 PM 28.9 84.02 0.271 8.01 2.42 8.48
8/7/2022 9:30:00 PM 28.88 83.98399 0.236 8.01 5.98 8.48
8/7/2022 9:45:00 PM 28.85 83.93 0.198 8 8.02 8.43
8/7/2022 10:00:00 PM 28.81 83.858 0.149 8 2.29 8.41
8/7/2022 10:15:00 PM 28.77 83.786 0.124 7.99 1.94 8.36
8/7/2022 10:30:00 PM 28.73 83.714 0.127 7.99 1.92 8.36
8/7/2022 10:45:00 PM 28.68 83.624 0.16 7.98 1.69 8.26
8/7/2022 11:00:00 PM 28.63 83.534 0.229 7.97 1.49 8.27
8/7/2022 11:15:00 PM 28.57 83.426 0.294 7.97 1.76 8.16
8/7/2022 11:30:00 PM 28.51 83.318 0.329 7.96 1.91 8.17
8/7/2022 11:45:00 PM 28.46 83.228 0.338 7.95 1.84 8.17
8/8/2022 12:00:00 AM 28.41 83.138 0.342 7.95 1.99 8.09
8/8/2022 12:15:00 AM 28.37 83.066 0.342 7.94 1.64 8.01
8/8/2022 12:30:00 AM 28.34 83.012 0.342 7.91 1.65 8.09
8/8/2022 12:45:00 AM 28.3 82.94 0.342 7.88 1.93 8.1
8/8/2022 1:00:00 AM 28.28 82.904 0.342 7.88 1.62 8.05
8/8/2022 1:15:00 AM 28.25 82.85 0.342 7.88 1.7 8.01
8/8/2022 1:30:00 AM 28.22 82.796 0.341 7.88 1.69 7.98
8/8/2022 1:45:00 AM 28.2 82.76 0.341 7.89 1.92 7.97
8/8/2022 2:00:00 AM 28.17 82.706 0.341 7.88 1.82 7.91
8/8/2022 2:15:00 AM 28.13 82.634 0.341 7.88 1.8 7.89
8/8/2022 2:30:00 AM 28.09 82.562 0.341 7.88 1.89 7.86
8/8/2022 2:45:00 AM 28.05 82.49 0.341 7.88 1.91 7.82
8/8/2022 3:00:00 AM 28.01 82.418 0.342 7.86 1.79 7.79
8/8/2022 3:15:00 AM 27.95 82.31 0.342 7.86 1.94 7.76
8/8/2022 3:30:00 AM 27.9 82.22 0.342 7.85 2.12 7.74
8/8/2022 3:45:00 AM 27.85 82.13 0.342 7.84 2.21 7.73
8/8/2022 4:00:00 AM 27.8 82.04 0.342 7.83 2.01 7.62
8/8/2022 4:15:00 AM 27.76 81.968 0.342 7.83 1.92 7.59
8/8/2022 4:30:00 AM 27.7 81.86 0.342 7.81 2.13 7.5
8/8/2022 4:45:00 AM 27.65 81.77 0.343 7.81 1.88 7.51
8/8/2022 5:00:00 AM 27.59 81.662 0.343 7.8 2.1 7.5
8/8/2022 5:15:00 AM 27.53 81.554 0.343 7.79 2 7.44
8/8/2022 5:30:00 AM 27.48 81.464 0.343 7.78 1.76 7.45
8/8/2022 5:45:00 AM 27.42 81.356 0.343 7.77 1.94 7.4
8/8/2022 6:00:00 AM 27.36 81.248 0.344 7.77 2.2 7.39
8/8/2022 6:15:00 AM 27.3 81.14 0.344 7.76 2.07 7.39
8/8/2022 6:30:00 AM 27.26 81.068 0.344 7.76 1.85 7.38
8/8/2022 6:45:00 AM 27.21 80.978 0.344 7.76 2.44 7.35
8/8/2022 7:00:00 AM 27.17 80.906 0.345 7.76 2.18 7.38
8/8/2022 7:15:00 AM 27.14 80.852 0.345 7.76 1.99 7.41
8/8/2022 7:30:00 AM 27.12 80.816 0.345 7.76 1.96 7.46
8/8/2022 7:45:00 AM 27.1 80.78 0.346 7.76 2.01 7.48
8/8/2022 8:00:00 AM 27.1 80.78 0.346 7.77 1.9 7.46
8/8/2022 8:15:00 AM 27.12 80.816 0.347 7.77 2.02 7.55
8/8/2022 8:30:00 AM 27.14 80.852 0.348 7.78 2.11 7.59
8/8/2022 8:45:00 AM 27.56 81.608 0.36 7.83 6.97 8.1
8/8/2022 9:00:00 AM 28.01 82.418 0.359 7.76 7.38 8.32
8/8/2022 9:15:00 AM 27.43 81.374 0.35 7.77 19.16 8.16
8/8/2022 9:30:00 AM 27.36 81.248 0.35 7.8 6.65 7.91
8/8/2022 9:45:00 AM 27.42 81.356 0.351 7.81 3.45 7.86
8/8/2022 10:00:00 AM 27.49 81.482 0.352 7.82 2.72 7.84
8/8/2022 10:15:00 AM 27.57 81.626 0.352 7.83 3.18 7.84
8/8/2022 10:30:00 AM 27.64 81.752 0.353 7.84 2.83 7.85
8/8/2022 10:45:00 AM 27.76 81.968 0.353 7.85 6.97 7.91
8/8/2022 11:00:00 AM 27.86 82.148 0.353 7.86 30.76 7.98
8/8/2022 11:15:00 AM 27.97 82.346 0.353 7.87 16.9 8.06
8/8/2022 11:30:00 AM 28.08 82.544 0.354 7.88 17.03 8.1
8/8/2022 11:45:00 AM 28.18 82.724 0.354 7.89 25.77 8.13
8/8/2022 12:00:00 PM 28.29 82.922 0.354 7.9 50.82 8.15
8/8/2022 12:15:00 PM 28.39 83.102 0.354 7.91 20.25 8.22
8/8/2022 12:30:00 PM 28.51 83.318 0.353 7.92 22.42 8.25
8/8/2022 12:45:00 PM 28.64 83.552 0.345 7.94 59.02 8.31
8/8/2022 1:00:00 PM 28.77 83.786 0.33 7.94 0.9 8.36
8/8/2022 1:15:00 PM 28.92 84.056 0.311 7.96 7.77 8.4
8/8/2022 1:30:00 PM 29.02 84.236 0.286 7.97 1.89 8.41
8/8/2022 1:45:00 PM 29.11 84.39799 0.26 7.98 7.03 8.44
8/8/2022 2:00:00 PM 29.15 84.47 0.227 7.99 9.02 8.48
8/8/2022 2:15:00 PM 29.21 84.578 0.184 7.99 4.1 8.48
8/8/2022 2:30:00 PM 29.27 84.686 0.145 8 2.24 8.53
8/8/2022 2:45:00 PM 29.34 84.812 0.125 8.01 1.87 8.56
8/8/2022 3:00:00 PM 29.39 84.902 0.132 8.02 1.68 8.6
8/8/2022 3:15:00 PM 29.46 85.028 0.182 8.03 1.63 8.61
8/8/2022 3:30:00 PM 29.47 85.046 0.255 8.02 1.84 8.61
8/8/2022 3:45:00 PM 29.54 85.172 0.313 8.05 2.05 8.65
8/8/2022 4:00:00 PM 29.63 85.334 0.341 8.06 1.5 8.66
8/8/2022 4:15:00 PM 29.65 85.37 0.348 8.03 1.63 8.68
8/8/2022 4:30:00 PM 29.62 85.316 0.351 8.03 1.97 8.65
8/8/2022 4:45:00 PM 29.27 84.686 0.363 8.01 3.03 8.42
8/8/2022 5:00:00 PM 29.13 84.434 0.36 7.87 1.72 8.33
8/8/2022 5:15:00 PM 29.54 85.172 0.353 7.89 1.63 8.61
8/8/2022 5:30:00 PM 29.7 85.46001 0.352 7.9 1.82 8.65
8/8/2022 5:45:00 PM 29.71 85.478 0.351 7.94 2.65 8.67
8/8/2022 6:00:00 PM 29.71 85.478 0.351 8.02 1.55 8.68
8/8/2022 6:15:00 PM 29.71 85.478 0.352 8.06 1.69 8.7
8/8/2022 6:30:00 PM 29.68 85.424 0.351 8.07 2.7 8.67
8/8/2022 6:45:00 PM 29.64 85.35201 0.351 8.06 2.02 8.69
8/8/2022 7:00:00 PM 29.61 85.298 0.35 8.06 3 8.67
8/8/2022 7:15:00 PM 29.57 85.226 0.35 8.05 3 8.62
8/8/2022 7:30:00 PM 29.54 85.172 0.349 8.05 2.58 8.61
8/8/2022 7:45:00 PM 29.51 85.118 0.349 8.04 1.97 8.57
8/8/2022 8:00:00 PM 29.49 85.082 0.348 8.03 2.01 8.53
8/8/2022 8:15:00 PM 29.47 85.046 0.348 8.03 1.64 8.48
8/8/2022 8:30:00 PM 29.42 84.956 0.347 8.02 1.73 8.32
8/8/2022 8:45:00 PM 29.37 84.866 0.347 8.02 1.85 8.45
8/8/2022 9:00:00 PM 29.32 84.776 0.346 8.01 1.96 8.41
8/8/2022 9:15:00 PM 29.27 84.686 0.345 8 1.6 8.41
8/8/2022 9:30:00 PM 29.22 84.59599 0.345 8 1.71 8.4
8/8/2022 9:45:00 PM 29.18 84.524 0.344 8 1.71 8.34
8/8/2022 10:00:00 PM 29.14 84.452 0.343 7.99 1.77 8.28
8/8/2022 10:15:00 PM 29.12 84.416 0.343 7.99 1.8 8.23
8/8/2022 10:30:00 PM 29.09 84.362 0.342 7.98 1.76 8.21
8/8/2022 10:45:00 PM 29.07 84.326 0.342 7.97 1.76 8.16
8/8/2022 11:00:00 PM 29.04 84.272 0.342 7.97 1.86 8.08
8/8/2022 11:15:00 PM 29.01 84.218 0.342 7.96 2.1 8.03
8/8/2022 11:30:00 PM 28.98 84.164 0.342 7.96 1.93 8.01
8/8/2022 11:45:00 PM 28.95 84.11 0.342 7.95 2.14 8.04
8/9/2022 12:00:00 AM 28.92 84.056 0.342 7.95 2.34 8.03
8/9/2022 12:15:00 AM 28.89 84.002 0.342 7.94 1.9 7.98
8/9/2022 12:30:00 AM 28.86 83.948 0.342 7.93 2.32 7.95
8/9/2022 12:45:00 AM 28.84 83.912 0.342 7.93 2 7.92
8/9/2022 1:00:00 AM 28.8 83.84 0.342 7.92 1.93 7.88
8/9/2022 1:15:00 AM 28.77 83.786 0.359 7.87 4.28 8.25
8/9/2022 1:30:00 AM 28.85 83.93 0.353 7.81 2.56 8.23
8/9/2022 1:45:00 AM 28.7 83.66 0.343 7.88 3.74 8.03
8/9/2022 2:00:00 AM 28.64 83.552 0.343 7.88 2.8 7.9
8/9/2022 2:15:00 AM 28.58 83.444 0.343 7.88 2.62 7.81
8/9/2022 2:30:00 AM 28.54 83.372 0.343 7.87 2.27 7.75
8/9/2022 2:45:00 AM 28.49 83.282 0.343 7.86 2.18 7.69
8/9/2022 3:00:00 AM 28.43 83.174 0.344 7.86 2.59 7.63
8/9/2022 3:15:00 AM 28.38 83.084 0.344 7.85 5.69 7.58
8/9/2022 3:30:00 AM 28.33 82.994 0.344 7.84 28.55 7.54
8/9/2022 3:45:00 AM 28.28 82.904 0.345 7.84 25.74 7.53
8/9/2022 4:00:00 AM 28.24 82.832 0.345 7.83 19.92 7.5
8/9/2022 4:15:00 AM 28.2 82.76 0.346 7.82 17.17 7.46
8/9/2022 4:30:00 AM 28.16 82.688 0.346 7.82 25.67 7.41
8/9/2022 4:45:00 AM 28.11 82.598 0.346 7.81 18.63 7.38
8/9/2022 5:00:00 AM 28.06 82.508 0.346 7.8 10.91 7.33
8/9/2022 5:15:00 AM 28.01 82.418 0.341 7.8 4.19 7.32
8/9/2022 5:30:00 AM 27.96 82.328 0.328 7.78 0.99 7.29
8/9/2022 5:45:00 AM 27.91 82.238 0.315 7.78 0.42 7.26
8/9/2022 6:00:00 AM 27.87 82.166 0.291 7.77 1.63 7.24
8/9/2022 6:15:00 AM 27.82 82.076 0.269 7.77 2.8 7.22
8/9/2022 6:30:00 AM 27.78 82.004 0.238 7.77 4.41 7.21
8/9/2022 6:45:00 AM 27.74 81.932 0.201 7.76 17.15 7.2
8/9/2022 7:00:00 AM 27.7 81.86 0.156 7.76 2.88 7.22
8/9/2022 7:15:00 AM 27.67 81.806 0.129 7.76 2.47 7.22
8/9/2022 7:30:00 AM 27.65 81.77 0.122 7.77 2.42 7.26
8/9/2022 7:45:00 AM 27.64 81.752 0.152 7.77 1.95 7.3
8/9/2022 8:00:00 AM 27.62 81.716 0.214 7.78 1.86 7.31
8/9/2022 8:15:00 AM 27.61 81.698 0.294 7.78 1.9 7.33
8/9/2022 8:30:00 AM 27.62 81.716 0.333 7.79 1.85 7.39
8/9/2022 8:45:00 AM 27.62 81.716 0.345 7.79 1.86 7.39
8/9/2022 9:00:00 AM 27.64 81.752 0.351 7.79 1.85 7.43
8/9/2022 9:15:00 AM 27.65 81.77 0.354 7.8 1.78 7.45
8/9/2022 9:30:00 AM 27.66 81.788 0.355 7.8 1.76 7.47
8/9/2022 9:45:00 AM 27.69 81.842 0.355 7.8 1.87 7.53
8/9/2022 10:00:00 AM 27.77 81.986 0.356 7.79 1.75 7.57
8/9/2022 10:15:00 AM 27.87 82.166 0.356 7.78 1.7 7.67
8/9/2022 10:30:00 AM 27.95 82.31 0.357 7.8 1.83 7.72
8/9/2022 10:45:00 AM 28.04 82.472 0.357 7.83 1.63 7.8
8/9/2022 11:00:00 AM 28.1 82.58 0.357 7.86 1.62 7.84
8/9/2022 11:15:00 AM 28.16 82.688 0.358 7.87 1.69 7.9
8/9/2022 11:30:00 AM 28.2 82.76 0.358 7.88 1.85 7.92
8/9/2022 11:45:00 AM 28.29 82.922 0.358 7.89 1.61 8.03
8/9/2022 12:00:00 PM 28.32 82.976 0.358 7.89 1.77 7.99
8/9/2022 12:15:00 PM 28.34 83.012 0.359 7.9 1.91 8.05
8/9/2022 12:30:00 PM 28.41 83.138 0.359 7.91 1.72 8.09
8/9/2022 12:45:00 PM 28.43 83.174 0.359 7.92 1.7 8.12
8/9/2022 1:00:00 PM 28.57 83.426 0.363 7.87 1.78 8.23
8/9/2022 1:15:00 PM 28.52 83.336 0.36 7.88 3.79 8.38
8/9/2022 1:30:00 PM 28.58 83.444 0.359 7.94 2.24 8.43
8/9/2022 1:45:00 PM 28.62 83.51601 0.359 7.95 1.91 8.4
8/9/2022 2:00:00 PM 28.66 83.588 0.359 7.97 1.72 8.41
8/9/2022 2:15:00 PM 28.68 83.624 0.359 7.98 1.62 8.43
8/9/2022 2:30:00 PM 28.72 83.696 0.359 7.99 1.56 8.48
8/9/2022 2:45:00 PM 28.79 83.82201 0.36 8 1.54 8.52
8/9/2022 3:00:00 PM 28.9 84.02 0.36 8.02 1.54 8.59
8/9/2022 3:15:00 PM 28.93 84.074 0.359 8.03 1.7 8.61
8/9/2022 3:30:00 PM 28.97 84.146 0.36 8.04 1.58 8.63
8/9/2022 3:45:00 PM 29.02 84.236 0.36 8.05 1.77 8.67
8/9/2022 4:00:00 PM 28.99 84.182 0.36 8.06 1.52 8.68
8/9/2022 4:15:00 PM 28.98 84.164 0.36 8.07 1.51 8.7
8/9/2022 4:30:00 PM 28.96 84.128 0.36 8.08 1.69 8.72
8/9/2022 4:45:00 PM 28.96 84.128 0.36 8.08 1.59 8.74
8/9/2022 5:00:00 PM 28.96 84.128 0.36 8.09 1.55 8.74
8/9/2022 5:15:00 PM 29 84.2 0.36 8.1 1.42 8.76
8/9/2022 5:30:00 PM 29.03 84.25401 0.36 8.1 1.48 8.75
8/9/2022 5:45:00 PM 29.04 84.272 0.36 8.1 1.4 8.77
8/9/2022 6:00:00 PM 29.07 84.326 0.36 8.11 1.57 8.79
8/9/2022 6:15:00 PM 29.09 84.362 0.36 8.12 1.53 8.8
8/9/2022 6:30:00 PM 29.12 84.416 0.36 8.13 1.63 8.78
8/9/2022 6:45:00 PM 29.14 84.452 0.36 8.13 1.54 8.79
8/9/2022 7:00:00 PM 29.14 84.452 0.36 8.13 1.52 8.77
8/9/2022 7:15:00 PM 29.15 84.47 0.36 8.13 1.54 8.73
8/9/2022 7:30:00 PM 29.15 84.47 0.36 8.12 1.53 8.73
8/9/2022 7:45:00 PM 29.15 84.47 0.36 8.12 1.44 8.69
8/9/2022 8:00:00 PM 29.16 84.488 0.36 8.11 1.79 8.66
8/9/2022 8:15:00 PM 29.15 84.47 0.36 8.11 1.55 8.64
8/9/2022 8:30:00 PM 29.13 84.434 0.36 8.1 1.5 8.57
8/9/2022 8:45:00 PM 29.1 84.38 0.36 8.1 1.8 8.54
8/9/2022 9:00:00 PM 29.07 84.326 0.36 8.1 2.11 8.53
8/9/2022 9:15:00 PM 29.01 84.218 0.36 8.09 1.92 8.48
8/9/2022 9:30:00 PM 28.96 84.128 0.36 8.09 1.71 8.43
8/9/2022 9:45:00 PM 28.92 84.056 0.36 8.08 1.62 8.39
8/9/2022 10:00:00 PM 28.87 83.966 0.36 8.07 2.02 8.34
8/9/2022 10:15:00 PM 28.84 83.912 0.361 8.07 2.85 8.29
8/9/2022 10:30:00 PM 28.81 83.858 0.361 8.07 9.93 8.31
8/9/2022 10:45:00 PM 28.76 83.768 0.362 8.06 64.07 8.25
8/9/2022 11:00:00 PM 28.72 83.696 0.363 8.06 60.47 8.25
8/9/2022 11:15:00 PM 28.68 83.624 0.363 8.05 91.04 8.23
8/9/2022 11:30:00 PM 28.62 83.51601 0.362 8.05 130.83 8.17
8/9/2022 11:45:00 PM 28.57 83.426 0.362 8.04 113.01 8.15
8/10/2022 12:00:00 AM 28.51 83.318 0.362 8.03 44.1 8.12
8/10/2022 12:15:00 AM 28.45 83.21001 0.359 8.03 22.73 8.1
8/10/2022 12:30:00 AM 28.38 83.084 0.35 8.02 7.72 8.07
8/10/2022 12:45:00 AM 28.48 83.264 0.332 7.93 0.31 8.23
8/10/2022 1:00:00 AM 28.46 83.228 0.308 7.87 2.19 8.19
8/10/2022 1:15:00 AM 28.21 82.778 0.286 7.97 10.36 8.1
8/10/2022 1:30:00 AM 28.14 82.652 0.26 7.98 5.02 7.99
8/10/2022 1:45:00 AM 28.09 82.562 0.226 7.97 5.28 7.91
8/10/2022 2:00:00 AM 28.03 82.454 0.181 7.96 4.89 7.88
8/10/2022 2:15:00 AM 27.97 82.346 0.142 7.95 2.28 7.81
8/10/2022 2:30:00 AM 27.92 82.256 0.125 7.95 2.11 7.75
8/10/2022 2:45:00 AM 27.87 82.166 0.14 7.94 1.71 7.72
8/10/2022 3:00:00 AM 27.81 82.058 0.185 7.93 1.77 7.69
8/10/2022 3:15:00 AM 27.76 81.968 0.25 7.93 1.73 7.65
8/10/2022 3:30:00 AM 27.7 81.86 0.319 7.92 1.78 7.62
8/10/2022 3:45:00 AM 27.64 81.752 0.349 7.91 1.75 7.61
8/10/2022 4:00:00 AM 27.6 81.68 0.355 7.9 1.75 7.56
8/10/2022 4:15:00 AM 27.54 81.57201 0.359 7.87 1.62 7.49
8/10/2022 4:30:00 AM 27.5 81.5 0.361 7.87 1.57 7.46
8/10/2022 4:45:00 AM 27.44 81.392 0.362 7.86 1.47 7.43
8/10/2022 5:00:00 AM 27.39 81.302 0.362 7.85 1.77 7.41
8/10/2022 5:15:00 AM 27.34 81.212 0.362 7.83 1.66 7.39
8/10/2022 5:30:00 AM 27.29 81.122 0.362 7.83 1.7 7.32
8/10/2022 5:45:00 AM 27.24 81.032 0.363 7.84 1.62 7.29
8/10/2022 6:00:00 AM 27.18 80.924 0.362 7.83 1.83 7.29
8/10/2022 6:15:00 AM 27.12 80.816 0.362 7.83 1.74 7.25
8/10/2022 6:30:00 AM 27.08 80.744 0.362 7.82 1.49 7.23
8/10/2022 6:45:00 AM 27.03 80.654 0.362 7.81 1.84 7.23
8/10/2022 7:00:00 AM 26.99 80.582 0.362 7.82 1.96 7.23
8/10/2022 7:15:00 AM 26.96 80.528 0.362 7.81 1.6 7.26
8/10/2022 7:30:00 AM 26.93 80.474 0.362 7.81 1.57 7.27
8/10/2022 7:45:00 AM 26.9 80.42 0.362 7.82 1.57 7.29
8/10/2022 8:00:00 AM 26.87 80.366 0.362 7.82 1.64 7.3
8/10/2022 8:15:00 AM 26.86 80.348 0.362 7.83 1.79 7.33
8/10/2022 8:30:00 AM 26.85 80.33 0.362 7.83 1.65 7.38
8/10/2022 8:45:00 AM 26.85 80.33 0.362 7.84 1.68 7.47
8/10/2022 9:00:00 AM 26.85 80.33 0.362 7.85 1.61 7.48
8/10/2022 9:15:00 AM 27.67 81.806 0.369 7.87 2.36 8.11
8/10/2022 9:30:00 AM 27.3 81.14 0.365 7.84 5.29 8.13
8/10/2022 9:45:00 AM 26.9 80.42 0.362 7.86 1.74 7.76
8/10/2022 10:00:00 AM 26.95 80.51 0.362 7.87 1.56 7.79
8/10/2022 10:15:00 AM 27.03 80.654 0.362 7.88 1.61 7.81
8/10/2022 10:30:00 AM 27.06 80.708 0.362 7.89 1.54 7.85
8/10/2022 10:45:00 AM 27.09 80.762 0.362 7.89 1.62 7.83
8/10/2022 11:00:00 AM 27.16 80.888 0.362 7.9 1.48 7.88
8/10/2022 11:15:00 AM 27.19 80.942 0.362 7.91 1.47 7.9
8/10/2022 11:30:00 AM 27.24 81.032 0.362 7.92 1.94 7.93
8/10/2022 11:45:00 AM 27.32 81.176 0.361 7.93 1.78 8.01
8/10/2022 12:00:00 PM 27.43 81.374 0.361 7.94 1.6 8.06
8/10/2022 12:15:00 PM 27.44 81.392 0.361 7.95 1.57 8.09
8/10/2022 12:30:00 PM 27.46 81.42799 0.361 7.96 1.63 8.13
8/10/2022 12:45:00 PM 27.6 81.68 0.361 7.97 2.94 8.17
8/10/2022 1:00:00 PM 27.77 81.986 0.361 7.98 1.61 8.24
8/10/2022 1:15:00 PM 27.93 82.274 0.361 8 1.66 8.27
8/10/2022 1:30:00 PM 27.93 82.274 0.361 8.01 1.83 8.29
8/10/2022 1:45:00 PM 27.9 82.22 0.361 8.01 1.88 8.27
8/10/2022 2:00:00 PM 27.99 82.382 0.361 8.02 1.87 8.33
8/10/2022 2:15:00 PM 28.15 82.67 0.361 8.03 1.57 8.35
8/10/2022 2:30:00 PM 28.32 82.976 0.361 8.04 2.45 8.36
8/10/2022 2:45:00 PM 28.55 83.39 0.361 8.06 2.46 8.41
8/10/2022 3:00:00 PM 28.71 83.67799 0.361 8.07 8.34 8.53
8/10/2022 3:15:00 PM 28.78 83.804 0.361 8.08 29.62 8.61
8/10/2022 3:30:00 PM 28.81 83.858 0.361 8.09 25.66 8.66
8/10/2022 3:45:00 PM 28.77 83.786 0.36 8.1 40.29 8.67
8/10/2022 4:00:00 PM 28.79 83.82201 0.36 8.11 36.1 8.69
8/10/2022 4:15:00 PM 28.87 83.966 0.36 8.12 88.75 8.77
8/10/2022 4:30:00 PM 28.96 84.128 0.36 8.13 53 8.82
8/10/2022 4:45:00 PM 29.07 84.326 0.357 8.14 13.15 8.83
8/10/2022 5:00:00 PM 29.16 84.488 0.347 8.14 19.1 8.87
8/10/2022 5:15:00 PM 29.22 84.59599 0.334 8.16 1.53 8.9
8/10/2022 5:30:00 PM 29.27 84.686 0.312 8.16 2.92 8.91
8/10/2022 5:45:00 PM 29.29 84.722 0.288 8.17 1.87 8.92
8/10/2022 6:00:00 PM 29.3 84.74 0.255 8.17 2.26 8.95
8/10/2022 6:15:00 PM 29.26 84.668 0.221 8.17 24.96 8.92
8/10/2022 6:30:00 PM 29.21 84.578 0.173 8.16 2.86 8.84
8/10/2022 6:45:00 PM 29.2 84.56001 0.141 8.16 2.09 8.86
8/10/2022 7:00:00 PM 29.2 84.56001 0.124 8.16 1.88 8.85
8/10/2022 7:15:00 PM 29.2 84.56001 0.126 8.16 1.53 8.83
8/10/2022 7:30:00 PM 29.2 84.56001 0.173 8.16 1.47 8.83
8/10/2022 7:45:00 PM 29.18 84.524 0.246 8.16 1.72 8.8
8/10/2022 8:00:00 PM 29.16 84.488 0.313 8.16 1.46 8.78
8/10/2022 8:15:00 PM 29.14 84.452 0.344 8.16 1.71 8.69
8/10/2022 8:30:00 PM 29.12 84.416 0.352 8.16 1.53 8.67
8/10/2022 8:45:00 PM 29.11 84.39799 0.357 8.15 1.67 8.66
8/10/2022 9:00:00 PM 29.09 84.362 0.359 8.15 1.89 8.64
8/10/2022 9:15:00 PM 29.08 84.344 0.359 8.14 1.44 8.62
8/10/2022 9:30:00 PM 29.07 84.326 0.359 8.13 1.9 8.6
8/10/2022 9:45:00 PM 29.07 84.326 0.359 8.1 1.56 8.57
8/10/2022 10:00:00 PM 29.05 84.28999 0.359 8.09 2.18 8.67
8/10/2022 10:15:00 PM 29.04 84.272 0.359 8.11 1.84 8.67
8/10/2022 10:30:00 PM 29.03 84.25401 0.36 8.12 1.71 8.64
8/10/2022 10:45:00 PM 28.99 84.182 0.36 8.13 1.7 8.56
8/10/2022 11:00:00 PM 28.97 84.146 0.36 8.12 1.77 8.52
8/10/2022 11:15:00 PM 28.95 84.11 0.36 8.12 1.67 8.43
8/10/2022 11:30:00 PM 28.92 84.056 0.36 8.1 1.7 8.48
8/10/2022 11:45:00 PM 28.88 83.98399 0.36 8.1 1.63 8.43
8/11/2022 12:00:00 AM 28.86 83.948 0.36 8.1 1.91 8.39
8/11/2022 12:15:00 AM 28.82 83.876 0.361 8.09 2.1 8.33
8/11/2022 12:30:00 AM 28.78 83.804 0.361 8.08 2.04 8.24
8/11/2022 12:45:00 AM 28.58 83.444 0.369 7.96 1.98 8.29
8/11/2022 1:00:00 AM 28.65 83.57 0.366 7.9 5.67 8.27
8/11/2022 1:15:00 AM 28.66 83.588 0.361 7.98 2.47 8.18
8/11/2022 1:30:00 AM 28.61 83.498 0.361 7.99 2.32 8.14
8/11/2022 1:45:00 AM 28.57 83.426 0.362 7.98 1.93 8.05
8/11/2022 2:00:00 AM 28.51 83.318 0.362 7.98 1.83 8.03
8/11/2022 2:15:00 AM 28.47 83.24599 0.362 7.98 1.72 8
8/11/2022 2:30:00 AM 28.4 83.12 0.362 7.96 1.73 7.96
8/11/2022 2:45:00 AM 28.34 83.012 0.362 7.92 1.81 7.93
8/11/2022 3:00:00 AM 28.27 82.886 0.362 7.94 1.61 7.99
8/11/2022 3:15:00 AM 28.2 82.76 0.362 7.93 1.73 7.97
8/11/2022 3:30:00 AM 28.12 82.616 0.362 7.9 1.6 7.9
8/11/2022 3:45:00 AM 28.05 82.49 0.362 7.9 1.61 7.89
8/11/2022 4:00:00 AM 27.97 82.346 0.362 7.87 1.91 7.81
8/11/2022 4:15:00 AM 27.89 82.202 0.362 7.88 1.61 7.8
8/11/2022 4:30:00 AM 27.81 82.058 0.362 7.86 1.85 7.76
8/11/2022 4:45:00 AM 27.73 81.914 0.362 7.83 1.63 7.69
8/11/2022 5:00:00 AM 27.65 81.77 0.362 7.85 1.71 7.65
8/11/2022 5:15:00 AM 27.57 81.626 0.362 7.84 1.56 7.6
8/11/2022 5:30:00 AM 27.49 81.482 0.362 7.84 1.81 7.58
8/11/2022 5:45:00 AM 27.41 81.338 0.363 7.82 1.54 7.51
8/11/2022 6:00:00 AM 27.33 81.194 0.363 7.82 1.72 7.46
8/11/2022 6:15:00 AM 27.26 81.068 0.363 7.82 1.69 7.41
8/11/2022 6:30:00 AM 27.19 80.942 0.363 7.82 1.49 7.47
8/11/2022 6:45:00 AM 27.13 80.834 0.363 7.8 1.58 7.48
8/11/2022 7:00:00 AM 27.06 80.708 0.363 7.82 1.84 7.48
8/11/2022 7:15:00 AM 27.01 80.618 0.363 7.8 3.38 7.49
8/11/2022 7:30:00 AM 26.96 80.528 0.363 7.81 11.76 7.51
8/11/2022 7:45:00 AM 26.92 80.456 0.363 7.8 66.23 7.6
8/11/2022 8:00:00 AM 26.89 80.402 0.363 7.81 29.87 7.62
8/11/2022 8:15:00 AM 26.87 80.366 0.363 7.79 30.55 7.65
8/11/2022 8:30:00 AM 26.85 80.33 0.363 7.84 45.91 7.7
8/11/2022 8:45:00 AM 26.85 80.33 0.363 7.84 193.02 7.74
8/11/2022 9:00:00 AM 26.85 80.33 0.363 7.85 68.48 7.77
8/11/2022 9:15:00 AM 26.86 80.348 0.361 7.78 9.92 7.78
8/11/2022 9:30:00 AM 26.88 80.384 0.354 7.81 9 7.8
8/11/2022 9:45:00 AM 26.9 80.42 0.342 7.86 2.44 7.84
8/11/2022 10:00:00 AM 26.95 80.51 0.321 7.85 1.76 7.87
8/11/2022 10:15:00 AM 26.99 80.582 0.299 7.82 2.71 7.92
8/11/2022 10:30:00 AM 27.07 80.726 0.272 7.83 7.47 7.98
8/11/2022 10:45:00 AM 27.14 80.852 0.239 7.81 13.75 7.99
8/11/2022 11:00:00 AM 27.21 80.978 0.205 7.83 9.84 8.02
8/11/2022 11:15:00 AM 27.31 81.158 0.164 7.75 1.93 8.1
8/11/2022 11:30:00 AM 27.38 81.284 0.136 7.77 1.67 8.14
8/11/2022 11:45:00 AM 27.47 81.446 0.131 7.83 1.27 8.18
8/11/2022 12:00:00 PM 28.14 82.652 0.174 7.93 3.25 8.37
8/11/2022 12:15:00 PM 28.23 82.814 0.293 7.86 1.9 8.33
8/11/2022 12:30:00 PM 27.76 81.968 0.328 7.93 1.88 8.4
8/11/2022 12:45:00 PM 27.81 82.058 0.347 7.96 1.73 8.47
8/11/2022 1:00:00 PM 27.9 82.22 0.356 7.97 1.36 8.5
8/11/2022 1:15:00 PM 27.99 82.382 0.362 7.99 1.37 8.5
8/11/2022 1:30:00 PM 28.13 82.634 0.365 7.99 1.68 8.59
8/11/2022 1:45:00 PM 28.21 82.778 0.365 7.99 1.63 8.62
8/11/2022 2:00:00 PM 28.23 82.814 0.365 7.99 1.67 8.62
8/11/2022 2:15:00 PM 28.32 82.976 0.365 7.98 1.45 8.69
8/11/2022 2:30:00 PM 28.4 83.12 0.365 7.98 1.47 8.72
8/11/2022 2:45:00 PM 28.5 83.3 0.365 8.06 2.62 8.75
8/11/2022 3:00:00 PM 28.57 83.426 0.366 8.09 1.92 8.78
8/11/2022 3:15:00 PM 28.66 83.588 0.366 8.11 1.98 8.84
8/11/2022 3:30:00 PM 28.74 83.732 0.365 8.13 1.59 8.89
8/11/2022 3:45:00 PM 28.79 83.82201 0.366 8.13 1.56 8.84
8/11/2022 4:00:00 PM 28.84 83.912 0.365 8.14 1.56 8.86
8/11/2022 4:15:00 PM 28.89 84.002 0.366 8.15 1.67 8.88
8/11/2022 4:30:00 PM 28.93 84.074 0.365 8.16 1.67 8.94
8/11/2022 4:45:00 PM 28.95 84.11 0.365 8.18 1.56 8.92
8/11/2022 5:00:00 PM 28.98 84.164 0.365 8.19 1.53 8.97
8/11/2022 5:15:00 PM 29 84.2 0.365 8.19 1.45 8.98
8/11/2022 5:30:00 PM 29 84.2 0.365 8.2 1.46 8.99
8/11/2022 5:45:00 PM 28.99 84.182 0.365 8.2 1.47 8.98
8/11/2022 6:00:00 PM 28.97 84.146 0.362 8.2 1.62 8.97
8/11/2022 6:15:00 PM 28.96 84.128 0.365 8.2 1.35 8.93
8/11/2022 6:30:00 PM 28.93 84.074 0.365 8.2 1.46 8.91
8/11/2022 6:45:00 PM 28.92 84.056 0.365 8.2 1.55 8.91
8/11/2022 7:00:00 PM 28.9 84.02 0.365 8.2 1.45 8.89
8/11/2022 7:15:00 PM 28.9 84.02 0.365 8.19 1.6 8.87
8/11/2022 7:30:00 PM 28.89 84.002 0.365 8.19 1.39 8.85
8/11/2022 7:45:00 PM 28.88 83.98399 0.365 8.19 1.54 8.83
8/11/2022 8:00:00 PM 28.88 83.98399 0.365 8.19 1.55 8.81
8/11/2022 8:15:00 PM 28.86 83.948 0.365 8.18 1.56 8.77
8/11/2022 8:30:00 PM 28.83 83.894 0.365 8.18 1.48 8.77
8/11/2022 8:45:00 PM 28.8 83.84 0.365 8.17 1.43 8.75
8/11/2022 9:00:00 PM 28.76 83.768 0.365 8.17 1.59 8.74
8/11/2022 9:15:00 PM 28.74 83.732 0.365 8.17 1.6 8.71
8/11/2022 9:30:00 PM 28.7 83.66 0.365 8.17 1.46 8.67
8/11/2022 9:45:00 PM 28.67 83.606 0.365 8.17 1.61 8.67
8/11/2022 10:00:00 PM 28.63 83.534 0.365 8.16 1.63 8.63
8/11/2022 10:15:00 PM 28.59 83.462 0.365 8.16 2.29 8.58
8/11/2022 10:30:00 PM 28.54 83.372 0.365 8.16 2.06 8.58
8/11/2022 10:45:00 PM 28.49 83.282 0.365 8.16 1.5 8.48
8/11/2022 11:00:00 PM 28.44 83.192 0.365 8.15 1.33 8.39
8/11/2022 11:15:00 PM 28.4 83.12 0.365 8.15 1.63 8.39
8/11/2022 11:30:00 PM 28.34 83.012 0.365 8.14 1.93 8.35
8/11/2022 11:45:00 PM 28.29 82.922 0.365 8.13 2.22 8.3
8/12/2022 12:00:00 AM 28.23 82.814 0.365 8.13 7.04 8.24
8/12/2022 12:15:00 AM 28.18 82.724 0.365 8.12 30.73 8.24
8/12/2022 12:30:00 AM 28.13 82.634 0.35 8.11 24.94 8.27
8/12/2022 12:45:00 AM 28.23 82.814 0.372 7.99 17.75 8.28
8/12/2022 1:00:00 AM 28.09 82.562 0.367 8 57.92 8.29
8/12/2022 1:15:00 AM 27.95 82.31 0.365 8.07 67.16 8.2
8/12/2022 1:30:00 AM 27.89 82.202 0.365 8.08 68.45 8.14
8/12/2022 1:45:00 AM 27.83 82.094 0.364 8.07 29.43 8.07
8/12/2022 2:00:00 AM 27.76 81.968 0.356 8.07 2.61 8.05
8/12/2022 2:15:00 AM 27.69 81.842 0.344 8.05 1.44 8
8/12/2022 2:30:00 AM 27.61 81.698 0.324 8.05 0.45 7.97
8/12/2022 2:45:00 AM 27.53 81.554 0.303 8.04 1.54 7.93
8/12/2022 3:00:00 AM 27.45 81.41 0.279 8.04 2.68 7.9
8/12/2022 3:15:00 AM 27.39 81.302 0.253 8.03 13.24 7.87
8/12/2022 3:30:00 AM 27.31 81.158 0.219 8.02 18.97 7.83
8/12/2022 3:45:00 AM 27.23 81.014 0.176 8.01 3.34 7.8
8/12/2022 4:00:00 AM 27.15 80.87 0.151 8.01 2.61 7.77
8/12/2022 4:15:00 AM 27.08 80.744 0.137 8 1.78 7.74
8/12/2022 4:30:00 AM 27.01 80.618 0.144 7.98 1.53 7.7
8/12/2022 4:45:00 AM 26.93 80.474 0.173 7.97 1.65 7.69
8/12/2022 5:00:00 AM 26.85 80.33 0.24 7.97 1.98 7.7
8/12/2022 5:15:00 AM 26.78 80.204 0.318 7.96 1.94 7.65
8/12/2022 5:30:00 AM 26.69 80.042 0.349 7.95 1.81 7.63
8/12/2022 5:45:00 AM 26.59 79.862 0.359 7.94 1.79 7.6
8/12/2022 6:00:00 AM 26.49 79.682 0.363 7.93 1.77 7.58
8/12/2022 6:15:00 AM 26.4 79.52 0.365 7.91 1.83 7.56
8/12/2022 6:30:00 AM 26.3 79.34 0.365 7.89 1.99 7.57
8/12/2022 6:45:00 AM 26.22 79.196 0.365 7.87 2.08 7.57
8/12/2022 7:00:00 AM 26.15 79.07 0.365 7.86 1.93 7.57
8/12/2022 7:15:00 AM 26.07 78.926 0.365 7.88 1.83 7.59
8/12/2022 7:30:00 AM 26.01 78.818 0.365 7.9 1.75 7.61
8/12/2022 7:45:00 AM 25.95 78.71 0.365 7.91 1.71 7.64
8/12/2022 8:00:00 AM 25.9 78.62 0.365 7.92 2.07 7.67
8/12/2022 8:15:00 AM 25.85 78.53 0.365 7.92 1.7 7.71
8/12/2022 8:30:00 AM 25.82 78.476 0.365 7.92 1.59 7.75
8/12/2022 8:45:00 AM 26.18 79.124 0.37 7.95 4.25 8.13
8/12/2022 9:00:00 AM 26.51 79.718 0.37 7.91 1.68 8.12
8/12/2022 9:15:00 AM 25.97 78.746 0.366 7.91 1.66 8.04
8/12/2022 9:30:00 AM 25.84 78.512 0.365 7.93 1.66 7.96
8/12/2022 9:45:00 AM 25.87 78.566 0.365 7.94 1.73 7.98
8/12/2022 10:00:00 AM 25.9 78.62 0.365 7.95 1.99 8.01
8/12/2022 10:15:00 AM 25.94 78.692 0.365 7.95 1.53 8.03
8/12/2022 10:30:00 AM 25.97 78.746 0.365 7.96 1.54 8.08
8/12/2022 10:45:00 AM 26.02 78.836 0.366 7.97 1.57 8.18
8/12/2022 11:00:00 AM 26.08 78.944 0.365 7.97 1.49 8.22
8/12/2022 11:15:00 AM 26.14 79.052 0.366 7.98 1.47 8.25
8/12/2022 11:30:00 AM 26.21 79.17799 0.366 7.99 1.4 8.29
8/12/2022 11:45:00 AM 26.28 79.304 0.366 8 1.41 8.34
8/12/2022 12:00:00 PM 26.35 79.43 0.366 8.01 1.4 8.43
8/12/2022 12:15:00 PM 26.41 79.538 0.366 8.01 1.41 8.48
8/12/2022 12:30:00 PM 26.48 79.664 0.366 8.04 1.46 8.53
8/12/2022 12:45:00 PM 26.55 79.79 0.366 8.05 1.33 8.6
8/12/2022 1:00:00 PM 26.61 79.898 0.366 8.06 1.68 8.65
8/12/2022 1:15:00 PM 26.68 80.024 0.366 8.07 1.36 8.69
8/12/2022 1:30:00 PM 26.76 80.168 0.366 8.08 1.42 8.74
8/12/2022 1:45:00 PM 26.81 80.258 0.367 8.09 1.4 8.75
8/12/2022 2:00:00 PM 26.87 80.366 0.367 8.1 1.33 8.78
8/12/2022 2:15:00 PM 26.94 80.492 0.367 8.11 1.47 8.82
8/12/2022 2:30:00 PM 27.02 80.636 0.367 8.12 1.29 8.83
8/12/2022 2:45:00 PM 27.09 80.762 0.367 8.12 1.47 8.86
8/12/2022 3:00:00 PM 27.15 80.87 0.367 8.13 1.31 8.9
8/12/2022 3:15:00 PM 27.21 80.978 0.367 8.14 1.39 8.87
8/12/2022 3:30:00 PM 27.25 81.05 0.368 8.15 1.44 8.85
8/12/2022 3:45:00 PM 27.26 81.068 0.367 8.15 1.44 8.88
8/12/2022 4:00:00 PM 27.28 81.104 0.368 8.16 1.57 8.97
8/12/2022 4:15:00 PM 27.3 81.14 0.368 8.16 1.81 8.93
8/12/2022 4:30:00 PM 27.32 81.176 0.368 8.17 7.59 8.99
8/12/2022 4:45:00 PM 27.31 81.158 0.368 8.18 30.77 9.01
8/12/2022 5:00:00 PM 27.28 81.104 0.368 8.18 37.91 9.06
8/12/2022 5:15:00 PM 27.27 81.086 0.368 8.19 27.44 9.12
8/12/2022 5:30:00 PM 27.24 81.032 0.368 8.19 27.9 9.13
8/12/2022 5:45:00 PM 27.19 80.942 0.368 8.19 54.58 9.13
8/12/2022 6:00:00 PM 27.12 80.816 0.367 8.19 63.26 9.13
8/12/2022 6:15:00 PM 27.06 80.708 0.367 8.19 40.57 9.11
8/12/2022 6:30:00 PM 26.98 80.564 0.362 8.18 16.08 9.06
8/12/2022 6:45:00 PM 26.92 80.456 0.351 8.17 2.51 9.02
8/12/2022 7:00:00 PM 26.88 80.384 0.333 8.17 0.53 9.02
8/12/2022 7:15:00 PM 26.86 80.348 0.307 8.17 1.49 9
8/12/2022 7:30:00 PM 26.85 80.33 0.284 8.17 1.93 8.97
8/12/2022 7:45:00 PM 26.83 80.294 0.253 8.16 24.99 8.98
8/12/2022 8:00:00 PM 26.81 80.258 0.22 8.16 25.63 8.96
8/12/2022 8:15:00 PM 26.8 80.24 0.178 8.16 2.91 8.94
8/12/2022 8:30:00 PM 26.76 80.168 0.15 8.17 1.66 8.93
8/12/2022 8:45:00 PM 26.73 80.114 0.136 8.16 1.72 8.92
8/12/2022 9:00:00 PM 26.7 80.06 0.148 8.16 1.41 8.9
8/12/2022 9:15:00 PM 26.67 80.006 0.191 8.16 1.38 8.88
8/12/2022 9:30:00 PM 26.64 79.952 0.278 8.16 1.48 8.88
8/12/2022 9:45:00 PM 26.59 79.862 0.337 8.16 1.54 8.85
8/12/2022 10:00:00 PM 26.56 79.808 0.356 8.15 1.43 8.82
8/12/2022 10:15:00 PM 26.52 79.736 0.362 8.15 1.45 8.83
8/12/2022 10:30:00 PM 26.48 79.664 0.366 8.15 1.48 8.79
8/12/2022 10:45:00 PM 26.44 79.592 0.367 8.13 1.46 8.77
8/12/2022 11:00:00 PM 26.4 79.52 0.367 8.12 1.46 8.74
8/12/2022 11:15:00 PM 26.37 79.466 0.367 8.13 1.49 8.72
8/12/2022 11:30:00 PM 26.33 79.394 0.368 8.12 1.54 8.67
8/12/2022 11:45:00 PM 26.29 79.32201 0.368 8.11 1.48 8.63
8/13/2022 12:00:00 AM 26.25 79.25 0.368 8.1 1.69 8.57
8/13/2022 12:15:00 AM 26.22 79.196 0.368 8.11 1.59 8.54
8/13/2022 12:30:00 AM 26.2 79.16 0.368 8.11 1.52 8.5
8/13/2022 12:45:00 AM 26.53 79.754 0.376 8.09 2.64 8.58
8/13/2022 1:00:00 AM 26.54 79.772 0.375 7.94 1.57 8.58
8/13/2022 1:15:00 AM 26.14 79.052 0.369 8.02 2.1 8.59
8/13/2022 1:30:00 AM 26.01 78.818 0.369 8.06 1.61 8.49
8/13/2022 1:45:00 AM 25.95 78.71 0.369 8.07 1.79 8.43
8/13/2022 2:00:00 AM 25.9 78.62 0.369 8.07 1.89 8.37
8/13/2022 2:15:00 AM 25.84 78.512 0.371 8.06 1.56 8.33
8/13/2022 2:30:00 AM 25.79 78.422 0.38 8.07 1.46 8.3
8/13/2022 2:45:00 AM 25.72 78.296 0.406 8.11 1.55 8.25
8/13/2022 3:00:00 AM 25.66 78.188 0.436 8.18 1.63 8.19
8/13/2022 3:15:00 AM 25.61 78.098 0.453 8.23 1.58 8.14
8/13/2022 3:30:00 AM 25.55 77.99 0.466 8.27 1.57 8.11
8/13/2022 3:45:00 AM 25.48 77.864 0.473 8.28 1.62 8.07
8/13/2022 4:00:00 AM 25.43 77.774 0.477 8.3 1.63 8.06
8/13/2022 4:15:00 AM 25.38 77.684 0.476 8.3 1.69 8.04
8/13/2022 4:30:00 AM 25.31 77.558 0.472 8.3 1.61 8.02
8/13/2022 4:45:00 AM 25.22 77.396 0.466 8.28 1.58 8.01
8/13/2022 5:00:00 AM 25.15 77.27 0.456 8.25 1.66 7.98
8/13/2022 5:15:00 AM 25.05 77.09 0.448 8.23 1.6 7.96
8/13/2022 5:30:00 AM 24.99 76.982 0.437 8.19 1.57 7.92
8/13/2022 5:45:00 AM 24.95 76.91 0.426 8.16 1.6 7.91
8/13/2022 6:00:00 AM 24.88 76.784 0.419 8.12 1.55 7.88
8/13/2022 6:15:00 AM 24.82 76.676 0.413 8.11 1.98 7.87
8/13/2022 6:30:00 AM 24.75 76.55 0.406 8.08 1.55 7.85
8/13/2022 6:45:00 AM 24.68 76.424 0.4 8.05 2.23 7.87
8/13/2022 7:00:00 AM 24.62 76.316 0.397 8.04 1.69 7.84
8/13/2022 7:15:00 AM 24.58 76.244 0.393 8.03 1.65 7.81
8/13/2022 7:30:00 AM 24.53 76.154 0.39 8.02 1.55 7.85
8/13/2022 7:45:00 AM 24.49 76.082 0.387 8.01 1.57 7.83
8/13/2022 8:00:00 AM 24.47 76.046 0.385 8.01 1.47 7.79
8/13/2022 8:15:00 AM 24.45 76.01 0.383 8.01 1.41 7.87
8/13/2022 8:30:00 AM 24.46 76.028 0.383 8.01 1.51 7.92
8/13/2022 8:45:00 AM 24.47 76.046 0.382 8.02 1.79 7.99
8/13/2022 9:00:00 AM 24.5 76.1 0.382 8.01 4.73 7.96
8/13/2022 9:15:00 AM 24.54 76.172 0.384 8.01 29.29 8
8/13/2022 9:30:00 AM 24.57 76.226 0.386 8.02 40.3 8.11
8/13/2022 9:45:00 AM 24.63 76.334 0.387 8.03 26.78 8.14
8/13/2022 10:00:00 AM 24.7 76.46 0.388 8.03 23.93 8.14
8/13/2022 10:15:00 AM 24.76 76.568 0.391 8.03 46.88 8.19
8/13/2022 10:30:00 AM 24.81 76.658 0.392 8.04 70.5 8.26
8/13/2022 10:45:00 AM 24.89 76.802 0.393 8.05 32.87 8.28
8/13/2022 11:00:00 AM 25 77 0.388 8.06 5.34 8.34
8/13/2022 11:15:00 AM 25.1 77.18 0.375 8.07 5.41 8.39
8/13/2022 11:30:00 AM 25.21 77.378 0.356 8.08 1.58 8.42
8/13/2022 11:45:00 AM 25.31 77.558 0.328 8.09 3.12 8.46
8/13/2022 12:00:00 PM 25.39 77.702 0.3 8.08 2.08 8.5
8/13/2022 12:15:00 PM 25.49 77.882 0.266 8.09 30.45 8.55
8/13/2022 12:30:00 PM 25.6 78.08 0.227 8.09 38.71 8.65
8/13/2022 12:45:00 PM 25.71 78.278 0.184 8.1 3.24 8.72
8/13/2022 1:00:00 PM 25.81 78.458 0.158 8.09 2.31 8.77
8/13/2022 1:15:00 PM 25.91 78.638 0.142 8.12 1.48 8.78
8/13/2022 1:30:00 PM 26.02 78.836 0.155 8.12 1.39 8.84
8/13/2022 1:45:00 PM 26.13 79.034 0.192 8.12 1.39 8.88
8/13/2022 2:00:00 PM 26.23 79.214 0.268 8.12 1.4 8.94
8/13/2022 2:15:00 PM 26.32 79.376 0.332 8.14 1.46 8.95
8/13/2022 2:30:00 PM 26.41 79.538 0.361 8.12 2.15 9
8/13/2022 2:45:00 PM 26.5 79.7 0.37 8.12 1.63 9.03
8/13/2022 3:00:00 PM 26.57 79.826 0.374 8.12 1.59 9.05
8/13/2022 3:15:00 PM 26.64 79.952 0.376 8.08 1.46 9.11
8/13/2022 3:30:00 PM 26.7 80.06 0.375 8.04 1.44 9.14
8/13/2022 3:45:00 PM 26.75 80.15 0.375 8.04 1.34 9.13
8/13/2022 4:00:00 PM 26.79 80.222 0.374 8.07 1.48 9.13
8/13/2022 4:15:00 PM 26.82 80.276 0.374 8.09 1.36 9.18
8/13/2022 4:30:00 PM 26.85 80.33 0.373 8.15 1.47 9.19
8/13/2022 4:45:00 PM 26.87 80.366 0.373 8.18 1.48 9.22
8/13/2022 5:00:00 PM 26.9 80.42 0.372 8.2 1.61 9.25
8/13/2022 5:15:00 PM 26.9 80.42 0.372 8.2 1.44 9.25
8/13/2022 5:30:00 PM 26.9 80.42 0.372 8.2 1.41 9.26
8/13/2022 5:45:00 PM 26.8 80.24 0.383 8.14 3.4 8.91
8/13/2022 6:00:00 PM 26.49 79.682 0.387 8 1.91 8.83
8/13/2022 6:15:00 PM 26.77 80.186 0.372 8.12 2.95 9.16
8/13/2022 6:30:00 PM 26.77 80.186 0.371 8.15 2.4 9.24
8/13/2022 6:45:00 PM 26.74 80.132 0.371 8.17 2.17 9.23
8/13/2022 7:00:00 PM 26.73 80.114 0.37 8.16 1.5 9.21
8/13/2022 7:15:00 PM 26.72 80.096 0.37 8.16 1.46 9.2
8/13/2022 7:30:00 PM 26.71 80.078 0.37 8.15 1.79 9.2
8/13/2022 7:45:00 PM 26.7 80.06 0.37 8.16 1.63 9.19
8/13/2022 8:00:00 PM 26.69 80.042 0.37 8.16 1.62 9.18
8/13/2022 8:15:00 PM 26.66 79.988 0.37 8.16 1.6 9.15
8/13/2022 8:30:00 PM 26.64 79.952 0.37 8.16 1.53 9.14
8/13/2022 8:45:00 PM 26.62 79.916 0.37 8.15 2 9.12
8/13/2022 9:00:00 PM 26.61 79.898 0.37 8.15 1.44 9.12
8/13/2022 9:15:00 PM 26.6 79.88 0.37 8.16 1.64 9.12
8/13/2022 9:30:00 PM 26.57 79.826 0.37 8.16 1.42 9.12
8/13/2022 9:45:00 PM 26.56 79.808 0.37 8.16 1.5 9.1
8/13/2022 10:00:00 PM 26.55 79.79 0.37 8.16 1.36 9.1
8/13/2022 10:15:00 PM 26.54 79.772 0.37 8.16 1.35 9.07
8/13/2022 10:30:00 PM 26.51 79.718 0.37 8.16 1.51 9.04
8/13/2022 10:45:00 PM 26.49 79.682 0.37 8.17 1.34 9.03
8/13/2022 11:00:00 PM 26.46 79.628 0.37 8.15 1.34 8.99
8/13/2022 11:15:00 PM 26.43 79.574 0.37 8.16 1.45 8.97
8/13/2022 11:30:00 PM 26.42 79.556 0.37 8.16 1.43 8.95
8/13/2022 11:45:00 PM 26.41 79.538 0.37 8.16 1.39 8.86
8/14/2022 12:00:00 AM 26.37 79.466 0.37 8.15 1.87 8.83
8/14/2022 12:15:00 AM 26.34 79.412 0.37 8.15 1.49 8.83
8/14/2022 12:30:00 AM 26.3 79.34 0.37 8.14 1.39 8.72
8/14/2022 12:45:00 AM 26.27 79.286 0.37 8.14 1.58 8.62
8/14/2022 1:00:00 AM 26.17 79.106 0.386 8.11 8.06 8.81
8/14/2022 1:15:00 AM 26.15 79.07 0.386 7.96 4.03 8.8
8/14/2022 1:30:00 AM 26.16 79.088 0.373 8.04 5.39 8.78
8/14/2022 1:45:00 AM 26.13 79.034 0.371 8.09 4.29 8.69
8/14/2022 2:00:00 AM 26.09 78.962 0.371 8.1 4.12 8.65
8/14/2022 2:15:00 AM 26.05 78.89 0.371 8.09 5.66 8.58
8/14/2022 2:30:00 AM 26.01 78.818 0.371 8.09 8.65 8.53
8/14/2022 2:45:00 AM 25.97 78.746 0.371 8.09 15.93 8.48
8/14/2022 3:00:00 AM 25.92 78.656 0.371 8.08 25.22 8.44
8/14/2022 3:15:00 AM 25.87 78.566 0.371 8.08 21.89 8.42
8/14/2022 3:30:00 AM 25.83 78.494 0.371 8.07 18.41 8.38
8/14/2022 3:45:00 AM 25.79 78.422 0.371 8.06 26.27 8.34
8/14/2022 4:00:00 AM 25.73 78.314 0.371 8.05 36.17 8.32
8/14/2022 4:15:00 AM 25.67 78.206 0.371 8.04 64.96 8.28
8/14/2022 4:30:00 AM 25.63 78.134 0.371 8.04 70.38 8.23
8/14/2022 4:45:00 AM 25.57 78.026 0.371 8.03 37.79 8.2
8/14/2022 5:00:00 AM 25.52 77.936 0.368 8.02 12.24 8.18
8/14/2022 5:15:00 AM 25.45 77.81 0.359 8.01 1.12 8.14
8/14/2022 5:30:00 AM 25.39 77.702 0.346 8 0.21 8.09
8/14/2022 5:45:00 AM 25.35 77.63 0.323 8 1.88 8.05
8/14/2022 6:00:00 AM 25.31 77.558 0.299 7.99 1.47 8.01
8/14/2022 6:15:00 AM 25.25 77.45 0.268 7.98 6.53 7.98
8/14/2022 6:30:00 AM 25.16 77.288 0.235 7.97 30.07 7.96
8/14/2022 6:45:00 AM 25.09 77.162 0.2 7.96 10.26 7.99
8/14/2022 7:00:00 AM 25.03 77.054 0.164 7.96 1.96 8
8/14/2022 7:15:00 AM 24.99 76.982 0.144 7.96 1.61 8.02
8/14/2022 7:30:00 AM 24.94 76.892 0.147 7.96 1.55 8.03
8/14/2022 7:45:00 AM 24.9 76.82 0.162 7.96 1.63 8.11
8/14/2022 8:00:00 AM 24.87 76.766 0.215 7.97 1.62 8.12
8/14/2022 8:15:00 AM 24.86 76.748 0.292 7.97 1.59 8.17
8/14/2022 8:30:00 AM 24.85 76.73 0.342 7.97 1.54 8.2
8/14/2022 8:45:00 AM 24.86 76.748 0.361 7.96 1.61 8.23
8/14/2022 9:00:00 AM 24.88 76.784 0.368 7.95 1.54 8.26
8/14/2022 9:15:00 AM 24.93 76.874 0.37 7.93 1.64 8.28
8/14/2022 9:30:00 AM 24.98 76.964 0.371 7.91 1.54 8.31
8/14/2022 9:45:00 AM 25.03 77.054 0.371 7.91 1.55 8.35
8/14/2022 10:00:00 AM 25.1 77.18 0.371 7.91 1.85 8.38
8/14/2022 10:15:00 AM 25.19 77.342 0.371 7.93 1.5 8.4
8/14/2022 10:30:00 AM 25.28 77.504 0.371 7.96 1.42 8.44
8/14/2022 10:45:00 AM 25.37 77.666 0.371 8 1.63 8.47
8/14/2022 11:00:00 AM 25.47 77.846 0.371 8.02 1.65 8.49
8/14/2022 11:15:00 AM 25.57 78.026 0.371 8.03 1.5 8.54
8/14/2022 11:30:00 AM 25.69 78.242 0.371 8.04 1.4 8.59
8/14/2022 11:45:00 AM 25.8 78.44 0.371 8.05 1.41 8.63
8/14/2022 12:00:00 PM 25.87 78.566 0.371 8.06 1.41 8.66
8/14/2022 12:15:00 PM 25.97 78.746 0.371 8.07 1.46 8.72
8/14/2022 12:30:00 PM 26.05 78.89 0.371 8.08 1.61 8.77
8/14/2022 12:45:00 PM 26.12 79.016 0.371 8.09 1.4 8.8
8/14/2022 1:00:00 PM 26.21 79.17799 0.371 8.1 1.33 8.86
8/14/2022 1:15:00 PM 26.28 79.304 0.371 8.12 1.35 8.91
8/14/2022 1:30:00 PM 26.36 79.448 0.372 8.13 1.4 8.94
8/14/2022 1:45:00 PM 26.44 79.592 0.372 8.13 1.47 8.98
8/14/2022 2:00:00 PM 26.52 79.736 0.372 8.14 1.17 8.96
8/14/2022 2:15:00 PM 26.61 79.898 0.372 8.15 1.35 9.05
8/14/2022 2:30:00 PM 26.68 80.024 0.372 8.16 1.3 9.06
8/14/2022 2:45:00 PM 26.78 80.204 0.372 8.17 1.39 9.1
8/14/2022 3:00:00 PM 26.83 80.294 0.372 8.18 1.38 9.08
8/14/2022 3:15:00 PM 26.86 80.348 0.372 8.18 1.22 9.14
8/14/2022 3:30:00 PM 26.87 80.366 0.372 8.19 1.19 9.14
8/14/2022 3:45:00 PM 26.89 80.402 0.372 8.19 1.28 9.15
8/14/2022 4:00:00 PM 26.88 80.384 0.372 8.19 1.18 9.17
8/14/2022 4:15:00 PM 26.84 80.312 0.372 8.19 1.29 9.17
8/14/2022 4:30:00 PM 26.8 80.24 0.372 8.19 1.25 9.19
8/14/2022 4:45:00 PM 26.77 80.186 0.372 8.19 1.22 9.24
8/14/2022 5:00:00 PM 26.74 80.132 0.372 8.19 1.31 9.19
8/14/2022 5:15:00 PM 26.5 79.7 0.392 8.07 7.23 8.88
8/14/2022 5:30:00 PM 26.29 79.32201 0.383 7.96 8.68 8.9
8/14/2022 5:45:00 PM 26.55 79.79 0.374 8.09 7.69 8.99
8/14/2022 6:00:00 PM 26.57 79.826 0.372 8.15 6.3 9.04
8/14/2022 6:15:00 PM 26.52 79.736 0.372 8.16 5.03 9.04
8/14/2022 6:30:00 PM 26.46 79.628 0.372 8.16 4.7 9.11
8/14/2022 6:45:00 PM 26.43 79.574 0.372 8.15 3.82 8.98
8/14/2022 7:00:00 PM 26.38 79.484 0.372 8.16 3.14 8.96
8/14/2022 7:15:00 PM 26.34 79.412 0.372 8.15 3.32 8.85
8/14/2022 7:30:00 PM 26.29 79.32201 0.371 8.14 4.32 8.77
8/14/2022 7:45:00 PM 26.25 79.25 0.371 8.14 7.77 8.79
8/14/2022 8:00:00 PM 26.21 79.17799 0.371 8.15 22.3 8.89
8/14/2022 8:15:00 PM 26.17 79.106 0.371 8.14 11.99 8.97
8/14/2022 8:30:00 PM 26.14 79.052 0.371 8.14 14.58 8.98
8/14/2022 8:45:00 PM 26.12 79.016 0.371 8.14 22.8 9
8/14/2022 9:00:00 PM 26.1 78.98 0.371 8.14 75.72 8.95
8/14/2022 9:15:00 PM 26.05 78.89 0.371 8.15 51.59 9.02
8/14/2022 9:30:00 PM 26.03 78.854 0.37 8.15 38.93 9.01
8/14/2022 9:45:00 PM 25.99 78.782 0.362 8.16 4.17 9.03
8/14/2022 10:00:00 PM 25.96 78.728 0.349 8.15 0.79 9.03
8/14/2022 10:15:00 PM 25.93 78.674 0.327 8.15 1.08 9.01
8/14/2022 10:30:00 PM 25.9 78.62 0.303 8.16 1.93 9.01
8/14/2022 10:45:00 PM 25.86 78.548 0.277 8.16 2.1 9
8/14/2022 11:00:00 PM 25.83 78.494 0.269 8.16 2.62 8.97
8/14/2022 11:15:00 PM 25.8 78.44 0.233 8.16 14.83 8.96
8/14/2022 11:30:00 PM 25.77 78.386 0.19 8.15 10.05 8.92
8/14/2022 11:45:00 PM 25.73 78.314 0.152 8.15 3.02 8.89
8/15/2022 12:00:00 AM 25.72 78.296 0.134 8.14 1.84 8.87
8/15/2022 12:15:00 AM 25.7 78.26 0.144 8.14 1.99 8.85
8/15/2022 12:30:00 AM 25.68 78.224 0.174 8.14 1.65 8.81
8/15/2022 12:45:00 AM 25.65 78.17 0.224 8.13 1.54 8.78
8/15/2022 1:00:00 AM 25.61 78.098 0.306 8.12 1.63 8.74
8/15/2022 1:15:00 AM 25.6 78.08 0.348 8.12 2 8.7
8/15/2022 1:30:00 AM 25.57 78.026 0.364 8.1 1.55 8.67
8/15/2022 1:45:00 AM 25.56 78.008 0.37 8.08 1.85 8.59
8/15/2022 2:00:00 AM 25.55 77.99 0.373 8.05 1.29 8.52
8/15/2022 2:15:00 AM 25.53 77.954 0.374 7.99 1.29 8.49
8/15/2022 2:30:00 AM 25.52 77.936 0.374 7.96 1.34 8.45
8/15/2022 2:45:00 AM 25.5 77.9 0.374 7.93 1.34 8.42
8/15/2022 3:00:00 AM 25.49 77.882 0.375 7.97 1.31 8.38
8/15/2022 3:15:00 AM 25.46 77.828 0.375 8.03 1.56 8.39
8/15/2022 3:30:00 AM 25.44 77.792 0.375 8.03 1.44 8.3
8/15/2022 3:45:00 AM 25.43 77.774 0.375 8.04 1.49 8.32
8/15/2022 4:00:00 AM 25.4 77.72 0.375 8.04 1.38 8.27
8/15/2022 4:15:00 AM 25.38 77.684 0.375 8.03 1.39 8.21
8/15/2022 4:30:00 AM 25.36 77.648 0.375 8.02 1.4 8.2
8/15/2022 4:45:00 AM 25.33 77.594 0.375 8.01 1.22 8.16
8/15/2022 5:00:00 AM 25.3 77.54 0.375 8 1.41 8.09
8/15/2022 5:15:00 AM 25.27 77.486 0.375 7.99 1.4 8.04
8/15/2022 5:30:00 AM 25.24 77.432 0.375 7.97 1.31 8
8/15/2022 5:45:00 AM 25.2 77.36 0.375 7.96 1.28 8
8/15/2022 6:00:00 AM 25.16 77.288 0.375 7.96 1.46 8.02
8/15/2022 6:15:00 AM 25.11 77.198 0.375 7.95 1.76 8.03
8/15/2022 6:30:00 AM 25.08 77.144 0.375 7.94 2.02 8.04
8/15/2022 6:45:00 AM 25.07 77.126 0.375 7.94 2.2 8.01
8/15/2022 7:00:00 AM 25.04 77.07201 0.375 7.94 1.69 8.01
8/15/2022 7:15:00 AM 25.03 77.054 0.375 7.93 1.85 8.04
8/15/2022 7:30:00 AM 25.02 77.036 0.375 7.93 1.93 8.05
8/15/2022 7:45:00 AM 25 77 0.375 7.93 1.69 8.06
8/15/2022 8:00:00 AM 25.02 77.036 0.375 7.94 1.74 8.08
8/15/2022 8:15:00 AM 25.02 77.036 0.375 7.94 1.64 8.11
8/15/2022 8:30:00 AM 25.05 77.09 0.375 7.95 1.69 8.16
8/15/2022 8:45:00 AM 25.08 77.144 0.375 7.95 1.63 8.19
8/15/2022 9:00:00 AM 25.12 77.216 0.375 7.96 1.6 8.24
8/15/2022 9:15:00 AM 25.14 77.252 0.375 7.97 2.14 8.27
8/15/2022 9:30:00 AM 25.18 77.324 0.375 7.98 1.6 8.3
8/15/2022 9:45:00 AM 25.22 77.396 0.375 7.99 1.57 8.37
8/15/2022 10:00:00 AM 25.23 77.414 0.375 7.99 1.64 8.42
8/15/2022 10:15:00 AM 25.23 77.414 0.375 7.99 1.66 8.38
8/15/2022 10:30:00 AM 25.22 77.396 0.375 8 2.5 8.43
8/15/2022 10:45:00 AM 25.22 77.396 0.374 8 1.59 8.43
8/15/2022 11:00:00 AM 25.22 77.396 0.374 8.01 1.67 8.46
8/15/2022 11:15:00 AM 25.19 77.342 0.375 8.01 1.65 8.45
8/15/2022 11:30:00 AM 25.19 77.342 0.374 8.02 2.22 8.48
8/15/2022 11:45:00 AM 25.19 77.342 0.374 8.02 1.64 8.47
8/15/2022 12:00:00 PM 25.19 77.342 0.374 8.03 1.53 8.53
8/15/2022 12:15:00 PM 25.2 77.36 0.374 8.04 2.02 8.5
8/15/2022 12:30:00 PM 25.2 77.36 0.374 8.05 5.75 8.63
8/15/2022 12:45:00 PM 25.43 77.774 0.382 7.96 21.89 8.81
8/15/2022 1:00:00 PM 25.32 77.576 0.379 7.93 15.38 8.87
8/15/2022 1:15:00 PM 25.24 77.432 0.374 8.06 14.29 8.92
8/15/2022 1:30:00 PM 25.26 77.468 0.374 8.07 41 8.98
8/15/2022 1:45:00 PM 25.26 77.468 0.374 8.09 56.76 9.01
8/15/2022 2:00:00 PM 25.28 77.504 0.374 8.1 32.36 9.07
8/15/2022 2:15:00 PM 25.28 77.504 0.372 8.12 18.09 9.12
8/15/2022 2:30:00 PM 25.27 77.486 0.361 8.13 1.15 9.15
8/15/2022 2:45:00 PM 25.27 77.486 0.348 8.14 0.43 9.21
8/15/2022 3:00:00 PM 25.27 77.486 0.324 8.15 5.38 9.25
8/15/2022 3:15:00 PM 25.27 77.486 0.299 8.17 4.52 9.29
8/15/2022 3:30:00 PM 25.26 77.468 0.268 8.17 7.81 9.34
8/15/2022 3:45:00 PM 25.25 77.45 0.229 8.18 19.72 9.38
8/15/2022 4:00:00 PM 25.24 77.432 0.187 8.19 5.74 9.41
8/15/2022 4:15:00 PM 25.24 77.432 0.153 8.2 3.08 9.44
8/15/2022 4:30:00 PM 25.24 77.432 0.136 8.22 2.4 9.47
8/15/2022 4:45:00 PM 25.23 77.414 0.15 8.23 1.98 9.48
8/15/2022 5:00:00 PM 25.22 77.396 0.2 8.23 2.19 9.5
8/15/2022 5:15:00 PM 25.2 77.36 0.279 8.24 1.56 9.48
8/15/2022 5:30:00 PM 25.16 77.288 0.345 8.24 1.56 9.51
8/15/2022 5:45:00 PM 25.12 77.216 0.363 8.23 2.23 9.51
8/15/2022 6:00:00 PM 25.09 77.162 0.37 8.23 3.53 9.49
8/15/2022 6:15:00 PM 25.05 77.09 0.374 8.22 3.07 9.48
8/15/2022 6:30:00 PM 25.01 77.018 0.375 8.2 2.3 9.45
8/15/2022 6:45:00 PM 24.98 76.964 0.375 8.19 2.72 9.49
8/15/2022 7:00:00 PM 24.94 76.892 0.375 8.21 8.72 9.48
8/15/2022 7:15:00 PM 24.91 76.838 0.375 8.21 2.45 9.5
8/15/2022 7:30:00 PM 24.88 76.784 0.375 8.21 1.94 9.47
8/15/2022 7:45:00 PM 24.98 76.964 0.38 8.19 7.28 9.33
8/15/2022 8:00:00 PM 25.07 77.126 0.381 8.01 2.34 9.17
8/15/2022 8:15:00 PM 24.81 76.658 0.375 8.13 2.13 9.41
8/15/2022 8:30:00 PM 24.76 76.568 0.375 8.18 1.87 9.46
8/15/2022 8:45:00 PM 24.73 76.514 0.375 8.18 1.95 9.47
8/15/2022 9:00:00 PM 24.7 76.46 0.375 8.19 2.08 9.45
8/15/2022 9:15:00 PM 24.67 76.406 0.375 8.19 2.55 9.44
8/15/2022 9:30:00 PM 24.64 76.352 0.375 8.19 2.18 9.43
8/15/2022 9:45:00 PM 24.62 76.316 0.375 8.2 1.74 9.39
8/15/2022 10:00:00 PM 24.59 76.262 0.375 8.2 1.9 9.38
8/15/2022 10:15:00 PM 24.55 76.19 0.375 8.2 4.69 9.4
8/15/2022 10:30:00 PM 24.53 76.154 0.375 8.21 9.42 9.36
8/15/2022 10:45:00 PM 24.51 76.118 0.375 8.21 20.46 9.38
8/15/2022 11:00:00 PM 24.49 76.082 0.376 8.21 16.44 9.39
8/15/2022 11:15:00 PM 24.48 76.064 0.376 8.21 19.34 9.36
8/15/2022 11:30:00 PM 24.46 76.028 0.376 8.21 31.29 9.34
8/15/2022 11:45:00 PM 24.44 75.992 0.376 8.21 125.89 9.31
8/16/2022 12:00:00 AM 24.42 75.956 0.375 8.21 33.75 9.29
8/16/2022 12:15:00 AM 24.41 75.938 0.372 8.21 30.35 9.26
8/16/2022 12:30:00 AM 24.38 75.884 0.359 8.2 1.79 9.24
8/16/2022 12:45:00 AM 24.36 75.848 0.345 8.2 0.41 9.21
8/16/2022 1:00:00 AM 24.32 75.776 0.319 8.19 2.15 9.18
8/16/2022 1:15:00 AM 24.32 75.776 0.297 8.18 2.28 9.16
8/16/2022 1:30:00 AM 24.7 76.46 0.263 8.02 10.85 9.04
8/16/2022 1:45:00 AM 24.53 76.154 0.219 7.98 18.82 9.08
8/16/2022 2:00:00 AM 24.25 75.65 0.186 8.14 6.18 9.19
8/16/2022 2:15:00 AM 24.23 75.614 0.152 8.15 3.21 9.16
8/16/2022 2:30:00 AM 24.21 75.578 0.14 8.15 2.41 9.11
8/16/2022 2:45:00 AM 24.17 75.506 0.144 8.14 2.29 9.08
8/16/2022 3:00:00 AM 24.16 75.488 0.172 8.14 1.76 9.05
8/16/2022 3:15:00 AM 24.13 75.434 0.242 8.13 1.62 9.01
8/16/2022 3:30:00 AM 24.11 75.398 0.317 8.12 1.88 8.98
8/16/2022 3:45:00 AM 24.08 75.344 0.357 8.12 1.71 8.95
8/16/2022 4:00:00 AM 24.05 75.29 0.37 8.11 2.85 8.92
8/16/2022 4:15:00 AM 24.02 75.236 0.375 8.1 1.7 8.87
8/16/2022 4:30:00 AM 23.99 75.182 0.378 8.08 2.01 8.83
8/16/2022 4:45:00 AM 23.96 75.128 0.378 8.05 1.9 8.82
8/16/2022 5:00:00 AM 23.94 75.092 0.378 8.02 1.92 8.79
8/16/2022 5:15:00 AM 23.91 75.038 0.378 8.01 2.03 8.72
8/16/2022 5:30:00 AM 23.88 74.984 0.378 8.01 1.58 8.67
8/16/2022 5:45:00 AM 23.85 74.93 0.378 8.03 1.58 8.65
8/16/2022 6:00:00 AM 23.82 74.876 0.379 8.03 1.72 8.62
8/16/2022 6:15:00 AM 23.8 74.84 0.378 8.03 1.77 8.59
8/16/2022 6:30:00 AM 23.78 74.804 0.379 8.02 1.65 8.57
8/16/2022 6:45:00 AM 23.76 74.768 0.379 8.02 1.62 8.56
8/16/2022 7:00:00 AM 23.74 74.732 0.379 8.01 1.96 8.54
8/16/2022 7:15:00 AM 23.74 74.732 0.378 8.01 3.26 8.54
8/16/2022 7:30:00 AM 23.74 74.732 0.378 8.01 2.74 8.55
8/16/2022 7:45:00 AM 23.75 74.75 0.378 8.01 2.15 8.59
8/16/2022 8:00:00 AM 23.77 74.786 0.378 8.02 2.12 8.65
8/16/2022 8:15:00 AM 23.82 74.876 0.378 8.02 2.22 8.71
8/16/2022 8:30:00 AM 23.88 74.984 0.378 8.03 1.68 8.74
8/16/2022 8:45:00 AM 24.43 75.974 0.388 7.96 1.88 8.92
8/16/2022 9:00:00 AM 24.26 75.668 0.383 7.93 2.48 8.93
8/16/2022 9:15:00 AM 24.08 75.344 0.378 8.04 1.94 8.94
8/16/2022 9:30:00 AM 24.13 75.434 0.378 8.05 2.54 8.91
8/16/2022 9:45:00 AM 24.18 75.524 0.378 8.06 2.45 8.88
8/16/2022 10:00:00 AM 24.23 75.614 0.378 8.07 3.23 9
8/16/2022 10:15:00 AM 24.31 75.758 0.379 8.08 1.81 9.02
8/16/2022 10:30:00 AM 24.37 75.866 0.379 8.09 1.73 9.03
8/16/2022 10:45:00 AM 24.49 76.082 0.379 8.1 1.71 9.08
8/16/2022 11:00:00 AM 24.62 76.316 0.379 8.11 1.92 9.07
8/16/2022 11:15:00 AM 24.72 76.496 0.379 8.11 2.17 9.12
8/16/2022 11:30:00 AM 24.8 76.64 0.379 8.13 1.59 9.12
8/16/2022 11:45:00 AM 24.89 76.802 0.379 8.13 1.96 9.18
8/16/2022 12:00:00 PM 25.04 77.07201 0.379 8.14 1.72 9.23
8/16/2022 12:15:00 PM 25.17 77.306 0.379 8.15 1.5 9.29
8/16/2022 12:30:00 PM 25.26 77.468 0.379 8.17 1.63 9.33
8/16/2022 12:45:00 PM 25.36 77.648 0.379 8.18 1.59 9.38
8/16/2022 1:00:00 PM 25.46 77.828 0.379 8.19 1.67 9.39
8/16/2022 1:15:00 PM 25.57 78.026 0.38 8.21 1.7 9.42
8/16/2022 1:30:00 PM 25.69 78.242 0.38 8.22 1.68 9.42
8/16/2022 1:45:00 PM 25.8 78.44 0.38 8.24 2.09 9.48
8/16/2022 2:00:00 PM 25.95 78.71 0.38 8.25 2.13 9.53
8/16/2022 2:15:00 PM 26 78.8 0.38 8.26 1.79 9.59
8/16/2022 2:30:00 PM 26.08 78.944 0.38 8.28 1.57 9.63
8/16/2022 2:45:00 PM 26.19 79.142 0.38 8.29 3.12 9.69
8/16/2022 3:00:00 PM 26.36 79.448 0.38 8.3 9.65 9.76
8/16/2022 3:15:00 PM 26.42 79.556 0.38 8.32 24.75 9.79
8/16/2022 3:30:00 PM 26.47 79.646 0.381 8.32 19.05 9.77
8/16/2022 3:45:00 PM 26.53 79.754 0.381 8.33 12.96 9.8
8/16/2022 4:00:00 PM 26.55 79.79 0.381 8.34 38.64 9.85
8/16/2022 4:15:00 PM 26.58 79.844 0.381 8.35 73.71 9.87
8/16/2022 4:30:00 PM 26.61 79.898 0.38 8.36 125.85 9.88
8/16/2022 4:45:00 PM 26.66 79.988 0.378 8.37 27.01 9.9
8/16/2022 5:00:00 PM 26.65 79.97 0.365 8.38 7.99 9.9
8/16/2022 5:15:00 PM 26.61 79.898 0.351 8.37 5.35 9.89
8/16/2022 5:30:00 PM 26.58 79.844 0.325 8.37 2.6 9.9
8/16/2022 5:45:00 PM 26.58 79.844 0.3 8.38 7.15 9.9
8/16/2022 6:00:00 PM 26.55 79.79 0.264 8.38 8.77 9.9
8/16/2022 6:15:00 PM 26.52 79.736 0.227 8.38 22.71 9.89
8/16/2022 6:30:00 PM 26.5 79.7 0.187 8.38 7.66 9.88
8/16/2022 6:45:00 PM 26.47 79.646 0.155 8.37 3.19 9.87
8/16/2022 7:00:00 PM 26.45 79.61 0.138 8.37 3.38 9.84
8/16/2022 7:15:00 PM 26.42 79.556 0.149 8.36 2.84 9.8
8/16/2022 7:30:00 PM 26.38 79.484 0.184 8.35 3.29 9.76
8/16/2022 7:45:00 PM 26.33 79.394 0.264 8.35 5.02 9.81
8/16/2022 8:00:00 PM 26.26 79.268 0.338 8.34 4.75 9.79
8/16/2022 8:15:00 PM 26.19 79.142 0.365 8.33 2.76 9.77
8/16/2022 8:30:00 PM 26.12 79.016 0.375 8.33 3.11 9.77
8/16/2022 8:45:00 PM 26.05 78.89 0.379 8.28 4.36 9.73
8/16/2022 9:00:00 PM 25.99 78.782 0.38 8.22 6.34 9.74
8/16/2022 9:15:00 PM 25.93 78.674 0.381 8.12 4.72 9.72
8/16/2022 9:30:00 PM 25.88 78.584 0.381 8.07 4.49 9.76
8/16/2022 9:45:00 PM 25.82 78.476 0.381 8.2 6.57 9.76
8/16/2022 10:00:00 PM 25.77 78.386 0.381 8.28 4.84 9.76
8/16/2022 10:15:00 PM 25.71 78.278 0.381 8.32 3.54 9.71
8/16/2022 10:30:00 PM 25.68 78.224 0.381 8.34 2.55 9.71
8/16/2022 10:45:00 PM 25.62 78.116 0.381 8.35 3 9.72
8/16/2022 11:00:00 PM 25.57 78.026 0.381 8.36 2.34 9.72
8/16/2022 11:15:00 PM 25.52 77.936 0.381 8.36 2.2 9.73
8/16/2022 11:30:00 PM 25.48 77.864 0.381 8.36 3.23 9.72
8/16/2022 11:45:00 PM 25.43 77.774 0.381 8.36 4.76 9.69
8/17/2022 12:00:00 AM 25.39 77.702 0.381 8.36 3.1 9.62
8/17/2022 12:15:00 AM 25.35 77.63 0.381 8.36 2.74 9.59
8/17/2022 12:30:00 AM 25.32 77.576 0.381 8.36 2.7 9.59
8/17/2022 12:45:00 AM 25.21 77.378 0.388 8.14 2.6 9.16
8/17/2022 1:00:00 AM 25.35 77.63 0.385 8.1 5.97 9.19
8/17/2022 1:15:00 AM 25.19 77.342 0.381 8.32 2.46 9.45
8/17/2022 1:30:00 AM 25.15 77.27 0.381 8.33 3.24 9.44
8/17/2022 1:45:00 AM 25.1 77.18 0.381 8.32 3.91 9.42
8/17/2022 2:00:00 AM 25.07 77.126 0.381 8.31 1.99 9.36
8/17/2022 2:15:00 AM 25.03 77.054 0.382 8.3 1.8 9.32
8/17/2022 2:30:00 AM 24.99 76.982 0.381 8.3 1.91 9.26
8/17/2022 2:45:00 AM 24.95 76.91 0.381 8.29 2.09 9.23
8/17/2022 3:00:00 AM 24.9 76.82 0.382 8.28 2.17 9.21
8/17/2022 3:15:00 AM 24.86 76.748 0.382 8.27 3.31 9.18
8/17/2022 3:30:00 AM 24.84 76.712 0.382 8.26 2.3 9.14
8/17/2022 3:45:00 AM 24.81 76.658 0.382 8.26 2.44 9.08
8/17/2022 4:00:00 AM 24.78 76.604 0.382 8.25 2.22 9.07
8/17/2022 4:15:00 AM 24.75 76.55 0.383 8.24 1.88 9
8/17/2022 4:30:00 AM 24.72 76.496 0.383 8.23 1.73 8.93
8/17/2022 4:45:00 AM 24.67 76.406 0.383 8.22 1.67 8.9
8/17/2022 5:00:00 AM 24.61 76.298 0.383 8.21 1.74 8.86
8/17/2022 5:15:00 AM 24.57 76.226 0.384 8.19 1.78 8.82
8/17/2022 5:30:00 AM 24.53 76.154 0.384 8.18 1.79 8.82
8/17/2022 5:45:00 AM 24.48 76.064 0.384 8.17 1.82 8.64
8/17/2022 6:00:00 AM 24.44 75.992 0.384 8.15 2.16 8.8
8/17/2022 6:15:00 AM 24.39 75.902 0.384 8.14 1.66 8.73
8/17/2022 6:30:00 AM 24.35 75.83 0.384 8.13 2.39 8.65
8/17/2022 6:45:00 AM 24.31 75.758 0.384 8.12 2.38 8.64
8/17/2022 7:00:00 AM 24.26 75.668 0.384 8.12 3.32 8.57
8/17/2022 7:15:00 AM 24.24 75.632 0.384 8.11 8.51 8.66
8/17/2022 7:30:00 AM 24.22 75.596 0.384 8.11 44.42 8.72
8/17/2022 7:45:00 AM 24.21 75.578 0.384 8.11 39.84 8.82
8/17/2022 8:00:00 AM 24.23 75.614 0.384 8.11 29.14 8.78
8/17/2022 8:15:00 AM 24.24 75.632 0.384 8.11 30.44 8.82
8/17/2022 8:30:00 AM 24.28 75.704 0.384 8.12 88.97 8.87
8/17/2022 8:45:00 AM 24.8 76.64 0.391 7.99 42.74 8.93
8/17/2022 9:00:00 AM 24.8 76.64 0.385 7.91 14.8 8.94
8/17/2022 9:15:00 AM 24.38 75.884 0.366 8.09 2.04 9.05
8/17/2022 9:30:00 AM 24.37 75.866 0.352 8.11 4.74 9.07
8/17/2022 9:45:00 AM 24.35 75.83 0.333 8.11 2.86 9.05
8/17/2022 10:00:00 AM 24.33 75.794 0.308 8.12 8.79 9.06
8/17/2022 10:15:00 AM 24.33 75.794 0.281 8.12 4.23 9.1
8/17/2022 10:30:00 AM 24.33 75.794 0.249 8.12 17.81 9.02
8/17/2022 10:45:00 AM 24.34 75.812 0.211 8.13 14.36 9.03
8/17/2022 11:00:00 AM 24.35 75.83 0.171 8.13 3.65 9.06
8/17/2022 11:15:00 AM 24.37 75.866 0.149 8.14 1.7 9.05
8/17/2022 11:30:00 AM 24.39 75.902 0.144 8.15 1.51 9.11
8/17/2022 11:45:00 AM 24.4 75.92 0.158 8.15 1.89 9.15
8/17/2022 12:00:00 PM 24.41 75.938 0.209 8.16 4.33 9.17
8/17/2022 12:15:00 PM 24.39 75.902 0.29 8.16 2.88 9.18
8/17/2022 12:30:00 PM 24.39 75.902 0.35 8.17 1.53 9.21
8/17/2022 12:45:00 PM 24.42 75.956 0.372 8.17 1.95 9.26
8/17/2022 1:00:00 PM 24.46 76.028 0.379 8.18 1.63 9.31
8/17/2022 1:15:00 PM 24.52 76.136 0.383 8.19 1.73 9.47
8/17/2022 1:30:00 PM 24.59 76.262 0.384 8.17 1.55 9.52
8/17/2022 1:45:00 PM 24.63 76.334 0.385 8.14 1.45 9.6
8/17/2022 2:00:00 PM 24.68 76.424 0.385 8.08 1.55 9.67
8/17/2022 2:15:00 PM 24.72 76.496 0.385 8.15 1.42 9.72
8/17/2022 2:30:00 PM 24.8 76.64 0.384 8.24 1.49 9.8
8/17/2022 2:45:00 PM 24.9 76.82 0.385 8.29 1.67 9.84
8/17/2022 3:00:00 PM 24.98 76.964 0.385 8.33 1.51 9.87
8/17/2022 3:15:00 PM 25.07 77.126 0.385 8.35 1.5 9.91
8/17/2022 3:30:00 PM 25.17 77.306 0.385 8.37 1.63 9.96
8/17/2022 3:45:00 PM 25.24 77.432 0.385 8.38 2.62 9.98
8/17/2022 4:00:00 PM 25.28 77.504 0.385 8.39 1.91 10.03
8/17/2022 4:15:00 PM 25.36 77.648 0.385 8.4 1.7 10.05
8/17/2022 4:30:00 PM 25.36 77.648 0.385 8.41 1.51 10.08
8/17/2022 4:45:00 PM 25.32 77.576 0.385 8.41 1.6 10.09
8/17/2022 5:00:00 PM 25.25 77.45 0.392 8.1 2.09 9.4
8/17/2022 5:15:00 PM 25.13 77.234 0.388 8.14 4.98 9.62
8/17/2022 5:30:00 PM 25.13 77.234 0.385 8.41 1.85 10.08
8/17/2022 5:45:00 PM 25.08 77.144 0.385 8.41 1.53 10.05
8/17/2022 6:00:00 PM 25.01 77.018 0.385 8.4 1.83 10.01
8/17/2022 6:15:00 PM 24.94 76.892 0.384 8.39 1.61 9.96
8/17/2022 6:30:00 PM 24.9 76.82 0.385 8.38 1.69 9.87
8/17/2022 6:45:00 PM 24.87 76.766 0.385 8.37 2.46 9.82
8/17/2022 7:00:00 PM 24.84 76.712 0.385 8.37 2.52 9.8
8/17/2022 7:15:00 PM 24.82 76.676 0.384 8.36 1.48 9.77
8/17/2022 7:30:00 PM 24.78 76.604 0.385 8.36 1.38 9.75
8/17/2022 7:45:00 PM 24.73 76.514 0.385 8.35 1.8 9.73
8/17/2022 8:00:00 PM 24.68 76.424 0.384 8.35 1.7 9.71
8/17/2022 8:15:00 PM 24.63 76.334 0.384 8.34 2.35 9.7
8/17/2022 8:30:00 PM 24.58 76.244 0.384 8.34 1.72 9.68
8/17/2022 8:45:00 PM 24.55 76.19 0.385 8.34 1.67 9.65
8/17/2022 9:00:00 PM 24.53 76.154 0.385 8.34 1.51 9.66
8/17/2022 9:15:00 PM 24.5 76.1 0.384 8.35 1.56 9.67
8/17/2022 9:30:00 PM 24.47 76.046 0.384 8.35 1.44 9.64
8/17/2022 9:45:00 PM 24.44 75.992 0.384 8.35 1.67 9.64
8/17/2022 10:00:00 PM 24.42 75.956 0.384 8.35 1.45 9.61
8/17/2022 10:15:00 PM 24.4 75.92 0.384 8.35 1.82 9.54
8/17/2022 10:30:00 PM 24.36 75.848 0.384 8.35 1.8 9.51
8/17/2022 10:45:00 PM 24.32 75.776 0.384 8.35 1.55 9.44
8/17/2022 11:00:00 PM 24.28 75.704 0.384 8.35 1.56 9.53
8/17/2022 11:15:00 PM 24.23 75.614 0.384 8.34 1.67 9.5
8/17/2022 11:30:00 PM 24.16 75.488 0.384 8.34 1.61 9.46
8/17/2022 11:45:00 PM 24.09 75.362 0.384 8.33 1.57 9.47
8/18/2022 12:00:00 AM 24.03 75.254 0.384 8.33 1.66 9.43
8/18/2022 12:15:00 AM 23.96 75.128 0.384 8.32 1.53 9.41
8/18/2022 12:30:00 AM 23.91 75.038 0.384 8.31 1.66 9.36
8/18/2022 12:45:00 AM 23.86 74.948 0.383 8.31 1.72 9.32
8/18/2022 1:00:00 AM 23.81 74.858 0.383 8.3 2.31 9.27
8/18/2022 1:15:00 AM 23.78 74.804 0.383 8.29 7.77 9.25
8/18/2022 1:30:00 AM 23.75 74.75 0.383 8.29 27.89 9.25
8/18/2022 1:45:00 AM 23.71 74.67799 0.383 8.28 22.77 9.22
8/18/2022 2:00:00 AM 23.69 74.642 0.383 8.28 20.48 9.2
8/18/2022 2:15:00 AM 23.66 74.588 0.383 8.27 28.86 9.3
8/18/2022 2:30:00 AM 23.63 74.534 0.383 8.27 78.63 9.26
8/18/2022 2:45:00 AM 23.59 74.462 0.383 8.26 53.96 9.09
8/18/2022 3:00:00 AM 24.34 75.812 0.394 8.01 42.1 8.97
8/18/2022 3:15:00 AM 23.97 75.146 0.375 7.98 5.98 9.01
8/18/2022 3:30:00 AM 23.49 74.282 0.357 8.19 4.24 9.02
8/18/2022 3:45:00 AM 23.47 74.246 0.338 8.2 2.62 8.97
8/18/2022 4:00:00 AM 23.44 74.192 0.314 8.19 1.79 8.93
8/18/2022 4:15:00 AM 23.4 74.12 0.283 8.18 11.82 8.89
8/18/2022 4:30:00 AM 23.35 74.03 0.25 8.17 15.26 8.85
8/18/2022 4:45:00 AM 23.33 73.994 0.211 8.16 16.76 8.81
8/18/2022 5:00:00 AM 23.29 73.922 0.212 8.15 17.37 8.76
8/18/2022 5:15:00 AM 23.23 73.814 0.212 8.13 17.74 8.85
8/18/2022 5:30:00 AM 23.19 73.742 0.174 8.12 4.36 8.82
8/18/2022 5:45:00 AM 23.14 73.652 0.158 8.1 1.83 8.76
8/18/2022 6:00:00 AM 23.1 73.58 0.147 8.07 1.64 8.62
8/18/2022 6:15:00 AM 23.06 73.508 0.153 8.06 1.65 8.65
8/18/2022 6:30:00 AM 23.02 73.436 0.187 8.04 1.58 8.62
8/18/2022 6:45:00 AM 22.98 73.364 0.258 8.04 1.61 8.59
8/18/2022 7:00:00 AM 22.94 73.292 0.332 8.02 1.56 8.61
8/18/2022 7:15:00 AM 22.92 73.256 0.364 8.03 1.58 8.61
8/18/2022 7:30:00 AM 22.92 73.256 0.375 8.03 1.57 8.67
8/18/2022 7:45:00 AM 22.92 73.256 0.38 8.04 1.75 8.68
8/18/2022 8:00:00 AM 22.92 73.256 0.381 8.03 1.78 8.73
8/18/2022 8:15:00 AM 22.91 73.238 0.381 8.01 4.33 8.77
8/18/2022 8:30:00 AM 22.93 73.274 0.381 8.01 1.51 8.79
8/18/2022 8:45:00 AM 22.95 73.31 0.381 8 1.57 8.82
8/18/2022 9:00:00 AM 23.01 73.418 0.381 8.04 1.54 8.87
8/18/2022 9:15:00 AM 23.04 73.472 0.381 8.05 1.53 8.93
8/18/2022 9:30:00 AM 23.14 73.652 0.381 8.07 1.74 8.93
8/18/2022 9:45:00 AM 23.21 73.778 0.382 8.08 1.59 8.97
8/18/2022 10:00:00 AM 23.33 73.994 0.382 8.09 1.62 9.02
8/18/2022 10:15:00 AM 23.81 74.858 0.393 8.06 2.93 9.11
8/18/2022 10:30:00 AM 23.84 74.912 0.39 7.95 2.59 9.07
8/18/2022 10:45:00 AM 23.65 74.57 0.382 8.05 2.78 9.13
8/18/2022 11:00:00 AM 23.78 74.804 0.382 8.09 1.49 9.16
8/18/2022 11:15:00 AM 23.9 75.02 0.382 8.1 1.61 9.16
8/18/2022 11:30:00 AM 24.01 75.218 0.382 8.11 1.52 9.16
8/18/2022 11:45:00 AM 24.15 75.47 0.382 8.12 1.6 9.21
8/18/2022 12:00:00 PM 24.29 75.722 0.382 8.13 1.45 9.26
8/18/2022 12:15:00 PM 24.43 75.974 0.383 8.14 1.58 9.33
8/18/2022 12:30:00 PM 24.56 76.208 0.383 8.16 1.44 9.37
8/18/2022 12:45:00 PM 24.63 76.334 0.383 8.17 1.49 9.41
8/18/2022 1:00:00 PM 24.81 76.658 0.383 8.18 1.56 9.46
8/18/2022 1:15:00 PM 24.94 76.892 0.383 8.2 1.71 9.51
8/18/2022 1:30:00 PM 25.08 77.144 0.383 8.21 1.94 9.59
8/18/2022 1:45:00 PM 25.18 77.324 0.383 8.23 1.94 9.62
8/18/2022 2:00:00 PM 25.2 77.36 0.384 8.25 1.97 9.63
8/18/2022 2:15:00 PM 25.31 77.558 0.384 8.26 1.84 9.72
8/18/2022 2:30:00 PM 25.39 77.702 0.384 8.28 1.69 9.74
8/18/2022 2:45:00 PM 25.4 77.72 0.384 8.3 1.65 9.79
8/18/2022 3:00:00 PM 25.42 77.756 0.384 8.31 1.65 9.82
8/18/2022 3:15:00 PM 25.5 77.9 0.384 8.32 1.55 9.81
8/18/2022 3:30:00 PM 25.6 78.08 0.384 8.34 1.64 9.85
8/18/2022 3:45:00 PM 25.63 78.134 0.384 8.35 1.87 9.87
8/18/2022 4:00:00 PM 25.64 78.152 0.384 8.36 1.82 9.94
8/18/2022 4:15:00 PM 25.66 78.188 0.384 8.36 2.03 9.9
8/18/2022 4:30:00 PM 25.73 78.314 0.384 8.37 1.85 9.97
8/18/2022 4:45:00 PM 25.74 78.332 0.386 8.38 2.23 9.95
8/18/2022 5:00:00 PM 25.41 77.738 0.389 8.18 2.07 9.53
8/18/2022 5:15:00 PM 25.79 78.422 0.385 8.35 1.69 9.81
8/18/2022 5:30:00 PM 25.86 78.548 0.384 8.4 2.9 9.92
8/18/2022 5:45:00 PM 25.87 78.566 0.384 8.42 1.8 10.01
8/18/2022 6:00:00 PM 25.84 78.512 0.384 8.42 1.98 10.03
8/18/2022 6:15:00 PM 25.75 78.35 0.384 8.42 5.74 9.98
8/18/2022 6:30:00 PM 25.67 78.206 0.384 8.41 14 9.95
8/18/2022 6:45:00 PM 25.61 78.098 0.384 8.4 46.01 9.93
8/18/2022 7:00:00 PM 25.56 78.008 0.384 8.4 74.33 9.75
8/18/2022 7:15:00 PM 25.52 77.936 0.384 8.39 59.94 9.89
8/18/2022 7:30:00 PM 25.49 77.882 0.384 8.37 112.38 9.81
8/18/2022 7:45:00 PM 25.46 77.828 0.384 8.37 227.56 9.86
8/18/2022 8:00:00 PM 25.42 77.756 0.383 8.37 165.21 9.85
8/18/2022 8:15:00 PM 25.4 77.72 0.378 8.37 133.11 9.84
8/18/2022 8:30:00 PM 25.36 77.648 0.364 8.37 37 9.82
8/18/2022 8:45:00 PM 25.31 77.558 0.347 8.38 2.82 9.84
8/18/2022 9:00:00 PM 25.28 77.504 0.324 8.38 7.34 9.86
8/18/2022 9:15:00 PM 25.23 77.414 0.295 8.39 7.06 9.86
8/18/2022 9:30:00 PM 25.19 77.342 0.279 8.4 8.43 9.79
8/18/2022 9:45:00 PM 25.16 77.288 0.259 8.39 22.59 9.83
8/18/2022 10:00:00 PM 25.13 77.234 0.23 8.4 30.51 9.87
8/18/2022 10:15:00 PM 25.09 77.162 0.205 8.4 17.95 9.78
8/18/2022 10:30:00 PM 25.07 77.126 0.185 8.41 5.85 9.85
8/18/2022 10:45:00 PM 25.06 77.108 0.166 8.41 2.18 9.83
8/18/2022 11:00:00 PM 25.04 77.07201 0.155 8.41 1.7 9.81
8/18/2022 11:15:00 PM 25.03 77.054 0.153 8.42 1.5 9.79
8/18/2022 11:30:00 PM 25.02 77.036 0.158 8.42 1.7 9.78
8/18/2022 11:45:00 PM 25 77 0.186 8.42 1.48 9.74
8/19/2022 12:00:00 AM 24.99 76.982 0.227 8.42 1.53 9.75
8/19/2022 12:15:00 AM 24.96 76.92799 0.284 8.42 1.78 9.7
8/19/2022 12:30:00 AM 24.95 76.91 0.363 8.42 1.95 9.65
8/19/2022 12:45:00 AM 24.88 76.784 0.391 8.19 1.86 9.26
8/19/2022 1:00:00 AM 24.94 76.892 0.388 8.14 1.83 9.25
8/19/2022 1:15:00 AM 24.89 76.802 0.384 8.35 2.37 9.54
8/19/2022 1:30:00 AM 24.86 76.748 0.384 8.35 1.78 9.5
8/19/2022 1:45:00 AM 24.85 76.73 0.383 8.38 1.61 9.43
8/19/2022 2:00:00 AM 24.83 76.694 0.383 8.39 1.69 9.39
8/19/2022 2:15:00 AM 24.79 76.622 0.384 8.37 1.48 9.32
8/19/2022 2:30:00 AM 24.76 76.568 0.384 8.36 1.65 9.29
8/19/2022 2:45:00 AM 24.74 76.532 0.384 8.36 1.64 9.23
8/19/2022 3:00:00 AM 24.71 76.478 0.384 8.35 1.58 9.2
8/19/2022 3:15:00 AM 24.68 76.424 0.384 8.34 1.53 9.16
8/19/2022 3:30:00 AM 24.64 76.352 0.384 8.33 1.65 9.09
8/19/2022 3:45:00 AM 24.61 76.298 0.384 8.31 1.61 9.07
8/19/2022 4:00:00 AM 24.59 76.262 0.384 8.3 1.49 9.02
8/19/2022 4:15:00 AM 24.56 76.208 0.384 8.29 1.47 8.97
8/19/2022 4:30:00 AM 24.52 76.136 0.385 8.27 1.48 8.92
8/19/2022 4:45:00 AM 24.48 76.064 0.385 8.25 1.47 8.86
8/19/2022 5:00:00 AM 24.46 76.028 0.384 8.24 1.57 8.81
8/19/2022 5:15:00 AM 24.4 75.92 0.385 8.22 1.48 8.77
8/19/2022 5:30:00 AM 24.35 75.83 0.385 8.2 1.47 8.74
8/19/2022 5:45:00 AM 24.31 75.758 0.385 8.18 1.43 8.68
8/19/2022 6:00:00 AM 24.27 75.686 0.385 8.17 1.47 8.64
8/19/2022 6:15:00 AM 24.21 75.578 0.385 8.15 1.51 8.63
8/19/2022 6:30:00 AM 24.16 75.488 0.384 8.14 1.48 8.58
8/19/2022 6:45:00 AM 24.1 75.38 0.385 8.13 1.57 8.59
8/19/2022 7:00:00 AM 24.07 75.326 0.384 8.12 1.53 8.62
8/19/2022 7:15:00 AM 24.03 75.254 0.384 8.12 1.5 8.65
8/19/2022 7:30:00 AM 23.99 75.182 0.384 8.12 1.57 8.67
8/19/2022 7:45:00 AM 23.95 75.11 0.384 8.12 1.42 8.7
8/19/2022 8:00:00 AM 23.93 75.074 0.384 8.12 1.65 8.73
8/19/2022 8:15:00 AM 23.92 75.056 0.384 8.12 1.52 8.75
8/19/2022 8:30:00 AM 23.94 75.092 0.384 8.12 1.6 8.74
8/19/2022 8:45:00 AM 23.97 75.146 0.384 8.12 1.49 8.76
8/19/2022 9:00:00 AM 24.03 75.254 0.384 8.13 1.5 8.79
8/19/2022 9:15:00 AM 24.09 75.362 0.384 8.13 1.55 8.82
8/19/2022 9:30:00 AM 24.16 75.488 0.384 8.13 1.52 8.87
8/19/2022 9:45:00 AM 24.24 75.632 0.384 8.14 1.51 8.9
8/19/2022 10:00:00 AM 24.33 75.794 0.384 8.14 1.43 8.92
8/19/2022 10:15:00 AM 24.42 75.956 0.384 8.15 1.55 8.96
8/19/2022 10:30:00 AM 24.53 76.154 0.384 8.16 1.57 9.01
8/19/2022 10:45:00 AM 24.66 76.388 0.384 8.16 2.55 9.04
8/19/2022 11:00:00 AM 24.78 76.604 0.384 8.17 14.52 9.05
8/19/2022 11:15:00 AM 24.91 76.838 0.384 8.18 54.18 9.1
8/19/2022 11:30:00 AM 25.04 77.07201 0.384 8.19 21.03 9.17
8/19/2022 11:45:00 AM 25.17 77.306 0.385 8.2 20.97 9.23
8/19/2022 12:00:00 PM 25.31 77.558 0.385 8.21 24.13 9.29
8/19/2022 12:15:00 PM 25.45 77.81 0.385 8.22 139.12 9.35
8/19/2022 12:30:00 PM 25.58 78.044 0.385 8.23 1.46 9.39
8/19/2022 12:45:00 PM 25.71 78.278 0.385 8.24 7.4 9.42
8/19/2022 1:00:00 PM 25.84 78.512 0.385 8.26 10.91 9.47
8/19/2022 1:15:00 PM 25.96 78.728 0.385 8.27 4.37 9.52
8/19/2022 1:30:00 PM 26.1 78.98 0.385 8.28 4.63 9.56
8/19/2022 1:45:00 PM 26.18 79.124 0.385 8.31 3.85 9.64
8/19/2022 2:00:00 PM 26.26 79.268 0.147 8.32 2.85 9.72
8/19/2022 2:15:00 PM 26.37 79.466 0.385 8.34 3.51 9.77
8/19/2022 2:30:00 PM 26.47 79.646 0.366 8.36 1.09 9.81
8/19/2022 2:45:00 PM 26.54 79.772 0.367 8.37 1.01 9.86
8/19/2022 3:00:00 PM 26.62 79.916 0.368 8.39 1.11 9.91
8/19/2022 3:15:00 PM 26.67 80.006 0.37 8.4 1.6 9.94
8/19/2022 3:30:00 PM 26.74 80.132 0.37 8.41 1.75 9.97
8/19/2022 3:45:00 PM 26.74 80.132 0.37 8.41 1.96 9.98
8/19/2022 4:00:00 PM 26.79 80.222 0.37 8.42 1.93 9.99
8/19/2022 4:15:00 PM 26.82 80.276 0.37 8.43 2.52 10.01
8/19/2022 4:30:00 PM 26.81 80.258 0.371 8.44 3.52 10.03
8/19/2022 4:45:00 PM 26.18 79.124 0.375 8.27 1.56 9.39
8/19/2022 5:00:00 PM 26.22 79.196 0.368 8.18 0.87 9.45
8/19/2022 5:15:00 PM 26.71 80.078 0.363 8.42 1.26 10.13
8/19/2022 5:30:00 PM 26.65 79.97 0.363 8.44 1.3 10.13
8/19/2022 5:45:00 PM 26.6 79.88 0.363 8.44 1.28 10.16
8/19/2022 6:00:00 PM 26.55 79.79 0.368 8.45 2.76 10.18
8/19/2022 6:15:00 PM 26.47 79.646 0.368 8.44 2.7 10.03
8/19/2022 6:30:00 PM 26.38 79.484 0.368 8.43 3.96 10.09
8/19/2022 6:45:00 PM 26.33 79.394 0.368 8.43 6.33 10.12
8/19/2022 7:00:00 PM 26.28 79.304 0.367 8.43 6.74 9.96
8/19/2022 7:15:00 PM 26.25 79.25 0.367 8.43 6.13 10.07
8/19/2022 7:30:00 PM 26.23 79.214 0.367 8.42 6.29 10.06
8/19/2022 7:45:00 PM 26.2 79.16 0.366 8.42 6.68 10.04
8/19/2022 8:00:00 PM 26.15 79.07 0.366 8.41 6.98 9.99
8/19/2022 8:15:00 PM 26.07 78.926 0.366 8.4 6.94 9.98
8/19/2022 8:30:00 PM 25.98 78.764 0.366 8.39 7.17 9.9
8/19/2022 8:45:00 PM 25.86 78.548 0.373 8.15 3.5 9.41
8/19/2022 9:00:00 PM 25.85 78.53 0.369 8.22 3.35 9.55
8/19/2022 9:15:00 PM 25.77 78.386 0.366 8.37 3.27 9.88
8/19/2022 9:30:00 PM 25.72 78.296 0.366 8.38 3.73 9.9
8/19/2022 9:45:00 PM 25.69 78.242 0.366 8.38 3.86 9.9
8/19/2022 10:00:00 PM 25.67 78.206 0.366 8.38 4.19 9.8
8/19/2022 10:15:00 PM 25.66 78.188 0.366 8.38 5.14 9.92
8/19/2022 10:30:00 PM 25.64 78.152 0.366 8.38 5.44 9.9
8/19/2022 10:45:00 PM 25.64 78.152 0.366 8.4 6.16 9.92
8/19/2022 11:00:00 PM 25.64 78.152 0.366 8.4 6.21 9.92
8/19/2022 11:15:00 PM 25.63 78.134 0.366 8.4 6.15 9.89
8/19/2022 11:30:00 PM 25.63 78.134 0.365 8.41 6.58 9.89
8/19/2022 11:45:00 PM 25.63 78.134 0.366 8.41 7.45 9.84
8/20/2022 12:00:00 AM 25.63 78.134 0.366 8.42 7.9 9.84
8/20/2022 12:15:00 AM 25.62 78.116 0.366 8.42 8.18 9.81
8/20/2022 12:30:00 AM 25.61 78.098 0.366 8.43 8.24 9.78
8/20/2022 12:45:00 AM 25.61 78.098 0.366 8.43 8.62 9.64
8/20/2022 1:00:00 AM 25.6 78.08 0.366 8.44 8.78 9.63
8/20/2022 1:15:00 AM 25.59 78.062 0.366 8.43 8.74 9.58
8/20/2022 1:30:00 AM 25.58 78.044 0.366 8.43 9.07 9.53
8/20/2022 1:45:00 AM 25.57 78.026 0.366 8.42 9.01 9.49
8/20/2022 2:00:00 AM 25.57 78.026 0.366 8.42 8.8 9.45
8/20/2022 2:15:00 AM 25.56 78.008 0.366 8.41 8.69 9.46
8/20/2022 2:30:00 AM 25.56 78.008 0.366 8.41 8.56 9.43
8/20/2022 2:45:00 AM 25.54 77.972 0.366 8.4 8.33 9.39
8/20/2022 3:00:00 AM 25.56 78.008 0.373 8.25 6.37 9.21
8/20/2022 3:15:00 AM 25.58 78.044 0.371 8.15 4.56 9.13
8/20/2022 3:30:00 AM 25.49 77.882 0.366 8.33 4.43 9.22
8/20/2022 3:45:00 AM 25.48 77.864 0.366 8.35 3.97 9.21
8/20/2022 4:00:00 AM 25.46 77.828 0.366 8.34 4.13 9.17
8/20/2022 4:15:00 AM 25.43 77.774 0.366 8.33 4.24 9.12
8/20/2022 4:30:00 AM 25.42 77.756 0.366 8.32 4.26 9.08
8/20/2022 4:45:00 AM 25.39 77.702 0.367 8.31 4.26 9.01
8/20/2022 5:00:00 AM 25.37 77.666 0.367 8.29 4.45 8.96
8/20/2022 5:15:00 AM 25.35 77.63 0.367 8.28 4.65 8.91
8/20/2022 5:30:00 AM 25.33 77.594 0.367 8.26 4.6 8.86
8/20/2022 5:45:00 AM 25.31 77.558 0.367 8.24 4.85 8.82
8/20/2022 6:00:00 AM 25.29 77.522 0.367 8.23 5.02 8.77
8/20/2022 6:15:00 AM 25.26 77.468 0.367 8.21 5.22 8.73
8/20/2022 6:30:00 AM 25.23 77.414 0.367 8.2 5.3 8.73
8/20/2022 6:45:00 AM 25.19 77.342 0.367 8.18 5.29 8.7
8/20/2022 7:00:00 AM 25.16 77.288 0.367 8.17 5.46 8.69
8/20/2022 7:15:00 AM 25.14 77.252 0.367 8.16 5.99 8.64
8/20/2022 7:30:00 AM 25.13 77.234 0.367 8.16 5.94 8.66
8/20/2022 7:45:00 AM 25.11 77.198 0.367 8.15 6.07 8.68
8/20/2022 8:00:00 AM 25.13 77.234 0.367 8.15 6.25 8.71
8/20/2022 8:15:00 AM 25.15 77.27 0.367 8.15 4.73 8.73
8/20/2022 8:30:00 AM 25.18 77.324 0.367 8.16 4.97 8.78
8/20/2022 8:45:00 AM 25.23 77.414 0.367 8.16 5.16 8.79
8/20/2022 9:00:00 AM 25.29 77.522 0.367 8.16 7.38 8.83
8/20/2022 9:15:00 AM 25.37 77.666 0.367 8.17 8.18 8.84
8/20/2022 9:30:00 AM 25.44 77.792 0.367 8.17 8.06 8.88
8/20/2022 9:45:00 AM 25.53 77.954 0.367 8.17 8.25 8.87
8/20/2022 10:00:00 AM 25.63 78.134 0.367 8.17 8.24 8.9
8/20/2022 10:15:00 AM 25.74 78.332 0.367 8.17 8.5 8.92
8/20/2022 10:30:00 AM 25.86 78.548 0.367 8.18 8.57 8.93
8/20/2022 10:45:00 AM 26 78.8 0.366 8.19 8.57 8.98
8/20/2022 11:00:00 AM 26.1 78.98 0.367 8.19 8.84 9.02
8/20/2022 11:15:00 AM 26.22 79.196 0.367 8.2 8.6 9.04
8/20/2022 11:30:00 AM 26.34 79.412 0.367 8.21 8.7 9.08
8/20/2022 11:45:00 AM 26.44 79.592 0.366 8.22 8.67 9.08
8/20/2022 12:00:00 PM 26.53 79.754 0.366 8.22 8.74 9.16
8/20/2022 12:15:00 PM 26.64 79.952 0.366 8.23 8.75 9.15
8/20/2022 12:30:00 PM 26.78 80.204 0.366 8.24 8.74 9.2
8/20/2022 12:45:00 PM 26.21 79.17799 0.381 8.06 4.87 8.97
8/20/2022 1:00:00 PM 26.27 79.286 0.375 7.98 5.86 8.96
8/20/2022 1:15:00 PM 27.03 80.654 0.365 8.2 14.84 9.15
8/20/2022 1:30:00 PM 27.28 81.104 0.363 8.28 14.11 9.31
8/20/2022 1:45:00 PM 27.39 81.302 0.363 8.3 14.01 9.31
8/20/2022 2:00:00 PM 27.44 81.392 0.363 8.31 13.96 9.34
8/20/2022 2:15:00 PM 27.59 81.662 0.363 8.33 13.83 9.44
8/20/2022 2:30:00 PM 27.61 81.698 0.363 8.34 13.69 9.4
8/20/2022 2:45:00 PM 27.67 81.806 0.363 8.35 13.52 9.45
8/20/2022 3:00:00 PM 27.7 81.86 0.363 8.36 13.44 9.47
8/20/2022 3:15:00 PM 27.76 81.968 0.363 8.38 13.39 9.52
8/20/2022 3:30:00 PM 27.78 82.004 0.363 8.39 13.32 9.56
8/20/2022 3:45:00 PM 27.76 81.968 0.363 8.39 13.26 9.56
8/20/2022 4:00:00 PM 27.79 82.022 0.363 8.41 13.67 9.58
8/20/2022 4:15:00 PM 27.79 82.022 0.363 8.42 13.34 9.58
8/20/2022 4:30:00 PM 27.79 82.022 0.362 8.43 13.32 9.63
8/20/2022 4:45:00 PM 27.77 81.986 0.362 8.44 13.36 9.61
8/20/2022 5:00:00 PM 27.75 81.95 0.362 8.45 13.25 9.64
8/20/2022 5:15:00 PM 27.74 81.932 0.362 8.46 13.16 9.63
8/20/2022 5:30:00 PM 27.71 81.878 0.362 8.47 13.21 9.64
8/20/2022 5:45:00 PM 27.67 81.806 0.363 8.47 13.17 9.65
8/20/2022 6:00:00 PM 27.61 81.698 0.362 8.48 13.11 9.64
8/20/2022 6:15:00 PM 27.55 81.59 0.362 8.48 13.07 9.65
8/20/2022 6:30:00 PM 27.48 81.464 0.362 8.46 13 9.61
8/20/2022 6:45:00 PM 27.43 81.374 0.362 8.46 12.98 9.58
8/20/2022 7:00:00 PM 26.81 80.258 0.376 8.05 15.51 8.88
8/20/2022 7:15:00 PM 27.08 80.744 0.367 8.11 19.06 8.99
8/20/2022 7:30:00 PM 27.26 81.068 0.362 8.4 22.44 9.44
8/20/2022 7:45:00 PM 27.23 81.014 0.362 8.42 21.82 9.46
8/20/2022 8:00:00 PM 27.17 80.906 0.362 8.41 21.42 9.44
8/20/2022 8:15:00 PM 27.13 80.834 0.362 8.41 21.32 9.44
8/20/2022 8:30:00 PM 27.15 80.87 0.362 8.4 21.14 9.38
8/20/2022 8:45:00 PM 27.1 80.78 0.362 8.39 21.07 9.38
8/20/2022 9:00:00 PM 27.03 80.654 0.362 8.4 20.91 9.37
8/20/2022 9:15:00 PM 27.01 80.618 0.362 8.39 20.72 9.36
8/20/2022 9:30:00 PM 26.96 80.528 0.362 8.4 20.59 9.33
8/20/2022 9:45:00 PM 26.93 80.474 0.362 8.4 20.53 9.33
8/20/2022 10:00:00 PM 26.9 80.42 0.362 8.4 20.44 9.35
8/20/2022 10:15:00 PM 26.85 80.33 0.363 8.41 20.47 9.33
8/20/2022 10:30:00 PM 26.82 80.276 0.363 8.41 20.39 9.29
8/20/2022 10:45:00 PM 26.77 80.186 0.363 8.41 20.34 9.33
8/20/2022 11:00:00 PM 26.76 80.168 0.363 8.4 20.42 9.31
8/20/2022 11:15:00 PM 26.72 80.096 0.363 8.42 20.39 9.32
8/20/2022 11:30:00 PM 26.68 80.024 0.363 8.42 20.32 9.31
8/20/2022 11:45:00 PM 26.69 80.042 0.363 8.44 20.28 9.29
8/21/2022 12:00:00 AM 26.67 80.006 0.363 8.44 20.28 9.3
8/21/2022 12:15:00 AM 26.66 79.988 0.363 8.45 20.24 9.31
8/21/2022 12:30:00 AM 26.61 79.898 0.363 8.46 20.15 9.29
8/21/2022 12:45:00 AM 26.62 79.916 0.363 8.46 20.17 9.23
8/21/2022 1:00:00 AM 26.61 79.898 0.363 8.47 20.15 9.19
8/21/2022 1:15:00 AM 26.58 79.844 0.363 8.46 20.07 9.13
8/21/2022 1:30:00 AM 26.56 79.808 0.363 8.46 20.03 9.12
8/21/2022 1:45:00 AM 26.59 79.862 0.363 8.47 19.97 9.09
8/21/2022 2:00:00 AM 26.58 79.844 0.363 8.46 19.97 9.07
8/21/2022 2:15:00 AM 26.56 79.808 0.364 8.45 19.98 9.02
8/21/2022 2:30:00 AM 26.54 79.772 0.364 8.45 19.97 9.02
8/21/2022 2:45:00 AM 26.55 79.79 0.364 8.44 19.93 8.98
8/21/2022 3:00:00 AM 26.49 79.682 0.365 8.43 19.94 8.95
8/21/2022 3:15:00 AM 26.52 79.736 0.365 8.42 19.96 8.9
8/21/2022 3:30:00 AM 26.49 79.682 0.365 8.42 19.97 8.88
8/21/2022 3:45:00 AM 26.5 79.7 0.365 8.41 19.94 8.85
8/21/2022 4:00:00 AM 26.47 79.646 0.366 8.39 19.92 8.81
8/21/2022 4:15:00 AM 26.44 79.592 0.366 8.38 19.9 8.74
8/21/2022 4:30:00 AM 26.38 79.484 0.367 8.37 19.84 8.72
8/21/2022 4:45:00 AM 26.34 79.412 0.367 8.35 19.85 8.68
8/21/2022 5:00:00 AM 26.32 79.376 0.367 8.34 19.81 8.61
8/21/2022 5:15:00 AM 26.28 79.304 0.367 8.33 19.7 8.61
8/21/2022 5:30:00 AM 26.21 79.17799 0.368 8.31 19.54 8.56
8/21/2022 5:45:00 AM 26.18 79.124 0.368 8.29 19.48 8.49
8/21/2022 6:00:00 AM 26.15 79.07 0.369 8.27 18.16 8.46
8/21/2022 6:15:00 AM 26.13 79.034 0.369 8.25 4.91 8.44
8/21/2022 6:30:00 AM 26.1 78.98 0.369 8.23 4.8 8.41
8/21/2022 6:45:00 AM 26.03 78.854 0.37 8.22 4.79 8.39
8/21/2022 7:00:00 AM 26.01 78.818 0.37 8.19 4.77 8.33
8/21/2022 7:15:00 AM 25.96 78.728 0.37 8.18 4.71 8.26
8/21/2022 7:30:00 AM 25.93 78.674 0.37 8.16 4.63 8.28
8/21/2022 7:45:00 AM 25.9 78.62 0.37 8.14 4.56 8.21
8/21/2022 8:00:00 AM 25.9 78.62 0.371 8.12 4.53 8.21
8/21/2022 8:15:00 AM 25.88 78.584 0.371 8.11 4.49 8.19
8/21/2022 8:30:00 AM 25.86 78.548 0.371 8.1 4.41 8.15
8/21/2022 8:45:00 AM 25.86 78.548 0.371 8.09 4.4 8.17
8/21/2022 9:00:00 AM 26.27 79.286 0.384 8.01 7.33 8.75
8/21/2022 9:15:00 AM 26.31 79.358 0.377 7.9 22.78 8.77
8/21/2022 9:30:00 AM 25.89 78.602 0.37 8.06 38.64 8.57
8/21/2022 9:45:00 AM 25.92 78.656 0.37 8.08 38.09 8.53
8/21/2022 10:00:00 AM 25.87 78.566 0.37 8.1 37.87 8.51
8/21/2022 10:15:00 AM 25.87 78.566 0.37 8.1 37.36 8.48
8/21/2022 10:30:00 AM 25.84 78.512 0.371 8.1 37.03 8.46
8/21/2022 10:45:00 AM 25.81 78.458 0.371 8.09 36.87 8.45
8/21/2022 11:00:00 AM 25.8 78.44 0.371 8.08 36.68 8.43
8/21/2022 11:15:00 AM 25.7 78.26 0.37 8.07 36.3 8.39
8/21/2022 11:30:00 AM 25.63 78.134 0.37 8.06 36.13 8.39
8/21/2022 11:45:00 AM 25.71 78.278 0.37 8.07 36.25 8.43
8/21/2022 12:00:00 PM 25.78 78.404 0.37 8.07 35.79 8.49
8/21/2022 12:15:00 PM 25.89 78.602 0.37 8.09 35.43 8.55
8/21/2022 12:30:00 PM 26.02 78.836 0.37 8.11 35.01 8.65
8/21/2022 12:45:00 PM 26.14 79.052 0.37 8.14 34.57 8.76
8/21/2022 1:00:00 PM 26.18 79.124 0.37 8.15 33.56 8.76
8/21/2022 1:15:00 PM 26.14 79.052 0.37 8.14 33.35 8.78
8/21/2022 1:30:00 PM 26.1 78.98 0.37 8.16 32.98 8.77
8/21/2022 1:45:00 PM 26.09 78.962 0.37 8.15 32.87 8.76
8/21/2022 2:00:00 PM 25.99 78.782 0.37 8.15 32.53 8.73
8/21/2022 2:15:00 PM 25.85 78.53 0.371 8.14 32.3 8.7
8/21/2022 2:30:00 PM 25.8 78.44 0.371 8.13 31.88 8.7
8/21/2022 2:45:00 PM 25.73 78.314 0.37 8.13 30.75 8.7
8/21/2022 3:00:00 PM 25.73 78.314 0.369 8.12 31.13 8.65
8/21/2022 3:15:00 PM 25.62 78.116 0.369 8.11 30.77 8.65
8/21/2022 3:30:00 PM 25.56 78.008 0.366 8.11 30.26 8.64
8/21/2022 3:45:00 PM 25.46 77.828 0.364 8.1 29.87 8.63
8/21/2022 4:00:00 PM 25.39 77.702 0.359 8.11 28.93 8.62
8/21/2022 4:15:00 PM 25.27 77.486 0.354 8.11 28.54 8.58
8/21/2022 4:30:00 PM 25.17 77.306 0.352 8.11 27.84 8.6
8/21/2022 4:45:00 PM 25.04 77.07201 0.339 8.11 27.02 8.6
8/21/2022 5:00:00 PM 25 77 0.331 8.13 26.15 8.6
8/21/2022 5:15:00 PM 25.02 77.036 0.332 8.14 24.82 8.68
8/21/2022 5:30:00 PM 25.11 77.198 0.34 8.15 23.73 8.78
8/21/2022 5:45:00 PM 25.23 77.414 0.347 8.17 22.63 8.85
8/21/2022 6:00:00 PM 25.28 77.504 0.351 8.19 21.62 8.9
8/21/2022 6:15:00 PM 25.28 77.504 0.357 8.19 21.36 8.96
8/21/2022 6:30:00 PM 25.76 78.368 0.373 7.98 24.93 8.89
8/21/2022 6:45:00 PM 25.39 77.702 0.359 8.1 27.61 8.99
8/21/2022 7:00:00 PM 25.36 77.648 0.359 8.18 26.82 9.02
8/21/2022 7:15:00 PM 25.32 77.576 0.36 8.18 25.86 8.99
8/21/2022 7:30:00 PM 25.29 77.522 0.36 8.18 24.93 8.94
8/21/2022 7:45:00 PM 25.26 77.468 0.361 8.17 23.87 8.91
8/21/2022 8:00:00 PM 25.25 77.45 0.361 8.17 22.96 8.85
8/21/2022 8:15:00 PM 25.24 77.432 0.362 8.17 21.8 8.86
8/21/2022 8:30:00 PM 25.2 77.36 0.362 8.18 21.21 8.83
8/21/2022 8:45:00 PM 25.18 77.324 0.362 8.19 20.47 8.86
8/21/2022 9:00:00 PM 25.2 77.36 0.363 8.2 19.96 8.83
8/21/2022 9:15:00 PM 25.16 77.288 0.363 8.21 19.56 8.83
8/21/2022 9:30:00 PM 25.14 77.252 0.364 8.21 19.43 8.83
8/21/2022 9:45:00 PM 25.15 77.27 0.364 8.22 19.21 8.78
8/21/2022 10:00:00 PM 25.1 77.18 0.365 8.23 18.93 8.82
8/21/2022 10:15:00 PM 25.14 77.252 0.366 8.24 19.24 8.82
8/21/2022 10:30:00 PM 25.08 77.144 0.367 8.25 18.21 8.79
8/21/2022 10:45:00 PM 25.1 77.18 0.367 8.25 18.17 8.84
8/21/2022 11:00:00 PM 25.06 77.108 0.367 8.24 18 8.78
8/21/2022 11:15:00 PM 25.01 77.018 0.368 8.23 17.85 8.75
8/21/2022 11:30:00 PM 24.97 76.946 0.368 8.22 17.66 8.77
8/21/2022 11:45:00 PM 24.92 76.856 0.368 8.21 17.44 8.72
8/22/2022 12:00:00 AM 24.88 76.784 0.368 8.19 17.21 8.64
8/22/2022 12:15:00 AM 24.84 76.712 0.367 8.18 16.98 8.6
8/22/2022 12:30:00 AM 24.79 76.622 0.367 8.16 16.77 8.54
8/22/2022 12:45:00 AM 24.8 76.64 0.367 8.15 16.39 8.47
8/22/2022 1:00:00 AM 24.74 76.532 0.366 8.13 15.82 8.53
8/22/2022 1:15:00 AM 24.72 76.496 0.366 8.12 15.46 8.5
8/22/2022 1:30:00 AM 24.67 76.406 0.365 8.1 15.12 8.45
8/22/2022 1:45:00 AM 24.64 76.352 0.365 8.09 14.93 8.42
8/22/2022 2:00:00 AM 24.63 76.334 0.365 8.08 14.57 8.36
8/22/2022 2:15:00 AM 24.61 76.298 0.365 8.07 13.88 8.32
8/22/2022 2:30:00 AM 24.57 76.226 0.364 8.06 14.54 8.3
8/22/2022 2:45:00 AM 24.54 76.172 0.364 8.05 14 8.3
8/22/2022 3:00:00 AM 24.56 76.208 0.364 8.04 13.06 8.24
8/22/2022 3:15:00 AM 25.35 77.63 0.381 7.97 16.79 8.83
8/22/2022 3:30:00 AM 24.97 76.946 0.371 7.92 27.34 8.81
8/22/2022 3:45:00 AM 24.5 76.1 0.363 8.01 18.44 8.46
8/22/2022 4:00:00 AM 24.48 76.064 0.363 8.02 18.09 8.33
8/22/2022 4:15:00 AM 24.47 76.046 0.362 8.02 17.45 8.27
8/22/2022 4:30:00 AM 24.45 76.01 0.362 8.01 16.83 8.24
8/22/2022 4:45:00 AM 24.45 76.01 0.362 8 16.36 8.19
8/22/2022 5:00:00 AM 24.43 75.974 0.362 8 16.06 8.14
8/22/2022 5:15:00 AM 24.42 75.956 0.362 7.99 15.47 8.11
8/22/2022 5:30:00 AM 24.41 75.938 0.362 7.98 14.77 8.04
8/22/2022 5:45:00 AM 24.4 75.92 0.363 7.98 14.2 8.03
8/22/2022 6:00:00 AM 24.4 75.92 0.363 7.97 13.49 8
8/22/2022 6:15:00 AM 24.41 75.938 0.363 7.96 12.86 7.97
8/22/2022 6:30:00 AM 24.41 75.938 0.364 7.96 12.43 7.94
8/22/2022 6:45:00 AM 24.38 75.884 0.364 7.95 12.15 7.94
8/22/2022 7:00:00 AM 24.43 75.974 0.365 7.95 11.82 7.92
8/22/2022 7:15:00 AM 24.39 75.902 0.365 7.94 10.92 7.91
8/22/2022 7:30:00 AM 24.37 75.866 0.366 7.95 10.64 7.89
8/22/2022 7:45:00 AM 24.41 75.938 0.365 7.95 10.35 7.95
8/22/2022 8:00:00 AM 24.4 75.92 0.365 7.95 10.13 7.97
8/22/2022 8:15:00 AM 24.45 76.01 0.365 7.96 9.86 8.03
8/22/2022 8:30:00 AM 24.47 76.046 0.366 7.97 9.45 8.11
8/22/2022 8:45:00 AM 24.49 76.082 0.366 7.98 9.1 8.12
8/22/2022 9:00:00 AM 24.45 76.01 0.366 7.98 8.74 8.09
8/22/2022 9:15:00 AM 24.51 76.118 0.366 7.98 8.53 8.14
8/22/2022 9:30:00 AM 24.77 76.586 0.376 7.98 11.91 8.72
8/22/2022 9:45:00 AM 24.71 76.478 0.372 7.91 20.42 8.8
8/22/2022 10:00:00 AM 24.55 76.19 0.367 7.95 23.21 8.61
8/22/2022 10:15:00 AM 24.57 76.226 0.366 7.99 21.79 8.51
8/22/2022 10:30:00 AM 24.65 76.37 0.366 8.01 21.86 8.57
8/22/2022 10:45:00 AM 24.69 76.442 0.367 8.02 21.29 8.61
8/22/2022 11:00:00 AM 24.77 76.586 0.367 8.04 20.7 8.65
8/22/2022 11:15:00 AM 24.85 76.73 0.367 8.06 19.73 8.71
8/22/2022 11:30:00 AM 24.91 76.838 0.368 8.07 19.36 8.73
8/22/2022 11:45:00 AM 24.98 76.964 0.368 8.08 18.03 8.77
8/22/2022 12:00:00 PM 25.13 77.234 0.369 8.1 17.7 8.83
8/22/2022 12:15:00 PM 25.23 77.414 0.369 8.12 17.35 8.88
8/22/2022 12:30:00 PM 25.39 77.702 0.37 8.13 17.07 8.97
8/22/2022 12:45:00 PM 25.51 77.918 0.37 8.15 16.79 9.01
8/22/2022 1:00:00 PM 25.69 78.242 0.37 8.17 16.45 9.08
8/22/2022 1:15:00 PM 25.78 78.404 0.37 8.18 16.28 9.1
8/22/2022 1:30:00 PM 25.91 78.638 0.37 8.2 16.01 9.15
8/22/2022 1:45:00 PM 25.92 78.656 0.37 8.21 15.71 9.2
8/22/2022 2:00:00 PM 25.99 78.782 0.369 8.22 15.89 9.18
8/22/2022 2:15:00 PM 25.97 78.746 0.369 8.23 16.31 9.24
8/22/2022 2:30:00 PM 25.94 78.692 0.37 8.24 16.23 9.3
8/22/2022 2:45:00 PM 25.99 78.782 0.37 8.26 16.24 9.37
8/22/2022 3:00:00 PM 26.08 78.944 0.37 8.28 16.23 9.44
8/22/2022 3:15:00 PM 26.12 79.016 0.37 8.3 16.04 9.49
8/22/2022 3:30:00 PM 26.22 79.196 0.37 8.31 16.08 9.55
8/22/2022 3:45:00 PM 26.32 79.376 0.37 8.32 15.83 9.56
8/22/2022 4:00:00 PM 26.35 79.43 0.37 8.33 15.55 9.61
8/22/2022 4:15:00 PM 26.43 79.574 0.37 8.35 15.24 9.61
8/22/2022 4:30:00 PM 26.52 79.736 0.37 8.36 15.15 9.66
8/22/2022 4:45:00 PM 26.56 79.808 0.37 8.39 15.2 9.73
8/22/2022 5:00:00 PM 26.57 79.826 0.37 8.4 15.22 9.77
8/22/2022 5:15:00 PM 26.59 79.862 0.37 8.42 14.18 9.81
8/22/2022 5:30:00 PM 26.63 79.934 0.37 8.43 14.65 9.83
8/22/2022 5:45:00 PM 26.55 79.79 0.37 8.44 14.62 9.84
8/22/2022 6:00:00 PM 26.53 79.754 0.37 8.44 14.56 9.78
8/22/2022 6:15:00 PM 26.48 79.664 0.371 8.44 14.31 9.8
8/22/2022 6:30:00 PM 26.44 79.592 0.371 8.45 14.42 9.76
8/22/2022 6:45:00 PM 26.43 79.574 0.371 8.45 14.31 9.77
8/22/2022 7:00:00 PM 26.4 79.52 0.371 8.45 14.34 9.75
8/22/2022 7:15:00 PM 26.38 79.484 0.374 8.45 17.7 9.76
8/22/2022 7:30:00 PM 26.35 79.43 0.375 8.46 17.25 9.76
8/22/2022 7:45:00 PM 26.32 79.376 0.375 8.45 17.88 9.76
8/22/2022 8:00:00 PM 26.3 79.34 0.375 8.46 17.61 9.7
8/22/2022 8:15:00 PM 26.28 79.304 0.375 8.46 17.47 9.7
8/22/2022 8:30:00 PM 26.25 79.25 0.383 8.46 21.41 9.65
8/22/2022 8:45:00 PM 26.29 79.32201 0.382 8.47 22.58 9.62
8/22/2022 9:00:00 PM 26.23 79.214 0.38 8.47 31.13 9.53
8/22/2022 9:15:00 PM 26.19 79.142 0.376 8.47 30.66 9.45
8/22/2022 9:30:00 PM 26.08 78.944 0.37 8.47 29.92 9.39
8/22/2022 9:45:00 PM 26.1 78.98 0.374 8.48 29.17 9.35
8/22/2022 10:00:00 PM 26.08 78.944 0.377 8.47 28.88 9.28
8/22/2022 10:15:00 PM 26.04 78.872 0.379 8.46 27.68 9.25
8/22/2022 10:30:00 PM 26.03 78.854 0.379 8.45 27.21 9.2
8/22/2022 10:45:00 PM 25.97 78.746 0.378 8.44 26.46 9.11
8/22/2022 11:00:00 PM 25.92 78.656 0.378 8.43 25.65 9.01
8/22/2022 11:15:00 PM 25.88 78.584 0.377 8.41 24.9 8.97
8/22/2022 11:30:00 PM 25.89 78.602 0.377 8.4 24.71 8.92
8/22/2022 11:45:00 PM 25.82 78.476 0.377 8.39 24.35 8.84
8/23/2022 12:00:00 AM 25.79 78.422 0.377 8.37 24.12 8.77
8/23/2022 12:15:00 AM 25.73 78.314 0.377 8.35 23.84 8.71
8/23/2022 12:30:00 AM 25.67 78.206 0.378 8.33 23.73 8.71
8/23/2022 12:45:00 AM 25.5 77.9 0.388 8.18 19.36 8.86
8/23/2022 1:00:00 AM 25.59 78.062 0.386 8.04 22.9 8.88
8/23/2022 1:15:00 AM 25.59 78.062 0.38 8.16 25.29 8.84
8/23/2022 1:30:00 AM 25.49 77.882 0.379 8.23 23.85 8.74
8/23/2022 1:45:00 AM 25.36 77.648 0.377 8.21 22.7 8.67
8/23/2022 2:00:00 AM 25.3 77.54 0.375 8.19 21.75 8.57
8/23/2022 2:15:00 AM 25.19 77.342 0.374 8.17 21.61 8.51
8/23/2022 2:30:00 AM 25.17 77.306 0.372 8.15 22.26 8.46
8/23/2022 2:45:00 AM 25.08 77.144 0.371 8.14 26.54 8.38
8/23/2022 3:00:00 AM 25.01 77.018 0.37 8.11 30.37 8.31
8/23/2022 3:15:00 AM 24.96 76.92799 0.369 8.09 29.43 8.21
8/23/2022 3:30:00 AM 24.9 76.82 0.369 8.08 28.66 8.14
8/23/2022 3:45:00 AM 24.85 76.73 0.368 8.06 28.35 8.09
8/23/2022 4:00:00 AM 24.83 76.694 0.368 8.04 28.06 8.03
8/23/2022 4:15:00 AM 24.74 76.532 0.368 8.03 27.74 7.99
8/23/2022 4:30:00 AM 24.67 76.406 0.368 8.01 27.39 7.93
8/23/2022 4:45:00 AM 24.67 76.406 0.368 8 26.98 7.9
8/23/2022 5:00:00 AM 24.65 76.37 0.367 7.99 26.67 7.83
8/23/2022 5:15:00 AM 24.52 76.136 0.368 7.97 26.48 7.81
8/23/2022 5:30:00 AM 24.57 76.226 0.368 7.96 26.05 7.77
8/23/2022 5:45:00 AM 24.48 76.064 0.369 7.95 25.72 7.75
8/23/2022 6:00:00 AM 24.39 75.902 0.369 7.94 25.05 7.71
8/23/2022 6:15:00 AM 24.29 75.722 0.37 7.94 23.95 7.69
8/23/2022 6:30:00 AM 24.25 75.65 0.371 7.93 22.33 7.63
8/23/2022 6:45:00 AM 24.22 75.596 0.372 7.93 19.05 7.68
8/23/2022 7:00:00 AM 24.17 75.506 0.373 7.92 18.08 7.66
8/23/2022 7:15:00 AM 24.15 75.47 0.373 7.92 17.86 7.7
8/23/2022 7:30:00 AM 24.11 75.398 0.374 7.92 17.59 7.77
8/23/2022 7:45:00 AM 24.08 75.344 0.374 7.92 17.73 7.73
8/23/2022 8:00:00 AM 24.04 75.272 0.377 7.93 33.04 7.85
8/23/2022 8:15:00 AM 24.11 75.398 0.376 7.93 33.36 7.9
8/23/2022 8:30:00 AM 24.09 75.362 0.377 7.94 33.54 7.98
8/23/2022 8:45:00 AM 24.17 75.506 0.377 7.95 33.53 8.09
8/23/2022 9:00:00 AM 25.13 77.234 0.396 7.93 37.44 8.8
8/23/2022 9:15:00 AM 24.92 76.856 0.387 7.9 37.12 8.75
8/23/2022 9:30:00 AM 24.27 75.686 0.377 7.97 37.5 8.53
8/23/2022 9:45:00 AM 24.3 75.74 0.377 7.99 37.83 8.49
8/23/2022 10:00:00 AM 24.36 75.848 0.378 8 37.99 8.51
8/23/2022 10:15:00 AM 24.42 75.956 0.378 8.01 38 8.54
8/23/2022 10:30:00 AM 24.6 76.28 0.378 8.04 37.98 8.64
8/23/2022 10:45:00 AM 24.69 76.442 0.378 8.05 38.11 8.68
8/23/2022 11:00:00 AM 24.72 76.496 0.377 8.07 38.1 8.73
8/23/2022 11:15:00 AM 24.78 76.604 0.377 8.08 38.16 8.77
8/23/2022 11:30:00 AM 24.85 76.73 0.377 8.09 38.06 8.79
8/23/2022 11:45:00 AM 24.95 76.91 0.376 8.1 38.12 8.86
8/23/2022 12:00:00 PM 25 77 0.376 8.11 38.24 8.92
8/23/2022 12:15:00 PM 24.95 76.91 0.375 8.12 38.43 8.91
8/23/2022 12:30:00 PM 25.1 77.18 0.375 8.15 37.88 9.01
8/23/2022 12:45:00 PM 25.15 77.27 0.374 8.16 38.88 9.07
8/23/2022 1:00:00 PM 25.28 77.504 0.374 8.19 39.28 9.14
8/23/2022 1:15:00 PM 25.46 77.828 0.373 8.2 39.99 9.21
8/23/2022 1:30:00 PM 25.54 77.972 0.374 8.22 38.89 9.25
8/23/2022 1:45:00 PM 25.57 78.026 0.372 8.23 40.53 9.31
8/23/2022 2:00:00 PM 25.73 78.314 0.372 8.25 39.27 9.37
8/23/2022 2:15:00 PM 25.84 78.512 0.372 8.27 39.38 9.46
8/23/2022 2:30:00 PM 25.88 78.584 0.371 8.28 39.59 9.47
8/23/2022 2:45:00 PM 25.95 78.71 0.37 8.29 39.69 9.51
8/23/2022 3:00:00 PM 26.01 78.818 0.37 8.31 39.82 9.58
8/23/2022 3:15:00 PM 26.17 79.106 0.37 8.33 40.43 9.5
8/23/2022 3:30:00 PM 26.2 79.16 0.37 8.34 40.55 9.67
8/23/2022 3:45:00 PM 26.21 79.17799 0.37 8.36 39.82 9.74
8/23/2022 4:00:00 PM 26.25 79.25 0.369 8.38 39.61 9.81
8/23/2022 4:15:00 PM 26.29 79.32201 0.369 8.4 39.91 9.84
8/23/2022 4:30:00 PM 26.34 79.412 0.369 8.43 39.78 9.91
8/23/2022 4:45:00 PM 26.37 79.466 0.369 8.46 40.34 10.02
8/23/2022 5:00:00 PM 25.91 78.638 0.383 8.09 35.74 9.18
8/23/2022 5:15:00 PM 26.15 79.07 0.372 8.21 39.22 9.38
8/23/2022 5:30:00 PM 26.36 79.448 0.368 8.41 39.21 9.93
8/23/2022 5:45:00 PM 26.41 79.538 0.367 8.44 39.61 9.92
8/23/2022 6:00:00 PM 26.42 79.556 0.367 8.45 39.63 9.96
8/23/2022 6:15:00 PM 26.45 79.61 0.367 8.47 39.94 9.94
8/23/2022 6:30:00 PM 26.46 79.628 0.367 8.49 39.63 9.98
8/23/2022 6:45:00 PM 26.42 79.556 0.367 8.5 39.25 9.99
8/23/2022 7:00:00 PM 26.42 79.556 0.367 8.51 38.98 9.99
8/23/2022 7:15:00 PM 26.42 79.556 0.367 8.51 40.37 9.95
8/23/2022 7:30:00 PM 26.4 79.52 0.368 8.51 40.48 9.93
8/23/2022 7:45:00 PM 26.38 79.484 0.368 8.51 40.24 9.89
8/23/2022 8:00:00 PM 26.33 79.394 0.368 8.52 40.29 9.85
8/23/2022 8:15:00 PM 26.33 79.394 0.368 8.53 40.21 9.86
8/23/2022 8:30:00 PM 26.32 79.376 0.369 8.53 41.68 9.84
8/23/2022 8:45:00 PM 26.36 79.448 0.368 8.52 40.77 9.78
8/23/2022 9:00:00 PM 26.33 79.394 0.368 8.52 41.86 9.77
8/23/2022 9:15:00 PM 26.32 79.376 0.369 8.53 41.45 9.72
8/23/2022 9:30:00 PM 26.28 79.304 0.369 8.52 42.13 9.67
8/23/2022 9:45:00 PM 26.27 79.286 0.369 8.52 43.1 9.63
8/23/2022 10:00:00 PM 26.23 79.214 0.369 8.51 42.83 9.6
8/23/2022 10:15:00 PM 26.25 79.25 0.369 8.51 41.8 9.53
8/23/2022 10:30:00 PM 26.22 79.196 0.369 8.51 42.86 9.49
8/23/2022 10:45:00 PM 26.22 79.196 0.368 8.5 43.64 9.53
8/23/2022 11:00:00 PM 26.2 79.16 0.369 8.49 44.24 9.47
8/23/2022 11:15:00 PM 26.17 79.106 0.369 8.48 44.23 9.4
8/23/2022 11:30:00 PM 26.15 79.07 0.369 8.47 43.71 9.33
8/23/2022 11:45:00 PM 26.14 79.052 0.369 8.46 43.65 9.3
8/24/2022 12:00:00 AM 26.11 78.998 0.368 8.44 44.65 9.21
8/24/2022 12:15:00 AM 26.07 78.926 0.369 8.43 44.69 9.16
8/24/2022 12:30:00 AM 26.01 78.818 0.369 8.41 44.23 9.1
8/24/2022 12:45:00 AM 25.97 78.746 0.369 8.4 43.6 9.04
8/24/2022 1:00:00 AM 25.76 78.368 0.38 8.1 41.76 9.04
8/24/2022 1:15:00 AM 25.88 78.584 0.375 8.1 41.14 8.98
8/24/2022 1:30:00 AM 25.82 78.476 0.368 8.33 44.53 8.89
8/24/2022 1:45:00 AM 25.78 78.404 0.368 8.32 49.06 8.81
8/24/2022 2:00:00 AM 25.67 78.206 0.369 8.31 47.86 8.8
8/24/2022 2:15:00 AM 25.61 78.098 0.369 8.28 45.41 8.74
8/24/2022 2:30:00 AM 25.56 78.008 0.369 8.26 42.91 8.68
8/24/2022 2:45:00 AM 25.49 77.882 0.369 8.24 42.66 8.62
8/24/2022 3:00:00 AM 25.42 77.756 0.369 8.22 44.42 8.56
8/24/2022 3:15:00 AM 25.35 77.63 0.37 8.2 49.8 8.51
8/24/2022 3:30:00 AM 25.28 77.504 0.372 8.18 68.9 8.45
8/24/2022 3:45:00 AM 25.26 77.468 0.372 8.16 69.1 8.41
8/24/2022 4:00:00 AM 25.25 77.45 0.372 8.14 69.58 8.36
8/24/2022 4:15:00 AM 25.17 77.306 0.372 8.12 68.82 8.3
8/24/2022 4:30:00 AM 25.11 77.198 0.372 8.1 68.91 8.27
8/24/2022 4:45:00 AM 25.11 77.198 0.373 8.08 69.57 8.2
8/24/2022 5:00:00 AM 25.04 77.07201 0.373 8.07 69.21 8.16
8/24/2022 5:15:00 AM 24.99 76.982 0.373 8.05 69.23 8.11
8/24/2022 5:30:00 AM 24.93 76.874 0.373 8.03 69.4 8.08
8/24/2022 5:45:00 AM 24.82 76.676 0.374 8.02 69.36 8.04
8/24/2022 6:00:00 AM 24.81 76.658 0.374 8 69.43 7.99
8/24/2022 6:15:00 AM 24.66 76.388 0.375 7.99 69.41 7.96
8/24/2022 6:30:00 AM 24.58 76.244 0.375 7.98 70.87 7.98
8/24/2022 6:45:00 AM 24.52 76.136 0.375 7.97 70.62 7.95
8/24/2022 7:00:00 AM 24.48 76.064 0.375 7.97 72.75 7.99
8/24/2022 7:15:00 AM 24.44 75.992 0.376 7.97 73.24 8.07
8/24/2022 7:30:00 AM 24.41 75.938 0.376 7.97 73.52 8.04
8/24/2022 7:45:00 AM 24.39 75.902 0.376 7.98 74.68 8.11
8/24/2022 8:00:00 AM 24.39 75.902 0.377 7.99 75.27 8.17
8/24/2022 8:15:00 AM 24.4 75.92 0.377 8 2.15 8.26
8/24/2022 8:30:00 AM 24.4 75.92 0.378 8.01 2.24 8.31
8/24/2022 8:45:00 AM 24.43 75.974 0.378 8.02 1.73 8.37
8/24/2022 9:00:00 AM 24.45 76.01 0.379 8.04 1.75 8.46
8/24/2022 9:15:00 AM 24.49 76.082 0.379 8.04 1.77 8.51
8/24/2022 9:30:00 AM 24.54 76.172 0.38 8.07 2.06 8.63
8/24/2022 9:45:00 AM 24.6 76.28 0.38 8.09 1.84 8.74
8/24/2022 10:00:00 AM 24.66 76.388 0.38 8.11 1.72 8.82
8/24/2022 10:15:00 AM 24.71 76.478 0.381 8.12 1.83 8.86
8/24/2022 10:30:00 AM 24.79 76.622 0.381 8.14 2.17 8.97
8/24/2022 10:45:00 AM 24.91 76.838 0.381 8.16 1.6 9.04
8/24/2022 11:00:00 AM 25.03 77.054 0.382 8.18 1.78 9.13
8/24/2022 11:15:00 AM 25.39 77.702 0.389 8.03 6.16 9.12
8/24/2022 11:30:00 AM 25.34 77.612 0.385 8.05 6.58 9.12
8/24/2022 11:45:00 AM 25.31 77.558 0.383 8.23 1.77 9.28
8/24/2022 12:00:00 PM 25.43 77.774 0.383 8.25 1.76 9.34
8/24/2022 12:15:00 PM 25.58 78.044 0.383 8.28 1.51 9.38
8/24/2022 12:30:00 PM 25.68 78.224 0.383 8.3 1.48 9.54
8/24/2022 12:45:00 PM 25.78 78.404 0.384 8.32 1.71 9.62
8/24/2022 1:00:00 PM 25.89 78.602 0.384 8.34 1.59 9.7
8/24/2022 1:15:00 PM 25.96 78.728 0.384 8.36 1.54 9.71
8/24/2022 1:30:00 PM 26.07 78.926 0.384 8.37 1.49 9.78
8/24/2022 1:45:00 PM 26.23 79.214 0.384 8.39 1.57 9.86
8/24/2022 2:00:00 PM 26.36 79.448 0.384 8.42 1.53 9.94
8/24/2022 2:15:00 PM 26.46 79.628 0.385 8.44 1.53 9.98
8/24/2022 2:30:00 PM 26.59 79.862 0.385 8.46 1.45 10.06
8/24/2022 2:45:00 PM 26.69 80.042 0.385 8.48 1.87 10.16
8/24/2022 3:00:00 PM 26.82 80.276 0.384 8.5 1.44 10.18
8/24/2022 3:15:00 PM 26.92 80.456 0.384 8.53 1.45 10.26
8/24/2022 3:30:00 PM 27 80.6 0.384 8.54 1.48 10.34
8/24/2022 3:45:00 PM 27.05 80.69 0.385 8.55 1.51 10.4
8/24/2022 4:00:00 PM 27.11 80.798 0.384 8.57 1.55 10.43
8/24/2022 4:15:00 PM 27.11 80.798 0.384 8.58 1.61 10.48
8/24/2022 4:30:00 PM 27.17 80.906 0.384 8.6 1.63 10.51
8/24/2022 4:45:00 PM 27.19 80.942 0.384 8.62 1.6 10.59
8/24/2022 5:00:00 PM 27.22 80.996 0.384 8.63 1.48 10.58
8/24/2022 5:15:00 PM 27.24 81.032 0.384 8.64 1.51 10.63
8/24/2022 5:30:00 PM 27.26 81.068 0.384 8.65 1.56 10.64
8/24/2022 5:45:00 PM 27.27 81.086 0.384 8.65 1.68 10.66
8/24/2022 6:00:00 PM 27.24 81.032 0.384 8.65 1.48 10.63
8/24/2022 6:15:00 PM 27.24 81.032 0.384 8.65 1.62 10.54
8/24/2022 6:30:00 PM 27.24 81.032 0.384 8.65 1.73 10.46
8/24/2022 6:45:00 PM 27.26 81.068 0.384 8.65 1.8 10.44
8/24/2022 7:00:00 PM 27.13 80.834 0.386 8.63 4.47 10.31
8/24/2022 7:15:00 PM 26.7 80.06 0.39 8.24 5.16 9.36
8/24/2022 7:30:00 PM 27.12 80.816 0.385 8.52 2.62 9.39
8/24/2022 7:45:00 PM 27.31 81.158 0.384 8.66 2.23 9.73
8/24/2022 8:00:00 PM 27.31 81.158 0.384 8.67 1.87 9.89
8/24/2022 8:15:00 PM 27.29 81.122 0.383 8.67 1.78 9.96
8/24/2022 8:30:00 PM 27.28 81.104 0.383 8.68 2.08 10.05
8/24/2022 8:45:00 PM 27.28 81.104 0.383 8.69 2.23 10.06
8/24/2022 9:00:00 PM 27.27 81.086 0.383 8.7 2.83 10.13
8/24/2022 9:15:00 PM 27.25 81.05 0.383 8.7 2.7 10.16
8/24/2022 9:30:00 PM 27.24 81.032 0.383 8.7 2.16 10.17
8/24/2022 9:45:00 PM 27.23 81.014 0.383 8.7 2.21 10.11
8/24/2022 10:00:00 PM 27.19 80.942 0.383 8.71 2.62 10.1
8/24/2022 10:15:00 PM 27.17 80.906 0.383 8.7 2.46 10.09
8/24/2022 10:30:00 PM 27.13 80.834 0.383 8.7 2.77 10.09
8/24/2022 10:45:00 PM 27.12 80.816 0.383 8.69 2.83 9.99
8/24/2022 11:00:00 PM 27.08 80.744 0.383 8.69 2.21 10
8/24/2022 11:15:00 PM 27.03 80.654 0.383 8.69 1.89 9.88
8/24/2022 11:30:00 PM 26.98 80.564 0.383 8.68 2.06 9.89
8/24/2022 11:45:00 PM 26.95 80.51 0.383 8.67 1.66 9.86
8/25/2022 12:00:00 AM 26.91 80.438 0.383 8.66 1.69 9.84
8/25/2022 12:15:00 AM 26.83 80.294 0.383 8.65 2.41 9.75
8/25/2022 12:30:00 AM 26.78 80.204 0.382 8.64 1.89 9.69
8/25/2022 12:45:00 AM 26.73 80.114 0.382 8.63 1.82 9.58
8/25/2022 1:00:00 AM 26.67 80.006 0.382 8.61 1.82 9.52
8/25/2022 1:15:00 AM 26.61 79.898 0.382 8.6 2.63 9.47
8/25/2022 1:30:00 AM 26.55 79.79 0.382 8.58 1.78 9.44
8/25/2022 1:45:00 AM 26.5 79.7 0.382 8.56 1.89 9.34
8/25/2022 2:00:00 AM 26.41 79.538 0.382 8.54 1.96 9.29
8/25/2022 2:15:00 AM 26.34 79.412 0.382 8.52 1.92 9.22
8/25/2022 2:30:00 AM 26.26 79.268 0.382 8.5 1.8 9.1
8/25/2022 2:45:00 AM 26.13 79.034 0.392 8.27 4.98 9.21
8/25/2022 3:00:00 AM 26.28 79.304 0.389 8.15 5.27 9.1
8/25/2022 3:15:00 AM 26.08 78.944 0.383 8.36 1.88 9.02
8/25/2022 3:30:00 AM 25.94 78.692 0.381 8.38 1.95 8.95
8/25/2022 3:45:00 AM 25.85 78.53 0.382 8.35 2.18 8.85
8/25/2022 4:00:00 AM 25.76 78.368 0.382 8.32 1.8 8.78
8/25/2022 4:15:00 AM 25.68 78.224 0.383 8.29 1.88 8.77
8/25/2022 4:30:00 AM 25.59 78.062 0.384 8.27 1.74 8.68
8/25/2022 4:45:00 AM 25.5 77.9 0.384 8.24 1.77 8.61
8/25/2022 5:00:00 AM 25.41 77.738 0.384 8.21 1.87 8.53
8/25/2022 5:15:00 AM 25.31 77.558 0.385 8.18 1.83 8.42
8/25/2022 5:30:00 AM 25.21 77.378 0.386 8.16 1.9 8.41
8/25/2022 5:45:00 AM 25.13 77.234 0.386 8.14 1.77 8.32
8/25/2022 6:00:00 AM 25.05 77.09 0.386 8.11 2.04 8.26
8/25/2022 6:15:00 AM 24.97 76.946 0.385 8.09 2.03 8.25
8/25/2022 6:30:00 AM 24.89 76.802 0.385 8.08 2.04 8.24
8/25/2022 6:45:00 AM 24.81 76.658 0.385 8.07 1.96 8.26
8/25/2022 7:00:00 AM 24.73 76.514 0.388 8.07 1.98 8.27
8/25/2022 7:15:00 AM 24.66 76.388 0.392 8.08 1.98 8.28
8/25/2022 7:30:00 AM 24.6 76.28 0.394 8.08 1.88 8.32
8/25/2022 7:45:00 AM 24.56 76.208 0.394 8.09 2 8.38
8/25/2022 8:00:00 AM 24.52 76.136 0.391 8.1 1.86 8.05
8/25/2022 8:15:00 AM 24.49 76.082 0.388 8.1 2.14 8.13
8/25/2022 8:30:00 AM 24.47 76.046 0.386 8.11 1.89 8.51
8/25/2022 8:45:00 AM 24.47 76.046 0.384 8.12 1.92 8.59
8/25/2022 9:00:00 AM 24.48 76.064 0.383 8.13 3.56 8.64
8/25/2022 9:15:00 AM 24.51 76.118 0.177 8.14 8.18 8.7
8/25/2022 9:30:00 AM 24.55 76.19 0.38 8.15 31.01 8.8
8/25/2022 9:45:00 AM 24.59 76.262 0.376 8.19 1.78 8.88
8/25/2022 10:00:00 AM 24.65 76.37 0.378 8.2 2.06 9.02
8/25/2022 10:15:00 AM 24.72 76.496 0.377 8.22 1.8 9
8/25/2022 10:30:00 AM 24.79 76.622 0.377 8.24 1.72